<?xml version='1.0' encoding='UTF-8'?>
<gpx version="1.1" creator="https://www.komoot.de" xmlns="http://www.topografix.com/GPX/1/1" xmlns:xsi="http://www.w3.org/2001/XMLSchema-instance" xsi:schemaLocation="http://www.topografix.com/GPX/1/1 http://www.topografix.com/GPX/1/1/gpx.xsd">
  <metadata>
    <name>Pommes de Terre Sautées v2.4</name>
    <author>
      <link href="https://www.komoot.de">
        <text>komoot</text>
        <type>text/html</type>
      </link>
    </author>
  </metadata>
  <trk>
    <name>Pommes de Terre Sautées v2.4</name>
    <trkseg>
      <trkpt lat="48.891675" lon="2.262442">
        <ele>28.888727</ele>
        <time>2022-09-04T11:49:36.743Z</time>
      </trkpt>
      <trkpt lat="48.891621" lon="2.262385">
        <ele>28.888727</ele>
        <time>2022-09-04T11:49:38.390Z</time>
      </trkpt>
      <trkpt lat="48.890968" lon="2.260833">
        <ele>29.328869</ele>
        <time>2022-09-04T11:50:14.271Z</time>
      </trkpt>
      <trkpt lat="48.890760" lon="2.260389">
        <ele>29.746372</ele>
        <time>2022-09-04T11:50:25.941Z</time>
      </trkpt>
      <trkpt lat="48.890711" lon="2.260344">
        <ele>29.813043</ele>
        <time>2022-09-04T11:50:27.639Z</time>
      </trkpt>
      <trkpt lat="48.890368" lon="2.260761">
        <ele>30.324502</ele>
        <time>2022-09-04T11:50:39.008Z</time>
      </trkpt>
      <trkpt lat="48.890204" lon="2.260524">
        <ele>30.588000</ele>
        <time>2022-09-04T11:50:44.377Z</time>
      </trkpt>
      <trkpt lat="48.890272" lon="2.260655">
        <ele>30.715819</ele>
        <time>2022-09-04T11:50:47.085Z</time>
      </trkpt>
      <trkpt lat="48.890240" lon="2.260694">
        <ele>30.763582</ele>
        <time>2022-09-04T11:50:48.281Z</time>
      </trkpt>
      <trkpt lat="48.889996" lon="2.260344">
        <ele>31.137285</ele>
        <time>2022-09-04T11:50:56.768Z</time>
      </trkpt>
      <trkpt lat="48.889964" lon="2.260296">
        <ele>31.184429</ele>
        <time>2022-09-04T11:50:57.958Z</time>
      </trkpt>
      <trkpt lat="48.889472" lon="2.259608">
        <ele>31.885497</ele>
        <time>2022-09-04T11:51:15.306Z</time>
      </trkpt>
      <trkpt lat="48.889435" lon="2.259565">
        <ele>31.934342</ele>
        <time>2022-09-04T11:51:16.419Z</time>
      </trkpt>
      <trkpt lat="48.889165" lon="2.259200">
        <ele>32.313266</ele>
        <time>2022-09-04T11:51:24.274Z</time>
      </trkpt>
      <trkpt lat="48.888434" lon="2.258152">
        <ele>33.629970</ele>
        <time>2022-09-04T11:51:47.585Z</time>
      </trkpt>
      <trkpt lat="48.888094" lon="2.257704">
        <ele>34.351679</ele>
        <time>2022-09-04T11:51:59.865Z</time>
      </trkpt>
      <trkpt lat="48.887845" lon="2.257413">
        <ele>34.855472</ele>
        <time>2022-09-04T11:52:09.361Z</time>
      </trkpt>
      <trkpt lat="48.887310" lon="2.256763">
        <ele>35.862924</ele>
        <time>2022-09-04T11:52:30.577Z</time>
      </trkpt>
      <trkpt lat="48.886401" lon="2.256093">
        <ele>36.738165</ele>
        <time>2022-09-04T11:52:56.973Z</time>
      </trkpt>
      <trkpt lat="48.885997" lon="2.255811">
        <ele>37.123326</ele>
        <time>2022-09-04T11:53:05.788Z</time>
      </trkpt>
      <trkpt lat="48.884970" lon="2.255091">
        <ele>36.138284</ele>
        <time>2022-09-04T11:53:24.900Z</time>
      </trkpt>
      <trkpt lat="48.884915" lon="2.255067">
        <ele>36.064363</ele>
        <time>2022-09-04T11:53:25.778Z</time>
      </trkpt>
      <trkpt lat="48.884244" lon="2.254743">
        <ele>35.154854</ele>
        <time>2022-09-04T11:53:36.590Z</time>
      </trkpt>
      <trkpt lat="48.883701" lon="2.254282">
        <ele>34.725225</ele>
        <time>2022-09-04T11:53:47.002Z</time>
      </trkpt>
      <trkpt lat="48.883398" lon="2.254010">
        <ele>34.536442</ele>
        <time>2022-09-04T11:53:53.354Z</time>
      </trkpt>
      <trkpt lat="48.882922" lon="2.253597">
        <ele>34.242404</ele>
        <time>2022-09-04T11:54:03.513Z</time>
      </trkpt>
      <trkpt lat="48.882390" lon="2.253145">
        <ele>33.991349</ele>
        <time>2022-09-04T11:54:15.305Z</time>
      </trkpt>
      <trkpt lat="48.881513" lon="2.252381">
        <ele>33.822441</ele>
        <time>2022-09-04T11:54:34.937Z</time>
      </trkpt>
      <trkpt lat="48.880674" lon="2.251526">
        <ele>33.937715</ele>
        <time>2022-09-04T11:54:52.653Z</time>
      </trkpt>
      <trkpt lat="48.880077" lon="2.250780">
        <ele>34.321962</ele>
        <time>2022-09-04T11:55:07.756Z</time>
      </trkpt>
      <trkpt lat="48.879423" lon="2.249955">
        <ele>34.993850</ele>
        <time>2022-09-04T11:55:31.631Z</time>
      </trkpt>
      <trkpt lat="48.878518" lon="2.248811">
        <ele>36.746380</ele>
        <time>2022-09-04T11:56:05.727Z</time>
      </trkpt>
      <trkpt lat="48.877650" lon="2.247768">
        <ele>36.512093</ele>
        <time>2022-09-04T11:56:29.225Z</time>
      </trkpt>
      <trkpt lat="48.877512" lon="2.247477">
        <ele>36.260153</ele>
        <time>2022-09-04T11:56:33.083Z</time>
      </trkpt>
      <trkpt lat="48.876971" lon="2.246963">
        <ele>35.578981</ele>
        <time>2022-09-04T11:56:42.796Z</time>
      </trkpt>
      <trkpt lat="48.876426" lon="2.246448">
        <ele>34.297898</ele>
        <time>2022-09-04T11:56:52.243Z</time>
      </trkpt>
      <trkpt lat="48.876363" lon="2.246454">
        <ele>34.147431</ele>
        <time>2022-09-04T11:56:53.139Z</time>
      </trkpt>
      <trkpt lat="48.876227" lon="2.246475">
        <ele>33.821581</ele>
        <time>2022-09-04T11:56:55.170Z</time>
      </trkpt>
      <trkpt lat="48.876118" lon="2.246488">
        <ele>33.560959</ele>
        <time>2022-09-04T11:56:56.777Z</time>
      </trkpt>
      <trkpt lat="48.876013" lon="2.246573">
        <ele>33.277407</ele>
        <time>2022-09-04T11:56:59.876Z</time>
      </trkpt>
      <trkpt lat="48.876050" lon="2.246425">
        <ele>33.029185</ele>
        <time>2022-09-04T11:57:01.466Z</time>
      </trkpt>
      <trkpt lat="48.876127" lon="2.246189">
        <ele>32.616175</ele>
        <time>2022-09-04T11:57:04.078Z</time>
      </trkpt>
      <trkpt lat="48.876051" lon="2.246132">
        <ele>32.414173</ele>
        <time>2022-09-04T11:57:05.334Z</time>
      </trkpt>
      <trkpt lat="48.875358" lon="2.245589">
        <ele>30.813499</ele>
        <time>2022-09-04T11:57:17.418Z</time>
      </trkpt>
      <trkpt lat="48.875338" lon="2.245534">
        <ele>30.762504</ele>
        <time>2022-09-04T11:57:18.218Z</time>
      </trkpt>
      <trkpt lat="48.875317" lon="2.245480">
        <ele>30.711602</ele>
        <time>2022-09-04T11:57:23.292Z</time>
      </trkpt>
      <trkpt lat="48.875272" lon="2.245361">
        <ele>30.600221</ele>
        <time>2022-09-04T11:57:24.890Z</time>
      </trkpt>
      <trkpt lat="48.874665" lon="2.244825">
        <ele>29.734227</ele>
        <time>2022-09-04T11:57:37.617Z</time>
      </trkpt>
      <trkpt lat="48.873526" lon="2.243591">
        <ele>28.926488</ele>
        <time>2022-09-04T11:58:05.666Z</time>
      </trkpt>
      <trkpt lat="48.872748" lon="2.242931">
        <ele>28.997312</ele>
        <time>2022-09-04T11:58:26.221Z</time>
      </trkpt>
      <trkpt lat="48.872641" lon="2.242890">
        <ele>29.006084</ele>
        <time>2022-09-04T11:58:28.933Z</time>
      </trkpt>
      <trkpt lat="48.872557" lon="2.242730">
        <ele>29.039066</ele>
        <time>2022-09-04T11:58:32.197Z</time>
      </trkpt>
      <trkpt lat="48.872499" lon="2.242619">
        <ele>29.104016</ele>
        <time>2022-09-04T11:58:34.546Z</time>
      </trkpt>
      <trkpt lat="48.872437" lon="2.241949">
        <ele>29.414004</ele>
        <time>2022-09-04T11:58:45.791Z</time>
      </trkpt>
      <trkpt lat="48.872069" lon="2.241320">
        <ele>29.799693</ele>
        <time>2022-09-04T11:59:00.128Z</time>
      </trkpt>
      <trkpt lat="48.871470" lon="2.240093">
        <ele>30.369633</ele>
        <time>2022-09-04T11:59:24.945Z</time>
      </trkpt>
      <trkpt lat="48.870817" lon="2.238063">
        <ele>30.815937</ele>
        <time>2022-09-04T11:59:58.343Z</time>
      </trkpt>
      <trkpt lat="48.870373" lon="2.236231">
        <ele>30.591539</ele>
        <time>2022-09-04T12:00:25.488Z</time>
      </trkpt>
      <trkpt lat="48.870270" lon="2.236177">
        <ele>30.572501</ele>
        <time>2022-09-04T12:00:27.845Z</time>
      </trkpt>
      <trkpt lat="48.869951" lon="2.236347">
        <ele>30.513435</ele>
        <time>2022-09-04T12:00:34.533Z</time>
      </trkpt>
      <trkpt lat="48.869729" lon="2.235297">
        <ele>30.276724</ele>
        <time>2022-09-04T12:00:48.897Z</time>
      </trkpt>
      <trkpt lat="48.869920" lon="2.235152">
        <ele>30.204913</ele>
        <time>2022-09-04T12:00:52.977Z</time>
      </trkpt>
      <trkpt lat="48.869937" lon="2.235085">
        <ele>30.189025</ele>
        <time>2022-09-04T12:00:58.804Z</time>
      </trkpt>
      <trkpt lat="48.869425" lon="2.234020">
        <ele>29.911001</ele>
        <time>2022-09-04T12:01:14.941Z</time>
      </trkpt>
      <trkpt lat="48.868710" lon="2.232867">
        <ele>31.003488</ele>
        <time>2022-09-04T12:01:38.038Z</time>
      </trkpt>
      <trkpt lat="48.867838" lon="2.231795">
        <ele>32.124195</ele>
        <time>2022-09-04T12:02:10.591Z</time>
      </trkpt>
      <trkpt lat="48.867678" lon="2.231680">
        <ele>32.283883</ele>
        <time>2022-09-04T12:02:15.030Z</time>
      </trkpt>
      <trkpt lat="48.867510" lon="2.231669">
        <ele>32.435608</ele>
        <time>2022-09-04T12:02:19.073Z</time>
      </trkpt>
      <trkpt lat="48.867442" lon="2.231362">
        <ele>32.627873</ele>
        <time>2022-09-04T12:02:25.699Z</time>
      </trkpt>
      <trkpt lat="48.866735" lon="2.230705">
        <ele>33.375536</ele>
        <time>2022-09-04T12:02:55.200Z</time>
      </trkpt>
      <trkpt lat="48.866726" lon="2.230697">
        <ele>33.384943</ele>
        <time>2022-09-04T12:02:55.558Z</time>
      </trkpt>
      <trkpt lat="48.866740" lon="2.230643">
        <ele>33.401927</ele>
        <time>2022-09-04T12:02:56.809Z</time>
      </trkpt>
      <trkpt lat="48.866470" lon="2.230425">
        <ele>33.230174</ele>
        <time>2022-09-04T12:03:07.539Z</time>
      </trkpt>
      <trkpt lat="48.866448" lon="2.230472">
        <ele>33.208856</ele>
        <time>2022-09-04T12:03:08.820Z</time>
      </trkpt>
      <trkpt lat="48.866264" lon="2.230345">
        <ele>33.095329</ele>
        <time>2022-09-04T12:03:14.880Z</time>
      </trkpt>
      <trkpt lat="48.865888" lon="2.230029">
        <ele>32.853959</ele>
        <time>2022-09-04T12:03:28.040Z</time>
      </trkpt>
      <trkpt lat="48.865544" lon="2.229836">
        <ele>32.647958</ele>
        <time>2022-09-04T12:03:38.620Z</time>
      </trkpt>
      <trkpt lat="48.865432" lon="2.229708">
        <ele>32.569238</ele>
        <time>2022-09-04T12:03:42.625Z</time>
      </trkpt>
      <trkpt lat="48.865015" lon="2.229428">
        <ele>32.277352</ele>
        <time>2022-09-04T12:03:55.324Z</time>
      </trkpt>
      <trkpt lat="48.863998" lon="2.228938">
        <ele>31.425766</ele>
        <time>2022-09-04T12:04:27.475Z</time>
      </trkpt>
      <trkpt lat="48.863786" lon="2.228930">
        <ele>31.256492</ele>
        <time>2022-09-04T12:04:33.510Z</time>
      </trkpt>
      <trkpt lat="48.863495" lon="2.228781">
        <ele>31.011387</ele>
        <time>2022-09-04T12:04:42.472Z</time>
      </trkpt>
      <trkpt lat="48.863289" lon="2.228731">
        <ele>31.020322</ele>
        <time>2022-09-04T12:04:48.844Z</time>
      </trkpt>
      <trkpt lat="48.863183" lon="2.228705">
        <ele>31.062512</ele>
        <time>2022-09-04T12:04:52.113Z</time>
      </trkpt>
      <trkpt lat="48.862869" lon="2.228622">
        <ele>31.187745</ele>
        <time>2022-09-04T12:05:02.631Z</time>
      </trkpt>
      <trkpt lat="48.862457" lon="2.228479">
        <ele>31.353801</ele>
        <time>2022-09-04T12:05:17.475Z</time>
      </trkpt>
      <trkpt lat="48.862028" lon="2.228308">
        <ele>31.528070</ele>
        <time>2022-09-04T12:05:33.430Z</time>
      </trkpt>
      <trkpt lat="48.861823" lon="2.228215">
        <ele>31.612133</ele>
        <time>2022-09-04T12:05:41.224Z</time>
      </trkpt>
      <trkpt lat="48.861419" lon="2.228030">
        <ele>31.862010</ele>
        <time>2022-09-04T12:05:56.003Z</time>
      </trkpt>
      <trkpt lat="48.861249" lon="2.227997">
        <ele>31.981428</ele>
        <time>2022-09-04T12:06:02.412Z</time>
      </trkpt>
      <trkpt lat="48.860889" lon="2.227884">
        <ele>32.237570</ele>
        <time>2022-09-04T12:06:15.958Z</time>
      </trkpt>
      <trkpt lat="48.860605" lon="2.227736">
        <ele>32.446769</ele>
        <time>2022-09-04T12:06:26.963Z</time>
      </trkpt>
      <trkpt lat="48.860511" lon="2.227583">
        <ele>32.542735</ele>
        <time>2022-09-04T12:06:32.241Z</time>
      </trkpt>
      <trkpt lat="48.860371" lon="2.227512">
        <ele>32.645574</ele>
        <time>2022-09-04T12:06:37.389Z</time>
      </trkpt>
      <trkpt lat="48.859343" lon="2.227021">
        <ele>32.668932</ele>
        <time>2022-09-04T12:07:11.841Z</time>
      </trkpt>
      <trkpt lat="48.856918" lon="2.225863">
        <ele>31.266274</ele>
        <time>2022-09-04T12:08:28.161Z</time>
      </trkpt>
      <trkpt lat="48.856345" lon="2.225590">
        <ele>30.916746</ele>
        <time>2022-09-04T12:08:45.729Z</time>
      </trkpt>
      <trkpt lat="48.855498" lon="2.225404">
        <ele>30.576088</ele>
        <time>2022-09-04T12:09:11.692Z</time>
      </trkpt>
      <trkpt lat="48.854412" lon="2.225318">
        <ele>30.264566</ele>
        <time>2022-09-04T12:09:46.167Z</time>
      </trkpt>
      <trkpt lat="48.853895" lon="2.225426">
        <ele>30.228075</ele>
        <time>2022-09-04T12:10:02.449Z</time>
      </trkpt>
      <trkpt lat="48.853506" lon="2.225710">
        <ele>30.197898</ele>
        <time>2022-09-04T12:10:16.096Z</time>
      </trkpt>
      <trkpt lat="48.853212" lon="2.226166">
        <ele>30.168524</ele>
        <time>2022-09-04T12:10:29.307Z</time>
      </trkpt>
      <trkpt lat="48.853229" lon="2.225947">
        <ele>30.252919</ele>
        <time>2022-09-04T12:10:32.022Z</time>
      </trkpt>
      <trkpt lat="48.853230" lon="2.225932">
        <ele>30.262671</ele>
        <time>2022-09-04T12:10:32.157Z</time>
      </trkpt>
      <trkpt lat="48.853155" lon="2.225702">
        <ele>30.428705</ele>
        <time>2022-09-04T12:10:35.361Z</time>
      </trkpt>
      <trkpt lat="48.853019" lon="2.225662">
        <ele>30.564876</ele>
        <time>2022-09-04T12:10:37.930Z</time>
      </trkpt>
      <trkpt lat="48.852833" lon="2.222367">
        <ele>34.848996</ele>
        <time>2022-09-04T12:13:09.184Z</time>
      </trkpt>
      <trkpt lat="48.852735" lon="2.220624">
        <ele>39.563496</ele>
        <time>2022-09-04T12:14:29.250Z</time>
      </trkpt>
      <trkpt lat="48.852707" lon="2.219950">
        <ele>42.629339</ele>
        <time>2022-09-04T12:15:00.206Z</time>
      </trkpt>
      <trkpt lat="48.852705" lon="2.219925">
        <ele>42.743667</ele>
        <time>2022-09-04T12:15:01.348Z</time>
      </trkpt>
      <trkpt lat="48.852701" lon="2.219876">
        <ele>42.967817</ele>
        <time>2022-09-04T12:15:03.623Z</time>
      </trkpt>
      <trkpt lat="48.852273" lon="2.219970">
        <ele>45.951374</ele>
        <time>2022-09-04T12:15:27.106Z</time>
      </trkpt>
      <trkpt lat="48.852232" lon="2.219896">
        <ele>46.390545</ele>
        <time>2022-09-04T12:15:30.921Z</time>
      </trkpt>
      <trkpt lat="48.852165" lon="2.219955">
        <ele>46.924788</ele>
        <time>2022-09-04T12:15:34.598Z</time>
      </trkpt>
      <trkpt lat="48.851851" lon="2.219914">
        <ele>49.099137</ele>
        <time>2022-09-04T12:15:53.122Z</time>
      </trkpt>
      <trkpt lat="48.851797" lon="2.219909">
        <ele>49.472387</ele>
        <time>2022-09-04T12:15:55.957Z</time>
      </trkpt>
      <trkpt lat="48.850845" lon="2.219733">
        <ele>56.714249</ele>
        <time>2022-09-04T12:16:51.881Z</time>
      </trkpt>
      <trkpt lat="48.850119" lon="2.219298">
        <ele>62.763628</ele>
        <time>2022-09-04T12:17:37.985Z</time>
      </trkpt>
      <trkpt lat="48.849499" lon="2.219045">
        <ele>66.761220</ele>
        <time>2022-09-04T12:18:13.865Z</time>
      </trkpt>
      <trkpt lat="48.849447" lon="2.219049">
        <ele>67.022195</ele>
        <time>2022-09-04T12:18:16.787Z</time>
      </trkpt>
      <trkpt lat="48.849421" lon="2.218951">
        <ele>67.370712</ele>
        <time>2022-09-04T12:18:21.118Z</time>
      </trkpt>
      <trkpt lat="48.849409" lon="2.218908">
        <ele>67.524767</ele>
        <time>2022-09-04T12:18:23.033Z</time>
      </trkpt>
      <trkpt lat="48.849159" lon="2.218788">
        <ele>68.838872</ele>
        <time>2022-09-04T12:18:41.289Z</time>
      </trkpt>
      <trkpt lat="48.849409" lon="2.218908">
        <ele>70.152978</ele>
        <time>2022-09-04T12:18:59.541Z</time>
      </trkpt>
      <trkpt lat="48.849421" lon="2.218951">
        <ele>70.307033</ele>
        <time>2022-09-04T12:19:00.443Z</time>
      </trkpt>
      <trkpt lat="48.849110" lon="2.218826">
        <ele>71.919469</ele>
        <time>2022-09-04T12:19:13.757Z</time>
      </trkpt>
      <trkpt lat="48.848574" lon="2.218753">
        <ele>74.031670</ele>
        <time>2022-09-04T12:19:31.772Z</time>
      </trkpt>
      <trkpt lat="48.848609" lon="2.218618">
        <ele>74.066451</ele>
        <time>2022-09-04T12:19:34.284Z</time>
      </trkpt>
      <trkpt lat="48.848534" lon="2.218424">
        <ele>74.120385</ele>
        <time>2022-09-04T12:19:37.525Z</time>
      </trkpt>
      <trkpt lat="48.847969" lon="2.218605">
        <ele>74.330717</ele>
        <time>2022-09-04T12:19:48.983Z</time>
      </trkpt>
      <trkpt lat="48.847375" lon="2.218553">
        <ele>74.547449</ele>
        <time>2022-09-04T12:19:59.555Z</time>
      </trkpt>
      <trkpt lat="48.847056" lon="2.218544">
        <ele>74.607407</ele>
        <time>2022-09-04T12:20:05.323Z</time>
      </trkpt>
      <trkpt lat="48.846331" lon="2.218663">
        <ele>74.214045</ele>
        <time>2022-09-04T12:20:18.409Z</time>
      </trkpt>
      <trkpt lat="48.846105" lon="2.218700">
        <ele>74.091428</ele>
        <time>2022-09-04T12:20:22.546Z</time>
      </trkpt>
      <trkpt lat="48.845970" lon="2.218750">
        <ele>74.016473</ele>
        <time>2022-09-04T12:20:24.876Z</time>
      </trkpt>
      <trkpt lat="48.845899" lon="2.218754">
        <ele>73.978147</ele>
        <time>2022-09-04T12:20:26.179Z</time>
      </trkpt>
      <trkpt lat="48.845457" lon="2.218809">
        <ele>73.738920</ele>
        <time>2022-09-04T12:20:34.009Z</time>
      </trkpt>
      <trkpt lat="48.844636" lon="2.218741">
        <ele>72.969176</ele>
        <time>2022-09-04T12:20:48.726Z</time>
      </trkpt>
      <trkpt lat="48.844492" lon="2.218708">
        <ele>72.822347</ele>
        <time>2022-09-04T12:20:51.258Z</time>
      </trkpt>
      <trkpt lat="48.844437" lon="2.218668">
        <ele>72.760870</ele>
        <time>2022-09-04T12:20:52.394Z</time>
      </trkpt>
      <trkpt lat="48.844359" lon="2.218590">
        <ele>72.666725</ele>
        <time>2022-09-04T12:20:54.071Z</time>
      </trkpt>
      <trkpt lat="48.844331" lon="2.218570">
        <ele>72.635531</ele>
        <time>2022-09-04T12:20:54.582Z</time>
      </trkpt>
      <trkpt lat="48.843933" lon="2.218332">
        <ele>72.204296</ele>
        <time>2022-09-04T12:21:01.482Z</time>
      </trkpt>
      <trkpt lat="48.843716" lon="2.218202">
        <ele>71.969117</ele>
        <time>2022-09-04T12:21:05.086Z</time>
      </trkpt>
      <trkpt lat="48.843578" lon="2.218126">
        <ele>71.824540</ele>
        <time>2022-09-04T12:21:07.381Z</time>
      </trkpt>
      <trkpt lat="48.842596" lon="2.218034">
        <ele>70.926274</ele>
        <time>2022-09-04T12:21:23.033Z</time>
      </trkpt>
      <trkpt lat="48.841578" lon="2.217766">
        <ele>71.278233</ele>
        <time>2022-09-04T12:21:41.637Z</time>
      </trkpt>
      <trkpt lat="48.841301" lon="2.217634">
        <ele>72.492068</ele>
        <time>2022-09-04T12:21:51.363Z</time>
      </trkpt>
      <trkpt lat="48.840798" lon="2.217509">
        <ele>74.623185</ele>
        <time>2022-09-04T12:22:26.791Z</time>
      </trkpt>
      <trkpt lat="48.840749" lon="2.217497">
        <ele>74.830711</ele>
        <time>2022-09-04T12:22:29.375Z</time>
      </trkpt>
      <trkpt lat="48.840624" lon="2.217287">
        <ele>75.609904</ele>
        <time>2022-09-04T12:22:39.574Z</time>
      </trkpt>
      <trkpt lat="48.840558" lon="2.216824">
        <ele>76.913585</ele>
        <time>2022-09-04T12:23:00.087Z</time>
      </trkpt>
      <trkpt lat="48.840376" lon="2.216653">
        <ele>77.867135</ele>
        <time>2022-09-04T12:23:14.858Z</time>
      </trkpt>
      <trkpt lat="48.840317" lon="2.216597">
        <ele>78.393653</ele>
        <time>2022-09-04T12:23:20.304Z</time>
      </trkpt>
      <trkpt lat="48.839791" lon="2.216404">
        <ele>82.489183</ele>
        <time>2022-09-04T12:23:59.459Z</time>
      </trkpt>
      <trkpt lat="48.839732" lon="2.216304">
        <ele>83.158174</ele>
        <time>2022-09-04T12:24:07.032Z</time>
      </trkpt>
      <trkpt lat="48.839788" lon="2.216212">
        <ele>83.782411</ele>
        <time>2022-09-04T12:24:14.056Z</time>
      </trkpt>
      <trkpt lat="48.839965" lon="2.216230">
        <ele>85.125052</ele>
        <time>2022-09-04T12:24:26.880Z</time>
      </trkpt>
      <trkpt lat="48.839955" lon="2.215781">
        <ele>87.362975</ele>
        <time>2022-09-04T12:24:46.630Z</time>
      </trkpt>
      <trkpt lat="48.839936" lon="2.214987">
        <ele>91.320813</ele>
        <time>2022-09-04T12:25:14.241Z</time>
      </trkpt>
      <trkpt lat="48.839928" lon="2.214655">
        <ele>91.930822</ele>
        <time>2022-09-04T12:25:23.939Z</time>
      </trkpt>
      <trkpt lat="48.839917" lon="2.213757">
        <ele>93.531119</ele>
        <time>2022-09-04T12:25:48.269Z</time>
      </trkpt>
      <trkpt lat="48.839913" lon="2.213359">
        <ele>94.240342</ele>
        <time>2022-09-04T12:25:57.149Z</time>
      </trkpt>
      <trkpt lat="48.839888" lon="2.212447">
        <ele>95.866716</ele>
        <time>2022-09-04T12:26:12.235Z</time>
      </trkpt>
      <trkpt lat="48.839863" lon="2.211527">
        <ele>95.522690</ele>
        <time>2022-09-04T12:26:23.201Z</time>
      </trkpt>
      <trkpt lat="48.839856" lon="2.211235">
        <ele>95.241831</ele>
        <time>2022-09-04T12:26:26.396Z</time>
      </trkpt>
      <trkpt lat="48.839853" lon="2.211165">
        <ele>95.174403</ele>
        <time>2022-09-04T12:26:27.138Z</time>
      </trkpt>
      <trkpt lat="48.839842" lon="2.210847">
        <ele>94.868317</ele>
        <time>2022-09-04T12:26:30.572Z</time>
      </trkpt>
      <trkpt lat="48.839811" lon="2.209668">
        <ele>93.734145</ele>
        <time>2022-09-04T12:26:43.212Z</time>
      </trkpt>
      <trkpt lat="48.839787" lon="2.208724">
        <ele>93.411168</ele>
        <time>2022-09-04T12:26:53.795Z</time>
      </trkpt>
      <trkpt lat="48.839354" lon="2.208767">
        <ele>93.261956</ele>
        <time>2022-09-04T12:27:06.823Z</time>
      </trkpt>
      <trkpt lat="48.839119" lon="2.208608">
        <ele>93.173496</ele>
        <time>2022-09-04T12:27:15.047Z</time>
      </trkpt>
      <trkpt lat="48.839239" lon="2.208384">
        <ele>93.108129</ele>
        <time>2022-09-04T12:27:21.378Z</time>
      </trkpt>
      <trkpt lat="48.839137" lon="2.208137">
        <ele>93.042134</ele>
        <time>2022-09-04T12:27:27.945Z</time>
      </trkpt>
      <trkpt lat="48.839097" lon="2.207879">
        <ele>92.982144</ele>
        <time>2022-09-04T12:27:34.324Z</time>
      </trkpt>
      <trkpt lat="48.838950" lon="2.207579">
        <ele>93.472735</ele>
        <time>2022-09-04T12:27:43.488Z</time>
      </trkpt>
      <trkpt lat="48.838782" lon="2.207395">
        <ele>93.945096</ele>
        <time>2022-09-04T12:27:52.139Z</time>
      </trkpt>
      <trkpt lat="48.838466" lon="2.207184">
        <ele>94.732373</ele>
        <time>2022-09-04T12:28:06.927Z</time>
      </trkpt>
      <trkpt lat="48.838145" lon="2.206851">
        <ele>95.618908</ele>
        <time>2022-09-04T12:28:24.996Z</time>
      </trkpt>
      <trkpt lat="48.837998" lon="2.206626">
        <ele>96.094835</ele>
        <time>2022-09-04T12:28:34.734Z</time>
      </trkpt>
      <trkpt lat="48.837672" lon="2.206124">
        <ele>97.149624</ele>
        <time>2022-09-04T12:28:56.941Z</time>
      </trkpt>
      <trkpt lat="48.836994" lon="2.204569">
        <ele>99.810456</ele>
        <time>2022-09-04T12:29:48.991Z</time>
      </trkpt>
      <trkpt lat="48.836698" lon="2.204281">
        <ele>100.572269</ele>
        <time>2022-09-04T12:30:03.442Z</time>
      </trkpt>
      <trkpt lat="48.836676" lon="2.203908">
        <ele>101.073540</ele>
        <time>2022-09-04T12:30:13.566Z</time>
      </trkpt>
      <trkpt lat="48.836633" lon="2.203318">
        <ele>101.710403</ele>
        <time>2022-09-04T12:30:29.538Z</time>
      </trkpt>
      <trkpt lat="48.836622" lon="2.203132">
        <ele>101.910762</ele>
        <time>2022-09-04T12:30:34.529Z</time>
      </trkpt>
      <trkpt lat="48.836607" lon="2.202967">
        <ele>102.089466</ele>
        <time>2022-09-04T12:30:38.749Z</time>
      </trkpt>
      <trkpt lat="48.836600" lon="2.202823">
        <ele>102.244381</ele>
        <time>2022-09-04T12:30:42.574Z</time>
      </trkpt>
      <trkpt lat="48.836579" lon="2.202593">
        <ele>102.493504</ele>
        <time>2022-09-04T12:30:48.672Z</time>
      </trkpt>
      <trkpt lat="48.836560" lon="2.202335">
        <ele>102.772033</ele>
        <time>2022-09-04T12:30:55.194Z</time>
      </trkpt>
      <trkpt lat="48.836546" lon="2.202124">
        <ele>102.999557</ele>
        <time>2022-09-04T12:31:00.720Z</time>
      </trkpt>
      <trkpt lat="48.836352" lon="2.199314">
        <ele>106.092326</ele>
        <time>2022-09-04T12:32:14.365Z</time>
      </trkpt>
      <trkpt lat="48.836324" lon="2.198888">
        <ele>106.564924</ele>
        <time>2022-09-04T12:32:25.601Z</time>
      </trkpt>
      <trkpt lat="48.836603" lon="2.198838">
        <ele>107.100340</ele>
        <time>2022-09-04T12:32:37.031Z</time>
      </trkpt>
      <trkpt lat="48.836477" lon="2.197084">
        <ele>110.143519</ele>
        <time>2022-09-04T12:33:12.757Z</time>
      </trkpt>
      <trkpt lat="48.836216" lon="2.193385">
        <ele>118.082914</ele>
        <time>2022-09-04T12:34:42.575Z</time>
      </trkpt>
      <trkpt lat="48.836554" lon="2.193364">
        <ele>118.985655</ele>
        <time>2022-09-04T12:34:59.243Z</time>
      </trkpt>
      <trkpt lat="48.836566" lon="2.193364">
        <ele>119.017679</ele>
        <time>2022-09-04T12:34:59.640Z</time>
      </trkpt>
      <trkpt lat="48.836869" lon="2.192911">
        <ele>120.152110</ele>
        <time>2022-09-04T12:35:19.514Z</time>
      </trkpt>
      <trkpt lat="48.837125" lon="2.192356">
        <ele>121.342504</ele>
        <time>2022-09-04T12:35:39.281Z</time>
      </trkpt>
      <trkpt lat="48.836929" lon="2.191945">
        <ele>122.233984</ele>
        <time>2022-09-04T12:35:53.490Z</time>
      </trkpt>
      <trkpt lat="48.836929" lon="2.191110">
        <ele>122.845134</ele>
        <time>2022-09-04T12:36:15.727Z</time>
      </trkpt>
      <trkpt lat="48.836623" lon="2.190393">
        <ele>123.103837</ele>
        <time>2022-09-04T12:36:37.929Z</time>
      </trkpt>
      <trkpt lat="48.836648" lon="2.190024">
        <ele>123.216140</ele>
        <time>2022-09-04T12:36:47.513Z</time>
      </trkpt>
      <trkpt lat="48.836509" lon="2.189568">
        <ele>123.368278</ele>
        <time>2022-09-04T12:36:57.428Z</time>
      </trkpt>
      <trkpt lat="48.836574" lon="2.188999">
        <ele>123.288815</ele>
        <time>2022-09-04T12:37:07.735Z</time>
      </trkpt>
      <trkpt lat="48.836535" lon="2.187899">
        <ele>121.886264</ele>
        <time>2022-09-04T12:37:26.742Z</time>
      </trkpt>
      <trkpt lat="48.836543" lon="2.187568">
        <ele>121.464550</ele>
        <time>2022-09-04T12:37:32.525Z</time>
      </trkpt>
      <trkpt lat="48.836556" lon="2.187006">
        <ele>120.748569</ele>
        <time>2022-09-04T12:37:42.687Z</time>
      </trkpt>
      <trkpt lat="48.836580" lon="2.186533">
        <ele>120.144558</ele>
        <time>2022-09-04T12:37:49.790Z</time>
      </trkpt>
      <trkpt lat="48.836522" lon="2.186243">
        <ele>119.898296</ele>
        <time>2022-09-04T12:37:54.917Z</time>
      </trkpt>
      <trkpt lat="48.835520" lon="2.186001">
        <ele>119.004491</ele>
        <time>2022-09-04T12:38:18.216Z</time>
      </trkpt>
      <trkpt lat="48.835383" lon="2.185703">
        <ele>118.793715</ele>
        <time>2022-09-04T12:38:22.389Z</time>
      </trkpt>
      <trkpt lat="48.835234" lon="2.185167">
        <ele>118.456324</ele>
        <time>2022-09-04T12:38:29.762Z</time>
      </trkpt>
      <trkpt lat="48.835702" lon="2.185134">
        <ele>117.424318</ele>
        <time>2022-09-04T12:38:37.283Z</time>
      </trkpt>
      <trkpt lat="48.836262" lon="2.185100">
        <ele>116.140427</ele>
        <time>2022-09-04T12:38:45.800Z</time>
      </trkpt>
      <trkpt lat="48.836453" lon="2.184995">
        <ele>115.675114</ele>
        <time>2022-09-04T12:38:48.708Z</time>
      </trkpt>
      <trkpt lat="48.836567" lon="2.184933">
        <ele>115.397731</ele>
        <time>2022-09-04T12:38:50.454Z</time>
      </trkpt>
      <trkpt lat="48.836655" lon="2.184884">
        <ele>115.183024</ele>
        <time>2022-09-04T12:38:51.803Z</time>
      </trkpt>
      <trkpt lat="48.836831" lon="2.184793">
        <ele>114.757129</ele>
        <time>2022-09-04T12:38:54.376Z</time>
      </trkpt>
      <trkpt lat="48.837108" lon="2.184658">
        <ele>114.184734</ele>
        <time>2022-09-04T12:38:58.485Z</time>
      </trkpt>
      <trkpt lat="48.837175" lon="2.184630">
        <ele>114.093750</ele>
        <time>2022-09-04T12:38:59.526Z</time>
      </trkpt>
      <trkpt lat="48.837210" lon="2.184726">
        <ele>113.999173</ele>
        <time>2022-09-04T12:39:00.583Z</time>
      </trkpt>
      <trkpt lat="48.837961" lon="2.186160">
        <ele>112.419887</ele>
        <time>2022-09-04T12:39:20.116Z</time>
      </trkpt>
      <trkpt lat="48.838018" lon="2.186158">
        <ele>112.345235</ele>
        <time>2022-09-04T12:39:21.154Z</time>
      </trkpt>
      <trkpt lat="48.838082" lon="2.186156">
        <ele>112.261420</ele>
        <time>2022-09-04T12:39:22.516Z</time>
      </trkpt>
      <trkpt lat="48.838330" lon="2.186584">
        <ele>112.164418</ele>
        <time>2022-09-04T12:39:31.138Z</time>
      </trkpt>
      <trkpt lat="48.838442" lon="2.186653">
        <ele>112.343320</ele>
        <time>2022-09-04T12:39:33.979Z</time>
      </trkpt>
      <trkpt lat="48.838476" lon="2.186712">
        <ele>112.419723</ele>
        <time>2022-09-04T12:39:35.190Z</time>
      </trkpt>
      <trkpt lat="48.838572" lon="2.186671">
        <ele>112.567337</ele>
        <time>2022-09-04T12:39:37.587Z</time>
      </trkpt>
      <trkpt lat="48.838646" lon="2.186619">
        <ele>112.688027</ele>
        <time>2022-09-04T12:39:39.637Z</time>
      </trkpt>
      <trkpt lat="48.838613" lon="2.186500">
        <ele>112.813838</ele>
        <time>2022-09-04T12:39:41.747Z</time>
      </trkpt>
      <trkpt lat="48.838594" lon="2.186398">
        <ele>112.917119</ele>
        <time>2022-09-04T12:39:43.472Z</time>
      </trkpt>
      <trkpt lat="48.838378" lon="2.185180">
        <ele>114.146131</ele>
        <time>2022-09-04T12:40:05.586Z</time>
      </trkpt>
      <trkpt lat="48.838238" lon="2.182229">
        <ele>118.908992</ele>
        <time>2022-09-04T12:41:10.506Z</time>
      </trkpt>
      <trkpt lat="48.838231" lon="2.182079">
        <ele>119.169757</ele>
        <time>2022-09-04T12:41:15.093Z</time>
      </trkpt>
      <trkpt lat="48.838186" lon="2.181078">
        <ele>120.082751</ele>
        <time>2022-09-04T12:41:32.415Z</time>
      </trkpt>
      <trkpt lat="48.838169" lon="2.180267">
        <ele>120.740759</ele>
        <time>2022-09-04T12:41:46.302Z</time>
      </trkpt>
      <trkpt lat="48.838186" lon="2.178528">
        <ele>121.875024</ele>
        <time>2022-09-04T12:42:10.741Z</time>
      </trkpt>
      <trkpt lat="48.838162" lon="2.177892">
        <ele>122.145129</ele>
        <time>2022-09-04T12:42:19.264Z</time>
      </trkpt>
      <trkpt lat="48.838147" lon="2.177599">
        <ele>122.269735</ele>
        <time>2022-09-04T12:42:23.603Z</time>
      </trkpt>
      <trkpt lat="48.837493" lon="2.177417">
        <ele>122.698044</ele>
        <time>2022-09-04T12:42:47.614Z</time>
      </trkpt>
      <trkpt lat="48.837441" lon="2.177056">
        <ele>122.934082</ele>
        <time>2022-09-04T12:42:56.869Z</time>
      </trkpt>
      <trkpt lat="48.837493" lon="2.176585">
        <ele>123.266574</ele>
        <time>2022-09-04T12:43:09.045Z</time>
      </trkpt>
      <trkpt lat="48.837584" lon="2.175768">
        <ele>123.843456</ele>
        <time>2022-09-04T12:43:29.016Z</time>
      </trkpt>
      <trkpt lat="48.837262" lon="2.175158">
        <ele>124.387844</ele>
        <time>2022-09-04T12:43:42.924Z</time>
      </trkpt>
      <trkpt lat="48.836963" lon="2.174962">
        <ele>124.696330</ele>
        <time>2022-09-04T12:43:51.666Z</time>
      </trkpt>
      <trkpt lat="48.836773" lon="2.174897">
        <ele>124.827254</ele>
        <time>2022-09-04T12:43:56.725Z</time>
      </trkpt>
      <trkpt lat="48.836720" lon="2.174850">
        <ele>124.868508</ele>
        <time>2022-09-04T12:43:58.965Z</time>
      </trkpt>
      <trkpt lat="48.836532" lon="2.174756">
        <ele>125.001557</ele>
        <time>2022-09-04T12:44:05.886Z</time>
      </trkpt>
      <trkpt lat="48.836534" lon="2.174545">
        <ele>125.094929</ele>
        <time>2022-09-04T12:44:10.187Z</time>
      </trkpt>
      <trkpt lat="48.836685" lon="2.173821">
        <ele>125.430978</ele>
        <time>2022-09-04T12:44:26.376Z</time>
      </trkpt>
      <trkpt lat="48.836656" lon="2.172620">
        <ele>126.113317</ele>
        <time>2022-09-04T12:44:55.712Z</time>
      </trkpt>
      <trkpt lat="48.836815" lon="2.172582">
        <ele>126.357278</ele>
        <time>2022-09-04T12:45:01.008Z</time>
      </trkpt>
      <trkpt lat="48.836833" lon="2.172566">
        <ele>126.388887</ele>
        <time>2022-09-04T12:45:01.779Z</time>
      </trkpt>
      <trkpt lat="48.836949" lon="2.172468">
        <ele>126.590064</ele>
        <time>2022-09-04T12:45:07.345Z</time>
      </trkpt>
      <trkpt lat="48.836986" lon="2.172332">
        <ele>126.736877</ele>
        <time>2022-09-04T12:45:10.936Z</time>
      </trkpt>
      <trkpt lat="48.837142" lon="2.172291">
        <ele>126.976839</ele>
        <time>2022-09-04T12:45:16.290Z</time>
      </trkpt>
      <trkpt lat="48.837148" lon="2.172057">
        <ele>127.210463</ele>
        <time>2022-09-04T12:45:23.089Z</time>
      </trkpt>
      <trkpt lat="48.837106" lon="2.171962">
        <ele>127.324634</ele>
        <time>2022-09-04T12:45:25.588Z</time>
      </trkpt>
      <trkpt lat="48.836959" lon="2.171774">
        <ele>127.615875</ele>
        <time>2022-09-04T12:45:33.272Z</time>
      </trkpt>
      <trkpt lat="48.836619" lon="2.171339">
        <ele>128.289605</ele>
        <time>2022-09-04T12:45:51.755Z</time>
      </trkpt>
      <trkpt lat="48.836441" lon="2.171624">
        <ele>128.819768</ele>
        <time>2022-09-04T12:46:01.835Z</time>
      </trkpt>
      <trkpt lat="48.836237" lon="2.171951">
        <ele>129.820891</ele>
        <time>2022-09-04T12:46:14.598Z</time>
      </trkpt>
      <trkpt lat="48.835989" lon="2.171517">
        <ele>131.097982</ele>
        <time>2022-09-04T12:46:32.900Z</time>
      </trkpt>
      <trkpt lat="48.835928" lon="2.171029">
        <ele>132.201734</ele>
        <time>2022-09-04T12:46:49.545Z</time>
      </trkpt>
      <trkpt lat="48.835881" lon="2.170607">
        <ele>133.152778</ele>
        <time>2022-09-04T12:47:04.787Z</time>
      </trkpt>
      <trkpt lat="48.835608" lon="2.170359">
        <ele>134.226587</ele>
        <time>2022-09-04T12:47:21.565Z</time>
      </trkpt>
      <trkpt lat="48.835514" lon="2.170360">
        <ele>134.543929</ele>
        <time>2022-09-04T12:47:26.490Z</time>
      </trkpt>
      <trkpt lat="48.835491" lon="2.170273">
        <ele>134.768512</ele>
        <time>2022-09-04T12:47:28.803Z</time>
      </trkpt>
      <trkpt lat="48.835465" lon="2.170178">
        <ele>135.030520</ele>
        <time>2022-09-04T12:47:31.283Z</time>
      </trkpt>
      <trkpt lat="48.835445" lon="2.170099">
        <ele>135.246070</ele>
        <time>2022-09-04T12:47:33.422Z</time>
      </trkpt>
      <trkpt lat="48.835445" lon="2.170099">
        <ele>135.246070</ele>
        <time>2022-09-04T12:47:33.429Z</time>
      </trkpt>
      <trkpt lat="48.835445" lon="2.170099">
        <ele>135.246070</ele>
        <time>2022-09-04T12:47:33.513Z</time>
      </trkpt>
      <trkpt lat="48.835143" lon="2.170215">
        <ele>136.451250</ele>
        <time>2022-09-04T12:47:45.366Z</time>
      </trkpt>
      <trkpt lat="48.835092" lon="2.170234">
        <ele>136.654411</ele>
        <time>2022-09-04T12:47:47.262Z</time>
      </trkpt>
      <trkpt lat="48.834853" lon="2.170334">
        <ele>137.613511</ele>
        <time>2022-09-04T12:47:56.369Z</time>
      </trkpt>
      <trkpt lat="48.834780" lon="2.170364">
        <ele>137.906093</ele>
        <time>2022-09-04T12:47:58.861Z</time>
      </trkpt>
      <trkpt lat="48.834633" lon="2.170424">
        <ele>138.494993</ele>
        <time>2022-09-04T12:48:04.562Z</time>
      </trkpt>
      <trkpt lat="48.834390" lon="2.170522">
        <ele>139.467703</ele>
        <time>2022-09-04T12:48:13.296Z</time>
      </trkpt>
      <trkpt lat="48.834324" lon="2.170460">
        <ele>139.767926</ele>
        <time>2022-09-04T12:48:17.619Z</time>
      </trkpt>
      <trkpt lat="48.834148" lon="2.169570">
        <ele>142.128408</ele>
        <time>2022-09-04T12:48:43.009Z</time>
      </trkpt>
      <trkpt lat="48.834059" lon="2.168630">
        <ele>144.519173</ele>
        <time>2022-09-04T12:49:16.603Z</time>
      </trkpt>
      <trkpt lat="48.833062" lon="2.167211">
        <ele>149.204637</ele>
        <time>2022-09-04T12:50:24.287Z</time>
      </trkpt>
      <trkpt lat="48.833634" lon="2.165614">
        <ele>151.830179</ele>
        <time>2022-09-04T12:50:59.756Z</time>
      </trkpt>
      <trkpt lat="48.833768" lon="2.165484">
        <ele>152.178985</ele>
        <time>2022-09-04T12:51:04.014Z</time>
      </trkpt>
      <trkpt lat="48.834052" lon="2.165393">
        <ele>152.672972</ele>
        <time>2022-09-04T12:51:13.865Z</time>
      </trkpt>
      <trkpt lat="48.834202" lon="2.165297">
        <ele>152.899680</ele>
        <time>2022-09-04T12:51:19.840Z</time>
      </trkpt>
      <trkpt lat="48.834031" lon="2.163619">
        <ele>154.456442</ele>
        <time>2022-09-04T12:52:01.787Z</time>
      </trkpt>
      <trkpt lat="48.833676" lon="2.161170">
        <ele>157.579991</ele>
        <time>2022-09-04T12:53:12.156Z</time>
      </trkpt>
      <trkpt lat="48.833680" lon="2.159959">
        <ele>159.256100</ele>
        <time>2022-09-04T12:53:44.331Z</time>
      </trkpt>
      <trkpt lat="48.833373" lon="2.157949">
        <ele>162.285135</ele>
        <time>2022-09-04T12:54:41.776Z</time>
      </trkpt>
      <trkpt lat="48.832902" lon="2.154988">
        <ele>168.710893</ele>
        <time>2022-09-04T12:56:19.671Z</time>
      </trkpt>
      <trkpt lat="48.832822" lon="2.154786">
        <ele>169.195201</ele>
        <time>2022-09-04T12:56:27.499Z</time>
      </trkpt>
      <trkpt lat="48.832705" lon="2.154643">
        <ele>169.663862</ele>
        <time>2022-09-04T12:56:33.936Z</time>
      </trkpt>
      <trkpt lat="48.832681" lon="2.154490">
        <ele>169.986988</ele>
        <time>2022-09-04T12:56:39.633Z</time>
      </trkpt>
      <trkpt lat="48.832650" lon="2.154282">
        <ele>170.425120</ele>
        <time>2022-09-04T12:56:45.123Z</time>
      </trkpt>
      <trkpt lat="48.832659" lon="2.153441">
        <ele>172.153106</ele>
        <time>2022-09-04T12:57:07.558Z</time>
      </trkpt>
      <trkpt lat="48.832654" lon="2.153399">
        <ele>172.240791</ele>
        <time>2022-09-04T12:57:09.022Z</time>
      </trkpt>
      <trkpt lat="48.832633" lon="2.153261">
        <ele>172.531776</ele>
        <time>2022-09-04T12:57:12.752Z</time>
      </trkpt>
      <trkpt lat="48.832704" lon="2.153156">
        <ele>172.841023</ele>
        <time>2022-09-04T12:57:15.675Z</time>
      </trkpt>
      <trkpt lat="48.832780" lon="2.153065">
        <ele>173.143035</ele>
        <time>2022-09-04T12:57:18.843Z</time>
      </trkpt>
      <trkpt lat="48.832809" lon="2.152925">
        <ele>173.444556</ele>
        <time>2022-09-04T12:57:23.095Z</time>
      </trkpt>
      <trkpt lat="48.832895" lon="2.150368">
        <ele>178.005738</ele>
        <time>2022-09-04T12:58:21.154Z</time>
      </trkpt>
      <trkpt lat="48.833016" lon="2.147363">
        <ele>181.960942</ele>
        <time>2022-09-04T12:59:20.722Z</time>
      </trkpt>
      <trkpt lat="48.833079" lon="2.147117">
        <ele>182.227366</ele>
        <time>2022-09-04T12:59:25.765Z</time>
      </trkpt>
      <trkpt lat="48.833088" lon="2.146638">
        <ele>182.318808</ele>
        <time>2022-09-04T12:59:33.705Z</time>
      </trkpt>
      <trkpt lat="48.833181" lon="2.146488">
        <ele>182.358129</ele>
        <time>2022-09-04T12:59:36.057Z</time>
      </trkpt>
      <trkpt lat="48.833193" lon="2.146493">
        <ele>182.361736</ele>
        <time>2022-09-04T12:59:36.198Z</time>
      </trkpt>
      <trkpt lat="48.833193" lon="2.146493">
        <ele>182.361736</ele>
        <time>2022-09-04T12:59:36.313Z</time>
      </trkpt>
      <trkpt lat="48.833193" lon="2.146493">
        <ele>182.361736</ele>
        <time>2022-09-04T12:59:36.313Z</time>
      </trkpt>
      <trkpt lat="48.833192" lon="2.146267">
        <ele>182.404863</ele>
        <time>2022-09-04T12:59:42.678Z</time>
      </trkpt>
      <trkpt lat="48.833199" lon="2.146162">
        <ele>182.425002</ele>
        <time>2022-09-04T12:59:44.044Z</time>
      </trkpt>
      <trkpt lat="48.833172" lon="2.146052">
        <ele>182.447404</ele>
        <time>2022-09-04T12:59:45.528Z</time>
      </trkpt>
      <trkpt lat="48.833171" lon="2.146042">
        <ele>182.449334</ele>
        <time>2022-09-04T12:59:45.701Z</time>
      </trkpt>
      <trkpt lat="48.833171" lon="2.146042">
        <ele>182.449334</ele>
        <time>2022-09-04T12:59:45.797Z</time>
      </trkpt>
      <trkpt lat="48.833171" lon="2.146042">
        <ele>182.449334</ele>
        <time>2022-09-04T12:59:45.797Z</time>
      </trkpt>
      <trkpt lat="48.832945" lon="2.145958">
        <ele>182.516782</ele>
        <time>2022-09-04T12:59:55.745Z</time>
      </trkpt>
      <trkpt lat="48.832890" lon="2.145797">
        <ele>182.551396</ele>
        <time>2022-09-04T12:59:58.611Z</time>
      </trkpt>
      <trkpt lat="48.832835" lon="2.145696">
        <ele>182.576409</ele>
        <time>2022-09-04T13:00:00.453Z</time>
      </trkpt>
      <trkpt lat="48.832835" lon="2.145696">
        <ele>182.576409</ele>
        <time>2022-09-04T13:00:00.459Z</time>
      </trkpt>
      <trkpt lat="48.832835" lon="2.145696">
        <ele>182.576409</ele>
        <time>2022-09-04T13:00:00.512Z</time>
      </trkpt>
      <trkpt lat="48.832842" lon="2.144845">
        <ele>182.734022</ele>
        <time>2022-09-04T13:00:18.833Z</time>
      </trkpt>
      <trkpt lat="48.832858" lon="2.142818">
        <ele>180.717032</ele>
        <time>2022-09-04T13:00:56.278Z</time>
      </trkpt>
      <trkpt lat="48.831942" lon="2.142612">
        <ele>178.357045</ele>
        <time>2022-09-04T13:01:10.669Z</time>
      </trkpt>
      <trkpt lat="48.831505" lon="2.142495">
        <ele>176.768700</ele>
        <time>2022-09-04T13:01:17.100Z</time>
      </trkpt>
      <trkpt lat="48.831423" lon="2.142477">
        <ele>176.472134</ele>
        <time>2022-09-04T13:01:18.265Z</time>
      </trkpt>
      <trkpt lat="48.831114" lon="2.142407">
        <ele>175.353841</ele>
        <time>2022-09-04T13:01:22.536Z</time>
      </trkpt>
      <trkpt lat="48.831164" lon="2.142005">
        <ele>174.389845</ele>
        <time>2022-09-04T13:01:28.996Z</time>
      </trkpt>
      <trkpt lat="48.831231" lon="2.141459">
        <ele>172.944794</ele>
        <time>2022-09-04T13:01:37.796Z</time>
      </trkpt>
      <trkpt lat="48.830527" lon="2.141270">
        <ele>169.687874</ele>
        <time>2022-09-04T13:01:54.929Z</time>
      </trkpt>
      <trkpt lat="48.830220" lon="2.140828">
        <ele>167.760915</ele>
        <time>2022-09-04T13:02:05.030Z</time>
      </trkpt>
      <trkpt lat="48.830147" lon="2.140541">
        <ele>166.838189</ele>
        <time>2022-09-04T13:02:09.995Z</time>
      </trkpt>
      <trkpt lat="48.830457" lon="2.138952">
        <ele>164.370133</ele>
        <time>2022-09-04T13:02:38.627Z</time>
      </trkpt>
      <trkpt lat="48.830643" lon="2.138296">
        <ele>163.751175</ele>
        <time>2022-09-04T13:02:53.314Z</time>
      </trkpt>
      <trkpt lat="48.830665" lon="2.138219">
        <ele>163.678435</ele>
        <time>2022-09-04T13:02:55.323Z</time>
      </trkpt>
      <trkpt lat="48.831018" lon="2.137334">
        <ele>162.882512</ele>
        <time>2022-09-04T13:03:17.455Z</time>
      </trkpt>
      <trkpt lat="48.831414" lon="2.136646">
        <ele>162.426594</ele>
        <time>2022-09-04T13:03:36.241Z</time>
      </trkpt>
      <trkpt lat="48.831548" lon="2.136591">
        <ele>162.321404</ele>
        <time>2022-09-04T13:03:40.449Z</time>
      </trkpt>
      <trkpt lat="48.831675" lon="2.136406">
        <ele>162.188061</ele>
        <time>2022-09-04T13:03:45.561Z</time>
      </trkpt>
      <trkpt lat="48.831420" lon="2.135479">
        <ele>161.686862</ele>
        <time>2022-09-04T13:04:04.445Z</time>
      </trkpt>
      <trkpt lat="48.830634" lon="2.135120">
        <ele>161.574153</ele>
        <time>2022-09-04T13:04:27.275Z</time>
      </trkpt>
      <trkpt lat="48.830568" lon="2.135039">
        <ele>161.565233</ele>
        <time>2022-09-04T13:04:29.630Z</time>
      </trkpt>
      <trkpt lat="48.830540" lon="2.134633">
        <ele>161.536983</ele>
        <time>2022-09-04T13:04:39.305Z</time>
      </trkpt>
      <trkpt lat="48.831010" lon="2.133766">
        <ele>161.802534</ele>
        <time>2022-09-04T13:05:06.832Z</time>
      </trkpt>
      <trkpt lat="48.831172" lon="2.133626">
        <ele>162.641109</ele>
        <time>2022-09-04T13:05:15.555Z</time>
      </trkpt>
      <trkpt lat="48.831361" lon="2.133302">
        <ele>163.923289</ele>
        <time>2022-09-04T13:05:26.266Z</time>
      </trkpt>
      <trkpt lat="48.831449" lon="2.133235">
        <ele>164.366170</ele>
        <time>2022-09-04T13:05:33.945Z</time>
      </trkpt>
      <trkpt lat="48.831667" lon="2.133412">
        <ele>165.478318</ele>
        <time>2022-09-04T13:05:45.730Z</time>
      </trkpt>
      <trkpt lat="48.831732" lon="2.133376">
        <ele>165.789602</ele>
        <time>2022-09-04T13:05:51.805Z</time>
      </trkpt>
      <trkpt lat="48.831880" lon="2.133294">
        <ele>166.498402</ele>
        <time>2022-09-04T13:06:02.465Z</time>
      </trkpt>
      <trkpt lat="48.832113" lon="2.133427">
        <ele>167.618298</ele>
        <time>2022-09-04T13:06:18.924Z</time>
      </trkpt>
      <trkpt lat="48.832443" lon="2.134016">
        <ele>169.836770</ele>
        <time>2022-09-04T13:06:48.491Z</time>
      </trkpt>
      <trkpt lat="48.832709" lon="2.133906">
        <ele>170.820443</ele>
        <time>2022-09-04T13:07:05.637Z</time>
      </trkpt>
      <trkpt lat="48.833075" lon="2.134175">
        <ele>172.271206</ele>
        <time>2022-09-04T13:07:26.583Z</time>
      </trkpt>
      <trkpt lat="48.833135" lon="2.133923">
        <ele>172.900625</ele>
        <time>2022-09-04T13:07:34.728Z</time>
      </trkpt>
      <trkpt lat="48.833336" lon="2.133247">
        <ele>174.642858</ele>
        <time>2022-09-04T13:07:57.283Z</time>
      </trkpt>
      <trkpt lat="48.833509" lon="2.132952">
        <ele>175.570834</ele>
        <time>2022-09-04T13:08:09.346Z</time>
      </trkpt>
      <trkpt lat="48.833795" lon="2.132710">
        <ele>175.984207</ele>
        <time>2022-09-04T13:08:23.654Z</time>
      </trkpt>
      <trkpt lat="48.833976" lon="2.132404">
        <ele>175.992620</ele>
        <time>2022-09-04T13:08:33.308Z</time>
      </trkpt>
      <trkpt lat="48.834329" lon="2.131375">
        <ele>176.016349</ele>
        <time>2022-09-04T13:08:55.599Z</time>
      </trkpt>
      <trkpt lat="48.834593" lon="2.131131">
        <ele>176.025949</ele>
        <time>2022-09-04T13:09:05.008Z</time>
      </trkpt>
      <trkpt lat="48.834961" lon="2.130934">
        <ele>175.996277</ele>
        <time>2022-09-04T13:09:16.905Z</time>
      </trkpt>
      <trkpt lat="48.835145" lon="2.130448">
        <ele>175.903896</ele>
        <time>2022-09-04T13:09:25.837Z</time>
      </trkpt>
      <trkpt lat="48.835145" lon="2.130448">
        <ele>175.903896</ele>
        <time>2022-09-04T13:09:25.866Z</time>
      </trkpt>
      <trkpt lat="48.835145" lon="2.130448">
        <ele>175.903896</ele>
        <time>2022-09-04T13:09:25.866Z</time>
      </trkpt>
      <trkpt lat="48.835142" lon="2.130445">
        <ele>175.902997</ele>
        <time>2022-09-04T13:09:26.020Z</time>
      </trkpt>
      <trkpt lat="48.835109" lon="2.130017">
        <ele>175.831993</ele>
        <time>2022-09-04T13:09:38.141Z</time>
      </trkpt>
      <trkpt lat="48.835109" lon="2.130017">
        <ele>175.831993</ele>
        <time>2022-09-04T13:09:38.167Z</time>
      </trkpt>
      <trkpt lat="48.834957" lon="2.129741">
        <ele>175.772698</ele>
        <time>2022-09-04T13:09:48.298Z</time>
      </trkpt>
      <trkpt lat="48.834957" lon="2.129741">
        <ele>175.772698</ele>
        <time>2022-09-04T13:09:48.321Z</time>
      </trkpt>
      <trkpt lat="48.834957" lon="2.129741">
        <ele>175.772698</ele>
        <time>2022-09-04T13:09:48.321Z</time>
      </trkpt>
      <trkpt lat="48.835029" lon="2.129557">
        <ele>175.737427</ele>
        <time>2022-09-04T13:09:54.360Z</time>
      </trkpt>
      <trkpt lat="48.835056" lon="2.129563">
        <ele>175.730596</ele>
        <time>2022-09-04T13:09:55.066Z</time>
      </trkpt>
      <trkpt lat="48.835088" lon="2.129618">
        <ele>175.718501</ele>
        <time>2022-09-04T13:09:55.872Z</time>
      </trkpt>
      <trkpt lat="48.835209" lon="2.129617">
        <ele>175.688211</ele>
        <time>2022-09-04T13:09:58.285Z</time>
      </trkpt>
      <trkpt lat="48.835242" lon="2.129559">
        <ele>175.675579</ele>
        <time>2022-09-04T13:09:59.400Z</time>
      </trkpt>
      <trkpt lat="48.835242" lon="2.129413">
        <ele>175.651522</ele>
        <time>2022-09-04T13:10:01.130Z</time>
      </trkpt>
      <trkpt lat="48.835223" lon="2.129374">
        <ele>175.643527</ele>
        <time>2022-09-04T13:10:01.722Z</time>
      </trkpt>
      <trkpt lat="48.835198" lon="2.129345">
        <ele>175.635654</ele>
        <time>2022-09-04T13:10:02.423Z</time>
      </trkpt>
      <trkpt lat="48.835148" lon="2.127626">
        <ele>175.067840</ele>
        <time>2022-09-04T13:10:22.991Z</time>
      </trkpt>
      <trkpt lat="48.835207" lon="2.126036">
        <ele>174.267491</ele>
        <time>2022-09-04T13:10:41.630Z</time>
      </trkpt>
      <trkpt lat="48.835932" lon="2.122000">
        <ele>168.077119</ele>
        <time>2022-09-04T13:11:24.024Z</time>
      </trkpt>
      <trkpt lat="48.836090" lon="2.120916">
        <ele>165.901713</ele>
        <time>2022-09-04T13:11:34.114Z</time>
      </trkpt>
      <trkpt lat="48.836104" lon="2.120840">
        <ele>165.695590</ele>
        <time>2022-09-04T13:11:34.809Z</time>
      </trkpt>
      <trkpt lat="48.836134" lon="2.120676">
        <ele>165.251024</ele>
        <time>2022-09-04T13:11:36.317Z</time>
      </trkpt>
      <trkpt lat="48.836188" lon="2.120343">
        <ele>164.355294</ele>
        <time>2022-09-04T13:11:39.418Z</time>
      </trkpt>
      <trkpt lat="48.836201" lon="2.120204">
        <ele>163.988610</ele>
        <time>2022-09-04T13:11:40.664Z</time>
      </trkpt>
      <trkpt lat="48.836260" lon="2.119593">
        <ele>162.375732</ele>
        <time>2022-09-04T13:11:46.248Z</time>
      </trkpt>
      <trkpt lat="48.836305" lon="2.118429">
        <ele>159.330385</ele>
        <time>2022-09-04T13:11:56.971Z</time>
      </trkpt>
      <trkpt lat="48.836287" lon="2.117805">
        <ele>158.121656</ele>
        <time>2022-09-04T13:12:02.807Z</time>
      </trkpt>
      <trkpt lat="48.836210" lon="2.116971">
        <ele>156.635193</ele>
        <time>2022-09-04T13:12:10.786Z</time>
      </trkpt>
      <trkpt lat="48.835912" lon="2.114892">
        <ele>153.647297</ele>
        <time>2022-09-04T13:12:32.464Z</time>
      </trkpt>
      <trkpt lat="48.836045" lon="2.114241">
        <ele>153.154780</ele>
        <time>2022-09-04T13:12:39.466Z</time>
      </trkpt>
      <trkpt lat="48.836157" lon="2.113999">
        <ele>152.941026</ele>
        <time>2022-09-04T13:12:42.613Z</time>
      </trkpt>
      <trkpt lat="48.836645" lon="2.113338">
        <ele>152.223339</ele>
        <time>2022-09-04T13:12:54.583Z</time>
      </trkpt>
      <trkpt lat="48.836757" lon="2.113034">
        <ele>152.323197</ele>
        <time>2022-09-04T13:13:00.047Z</time>
      </trkpt>
      <trkpt lat="48.836785" lon="2.112963">
        <ele>152.353519</ele>
        <time>2022-09-04T13:13:01.464Z</time>
      </trkpt>
      <trkpt lat="48.836875" lon="2.112760">
        <ele>152.443184</ele>
        <time>2022-09-04T13:13:05.636Z</time>
      </trkpt>
      <trkpt lat="48.836952" lon="2.112655">
        <ele>152.500771</ele>
        <time>2022-09-04T13:13:08.112Z</time>
      </trkpt>
      <trkpt lat="48.836987" lon="2.112578">
        <ele>152.535053</ele>
        <time>2022-09-04T13:13:09.554Z</time>
      </trkpt>
      <trkpt lat="48.837120" lon="2.112263">
        <ele>152.672153</ele>
        <time>2022-09-04T13:13:14.512Z</time>
      </trkpt>
      <trkpt lat="48.837175" lon="2.112129">
        <ele>152.730005</ele>
        <time>2022-09-04T13:13:16.781Z</time>
      </trkpt>
      <trkpt lat="48.837200" lon="2.112154">
        <ele>152.746663</ele>
        <time>2022-09-04T13:13:17.588Z</time>
      </trkpt>
      <trkpt lat="48.837494" lon="2.111585">
        <ele>153.011667</ele>
        <time>2022-09-04T13:13:30.734Z</time>
      </trkpt>
      <trkpt lat="48.837860" lon="2.111487">
        <ele>153.212192</ele>
        <time>2022-09-04T13:13:41.521Z</time>
      </trkpt>
      <trkpt lat="48.837840" lon="2.111169">
        <ele>153.270086</ele>
        <time>2022-09-04T13:13:46.674Z</time>
      </trkpt>
      <trkpt lat="48.837679" lon="2.111026">
        <ele>153.321437</ele>
        <time>2022-09-04T13:13:52.885Z</time>
      </trkpt>
      <trkpt lat="48.837666" lon="2.111003">
        <ele>153.326931</ele>
        <time>2022-09-04T13:13:53.412Z</time>
      </trkpt>
      <trkpt lat="48.837631" lon="2.110980">
        <ele>153.337431</ele>
        <time>2022-09-04T13:13:54.448Z</time>
      </trkpt>
      <trkpt lat="48.837702" lon="2.110707">
        <ele>153.390630</ele>
        <time>2022-09-04T13:14:00.295Z</time>
      </trkpt>
      <trkpt lat="48.837793" lon="2.110745">
        <ele>153.416616</ele>
        <time>2022-09-04T13:14:03.721Z</time>
      </trkpt>
      <trkpt lat="48.837836" lon="2.110384">
        <ele>153.483103</ele>
        <time>2022-09-04T13:14:10.296Z</time>
      </trkpt>
      <trkpt lat="48.837911" lon="2.110386">
        <ele>153.503758</ele>
        <time>2022-09-04T13:14:12.376Z</time>
      </trkpt>
      <trkpt lat="48.837950" lon="2.109430">
        <ele>153.677348</ele>
        <time>2022-09-04T13:14:31.499Z</time>
      </trkpt>
      <trkpt lat="48.838035" lon="2.108601">
        <ele>152.820446</ele>
        <time>2022-09-04T13:14:47.711Z</time>
      </trkpt>
      <trkpt lat="48.838067" lon="2.108295">
        <ele>152.434484</ele>
        <time>2022-09-04T13:14:53.377Z</time>
      </trkpt>
      <trkpt lat="48.838093" lon="2.108061">
        <ele>152.138869</ele>
        <time>2022-09-04T13:14:57.862Z</time>
      </trkpt>
      <trkpt lat="48.838224" lon="2.106399">
        <ele>150.074405</ele>
        <time>2022-09-04T13:15:27.163Z</time>
      </trkpt>
      <trkpt lat="48.838194" lon="2.105004">
        <ele>148.483314</ele>
        <time>2022-09-04T13:15:51.435Z</time>
      </trkpt>
      <trkpt lat="48.838229" lon="2.102253">
        <ele>147.036745</ele>
        <time>2022-09-04T13:16:46.577Z</time>
      </trkpt>
      <trkpt lat="48.838316" lon="2.101351">
        <ele>146.954518</ele>
        <time>2022-09-04T13:17:07.855Z</time>
      </trkpt>
      <trkpt lat="48.838526" lon="2.099284">
        <ele>145.859683</ele>
        <time>2022-09-04T13:17:50.598Z</time>
      </trkpt>
      <trkpt lat="48.838611" lon="2.098149">
        <ele>144.799442</ele>
        <time>2022-09-04T13:18:11.114Z</time>
      </trkpt>
      <trkpt lat="48.838616" lon="2.097333">
        <ele>143.187830</ele>
        <time>2022-09-04T13:18:24.882Z</time>
      </trkpt>
      <trkpt lat="48.838595" lon="2.095926">
        <ele>140.408389</ele>
        <time>2022-09-04T13:18:48.261Z</time>
      </trkpt>
      <trkpt lat="48.838386" lon="2.094676">
        <ele>140.297963</ele>
        <time>2022-09-04T13:19:11.454Z</time>
      </trkpt>
      <trkpt lat="48.838351" lon="2.094198">
        <ele>140.443086</ele>
        <time>2022-09-04T13:19:23.534Z</time>
      </trkpt>
      <trkpt lat="48.838483" lon="2.093591">
        <ele>140.635982</ele>
        <time>2022-09-04T13:19:41.961Z</time>
      </trkpt>
      <trkpt lat="48.838573" lon="2.093509">
        <ele>140.684093</ele>
        <time>2022-09-04T13:19:46.742Z</time>
      </trkpt>
      <trkpt lat="48.838971" lon="2.093441">
        <ele>141.286881</ele>
        <time>2022-09-04T13:20:05.294Z</time>
      </trkpt>
      <trkpt lat="48.839117" lon="2.093264">
        <ele>141.899559</ele>
        <time>2022-09-04T13:20:14.568Z</time>
      </trkpt>
      <trkpt lat="48.839343" lon="2.092894">
        <ele>142.989349</ele>
        <time>2022-09-04T13:20:31.370Z</time>
      </trkpt>
      <trkpt lat="48.839406" lon="2.092572">
        <ele>143.714587</ele>
        <time>2022-09-04T13:20:41.902Z</time>
      </trkpt>
      <trkpt lat="48.839450" lon="2.092013">
        <ele>144.930022</ele>
        <time>2022-09-04T13:21:00.261Z</time>
      </trkpt>
      <trkpt lat="48.839422" lon="2.091330">
        <ele>146.407421</ele>
        <time>2022-09-04T13:21:22.987Z</time>
      </trkpt>
      <trkpt lat="48.839451" lon="2.090769">
        <ele>147.316505</ele>
        <time>2022-09-04T13:21:40.580Z</time>
      </trkpt>
      <trkpt lat="48.839585" lon="2.089659">
        <ele>148.945539</ele>
        <time>2022-09-04T13:22:09.568Z</time>
      </trkpt>
      <trkpt lat="48.840311" lon="2.088160">
        <ele>151.368312</ele>
        <time>2022-09-04T13:23:02.117Z</time>
      </trkpt>
      <trkpt lat="48.840625" lon="2.087776">
        <ele>152.016287</ele>
        <time>2022-09-04T13:23:18.834Z</time>
      </trkpt>
      <trkpt lat="48.840629" lon="2.087718">
        <ele>152.077990</ele>
        <time>2022-09-04T13:23:21.552Z</time>
      </trkpt>
      <trkpt lat="48.840792" lon="2.087744">
        <ele>152.341465</ele>
        <time>2022-09-04T13:23:26.202Z</time>
      </trkpt>
      <trkpt lat="48.840798" lon="2.087674">
        <ele>152.416153</ele>
        <time>2022-09-04T13:23:27.896Z</time>
      </trkpt>
      <trkpt lat="48.840945" lon="2.087537">
        <ele>152.693380</ele>
        <time>2022-09-04T13:23:34.696Z</time>
      </trkpt>
      <trkpt lat="48.841448" lon="2.087090">
        <ele>153.532885</ele>
        <time>2022-09-04T13:23:56.297Z</time>
      </trkpt>
      <trkpt lat="48.841837" lon="2.086435">
        <ele>153.504407</ele>
        <time>2022-09-04T13:24:16.677Z</time>
      </trkpt>
      <trkpt lat="48.842294" lon="2.086033">
        <ele>153.478509</ele>
        <time>2022-09-04T13:24:33.191Z</time>
      </trkpt>
      <trkpt lat="48.843008" lon="2.084564">
        <ele>152.785725</ele>
        <time>2022-09-04T13:25:08.737Z</time>
      </trkpt>
      <trkpt lat="48.843376" lon="2.083419">
        <ele>151.813115</ele>
        <time>2022-09-04T13:25:32.786Z</time>
      </trkpt>
      <trkpt lat="48.843808" lon="2.081909">
        <ele>150.807537</ele>
        <time>2022-09-04T13:26:03.510Z</time>
      </trkpt>
      <trkpt lat="48.843854" lon="2.081747">
        <ele>150.714879</ele>
        <time>2022-09-04T13:26:06.975Z</time>
      </trkpt>
      <trkpt lat="48.843877" lon="2.081150">
        <ele>150.400819</ele>
        <time>2022-09-04T13:26:18.451Z</time>
      </trkpt>
      <trkpt lat="48.843954" lon="2.079113">
        <ele>149.799012</ele>
        <time>2022-09-04T13:27:01.432Z</time>
      </trkpt>
      <trkpt lat="48.843977" lon="2.078517">
        <ele>149.732201</ele>
        <time>2022-09-04T13:27:14.059Z</time>
      </trkpt>
      <trkpt lat="48.844046" lon="2.076738">
        <ele>149.014615</ele>
        <time>2022-09-04T13:27:49.945Z</time>
      </trkpt>
      <trkpt lat="48.844438" lon="2.073269">
        <ele>147.015394</ele>
        <time>2022-09-04T13:28:55.290Z</time>
      </trkpt>
      <trkpt lat="48.844496" lon="2.071437">
        <ele>148.041281</ele>
        <time>2022-09-04T13:29:38.387Z</time>
      </trkpt>
      <trkpt lat="48.844571" lon="2.070812">
        <ele>149.357467</ele>
        <time>2022-09-04T13:29:57.459Z</time>
      </trkpt>
      <trkpt lat="48.844830" lon="2.068630">
        <ele>155.603490</ele>
        <time>2022-09-04T13:31:16.876Z</time>
      </trkpt>
      <trkpt lat="48.844945" lon="2.068444">
        <ele>156.666131</ele>
        <time>2022-09-04T13:31:27.278Z</time>
      </trkpt>
      <trkpt lat="48.845319" lon="2.067816">
        <ele>160.192717</ele>
        <time>2022-09-04T13:32:03.333Z</time>
      </trkpt>
      <trkpt lat="48.845547" lon="2.067463">
        <ele>162.252156</ele>
        <time>2022-09-04T13:32:25.700Z</time>
      </trkpt>
      <trkpt lat="48.845647" lon="2.067103">
        <ele>163.901552</ele>
        <time>2022-09-04T13:32:43.956Z</time>
      </trkpt>
      <trkpt lat="48.846105" lon="2.067242">
        <ele>167.214748</ele>
        <time>2022-09-04T13:33:18.704Z</time>
      </trkpt>
      <trkpt lat="48.846342" lon="2.067313">
        <ele>168.928374</ele>
        <time>2022-09-04T13:33:36.713Z</time>
      </trkpt>
      <trkpt lat="48.847144" lon="2.067490">
        <ele>174.677410</ele>
        <time>2022-09-04T13:34:32.546Z</time>
      </trkpt>
      <trkpt lat="48.847273" lon="2.067486">
        <ele>175.592720</ele>
        <time>2022-09-04T13:34:40.957Z</time>
      </trkpt>
      <trkpt lat="48.847473" lon="2.067070">
        <ele>176.398019</ele>
        <time>2022-09-04T13:34:59.810Z</time>
      </trkpt>
      <trkpt lat="48.847659" lon="2.067203">
        <ele>176.345214</ele>
        <time>2022-09-04T13:35:09.719Z</time>
      </trkpt>
      <trkpt lat="48.847715" lon="2.067106">
        <ele>176.323401</ele>
        <time>2022-09-04T13:35:15.596Z</time>
      </trkpt>
      <trkpt lat="48.847856" lon="2.067093">
        <ele>176.287114</ele>
        <time>2022-09-04T13:35:25.430Z</time>
      </trkpt>
      <trkpt lat="48.847896" lon="2.066758">
        <ele>176.229561</ele>
        <time>2022-09-04T13:35:32.359Z</time>
      </trkpt>
      <trkpt lat="48.847995" lon="2.065940">
        <ele>176.088965</ele>
        <time>2022-09-04T13:35:47.251Z</time>
      </trkpt>
      <trkpt lat="48.848378" lon="2.065526">
        <ele>175.448982</ele>
        <time>2022-09-04T13:35:58.882Z</time>
      </trkpt>
      <trkpt lat="48.848444" lon="2.065456">
        <ele>174.974577</ele>
        <time>2022-09-04T13:36:00.672Z</time>
      </trkpt>
      <trkpt lat="48.848597" lon="2.065127">
        <ele>173.411962</ele>
        <time>2022-09-04T13:36:06.871Z</time>
      </trkpt>
      <trkpt lat="48.848616" lon="2.064688">
        <ele>171.705508</ele>
        <time>2022-09-04T13:36:13.382Z</time>
      </trkpt>
      <trkpt lat="48.848708" lon="2.064672">
        <ele>171.159692</ele>
        <time>2022-09-04T13:36:15.094Z</time>
      </trkpt>
      <trkpt lat="48.848766" lon="2.064667">
        <ele>170.817272</ele>
        <time>2022-09-04T13:36:16.077Z</time>
      </trkpt>
      <trkpt lat="48.848872" lon="2.064534">
        <ele>170.007028</ele>
        <time>2022-09-04T13:36:19.219Z</time>
      </trkpt>
      <trkpt lat="48.849215" lon="2.064482">
        <ele>167.975242</ele>
        <time>2022-09-04T13:36:27.242Z</time>
      </trkpt>
      <trkpt lat="48.849353" lon="2.064144">
        <ele>166.432397</ele>
        <time>2022-09-04T13:36:33.310Z</time>
      </trkpt>
      <trkpt lat="48.849602" lon="2.063647">
        <ele>164.418439</ele>
        <time>2022-09-04T13:36:42.983Z</time>
      </trkpt>
      <trkpt lat="48.850261" lon="2.062843">
        <ele>160.912487</ele>
        <time>2022-09-04T13:37:03.767Z</time>
      </trkpt>
      <trkpt lat="48.851377" lon="2.061071">
        <ele>156.455664</ele>
        <time>2022-09-04T13:37:45.724Z</time>
      </trkpt>
      <trkpt lat="48.851516" lon="2.060605">
        <ele>155.901520</ele>
        <time>2022-09-04T13:37:55.439Z</time>
      </trkpt>
      <trkpt lat="48.851756" lon="2.060179">
        <ele>155.294128</ele>
        <time>2022-09-04T13:38:06.548Z</time>
      </trkpt>
      <trkpt lat="48.852067" lon="2.059647">
        <ele>155.394650</ele>
        <time>2022-09-04T13:38:22.023Z</time>
      </trkpt>
      <trkpt lat="48.853038" lon="2.057986">
        <ele>157.706111</ele>
        <time>2022-09-04T13:39:23.785Z</time>
      </trkpt>
      <trkpt lat="48.853361" lon="2.057494">
        <ele>158.330274</ele>
        <time>2022-09-04T13:39:42.886Z</time>
      </trkpt>
      <trkpt lat="48.853577" lon="2.057296">
        <ele>158.665248</ele>
        <time>2022-09-04T13:39:53.278Z</time>
      </trkpt>
      <trkpt lat="48.853873" lon="2.057024">
        <ele>159.124587</ele>
        <time>2022-09-04T13:40:07.343Z</time>
      </trkpt>
      <trkpt lat="48.854870" lon="2.055697">
        <ele>159.824193</ele>
        <time>2022-09-04T13:40:53.968Z</time>
      </trkpt>
      <trkpt lat="48.855010" lon="2.055601">
        <ele>159.712185</ele>
        <time>2022-09-04T13:40:58.724Z</time>
      </trkpt>
      <trkpt lat="48.855880" lon="2.054357">
        <ele>158.717030</ele>
        <time>2022-09-04T13:41:32.857Z</time>
      </trkpt>
      <trkpt lat="48.856003" lon="2.054247">
        <ele>158.340027</ele>
        <time>2022-09-04T13:41:36.797Z</time>
      </trkpt>
      <trkpt lat="48.856164" lon="2.053867">
        <ele>157.554458</ele>
        <time>2022-09-04T13:41:44.765Z</time>
      </trkpt>
      <trkpt lat="48.856270" lon="2.053454">
        <ele>156.783943</ele>
        <time>2022-09-04T13:41:52.451Z</time>
      </trkpt>
      <trkpt lat="48.856371" lon="2.051962">
        <ele>154.177023</ele>
        <time>2022-09-04T13:42:18.146Z</time>
      </trkpt>
      <trkpt lat="48.856271" lon="2.050648">
        <ele>152.362293</ele>
        <time>2022-09-04T13:42:40.367Z</time>
      </trkpt>
      <trkpt lat="48.856293" lon="2.050579">
        <ele>152.257599</ele>
        <time>2022-09-04T13:42:41.703Z</time>
      </trkpt>
      <trkpt lat="48.856313" lon="2.048907">
        <ele>150.643288</ele>
        <time>2022-09-04T13:43:13.737Z</time>
      </trkpt>
      <trkpt lat="48.856392" lon="2.048050">
        <ele>151.300099</ele>
        <time>2022-09-04T13:43:33.167Z</time>
      </trkpt>
      <trkpt lat="48.856397" lon="2.047992">
        <ele>151.344496</ele>
        <time>2022-09-04T13:43:35.677Z</time>
      </trkpt>
      <trkpt lat="48.856524" lon="2.047887">
        <ele>151.511273</ele>
        <time>2022-09-04T13:43:40.658Z</time>
      </trkpt>
      <trkpt lat="48.856742" lon="2.047865">
        <ele>151.763306</ele>
        <time>2022-09-04T13:43:49.738Z</time>
      </trkpt>
      <trkpt lat="48.856801" lon="2.047889">
        <ele>151.833763</ele>
        <time>2022-09-04T13:43:52.501Z</time>
      </trkpt>
      <trkpt lat="48.857066" lon="2.047997">
        <ele>152.150259</ele>
        <time>2022-09-04T13:44:02.547Z</time>
      </trkpt>
      <trkpt lat="48.857076" lon="2.048001">
        <ele>152.162188</ele>
        <time>2022-09-04T13:44:03.952Z</time>
      </trkpt>
      <trkpt lat="48.857465" lon="2.047781">
        <ele>152.604122</ele>
        <time>2022-09-04T13:44:22.857Z</time>
      </trkpt>
      <trkpt lat="48.858024" lon="2.047949">
        <ele>153.111750</ele>
        <time>2022-09-04T13:44:48.848Z</time>
      </trkpt>
      <trkpt lat="48.858444" lon="2.048482">
        <ele>153.599178</ele>
        <time>2022-09-04T13:45:08.358Z</time>
      </trkpt>
      <trkpt lat="48.858558" lon="2.048448">
        <ele>153.702672</ele>
        <time>2022-09-04T13:45:11.988Z</time>
      </trkpt>
      <trkpt lat="48.859039" lon="2.048660">
        <ele>153.924404</ele>
        <time>2022-09-04T13:45:26.706Z</time>
      </trkpt>
      <trkpt lat="48.859195" lon="2.048440">
        <ele>153.482559</ele>
        <time>2022-09-04T13:45:32.442Z</time>
      </trkpt>
      <trkpt lat="48.859183" lon="2.048247">
        <ele>153.217742</ele>
        <time>2022-09-04T13:45:36.163Z</time>
      </trkpt>
      <trkpt lat="48.859151" lon="2.048042">
        <ele>152.929935</ele>
        <time>2022-09-04T13:45:39.705Z</time>
      </trkpt>
      <trkpt lat="48.858968" lon="2.048062">
        <ele>152.548992</ele>
        <time>2022-09-04T13:45:45.007Z</time>
      </trkpt>
      <trkpt lat="48.858828" lon="2.047829">
        <ele>152.117946</ele>
        <time>2022-09-04T13:45:50.525Z</time>
      </trkpt>
      <trkpt lat="48.858024" lon="2.047136">
        <ele>150.112034</ele>
        <time>2022-09-04T13:46:15.566Z</time>
      </trkpt>
      <trkpt lat="48.856634" lon="2.045938">
        <ele>144.848604</ele>
        <time>2022-09-04T13:46:56.661Z</time>
      </trkpt>
      <trkpt lat="48.856537" lon="2.045724">
        <ele>144.253902</ele>
        <time>2022-09-04T13:47:00.821Z</time>
      </trkpt>
      <trkpt lat="48.856142" lon="2.043836">
        <ele>138.972271</ele>
        <time>2022-09-04T13:47:32.944Z</time>
      </trkpt>
      <trkpt lat="48.856032" lon="2.043589">
        <ele>138.177120</ele>
        <time>2022-09-04T13:47:37.675Z</time>
      </trkpt>
      <trkpt lat="48.855799" lon="2.043439">
        <ele>137.151828</ele>
        <time>2022-09-04T13:47:44.089Z</time>
      </trkpt>
      <trkpt lat="48.855668" lon="2.043243">
        <ele>136.826205</ele>
        <time>2022-09-04T13:47:48.880Z</time>
      </trkpt>
      <trkpt lat="48.855596" lon="2.043077">
        <ele>136.601603</ele>
        <time>2022-09-04T13:47:52.285Z</time>
      </trkpt>
      <trkpt lat="48.855577" lon="2.042860">
        <ele>136.354305</ele>
        <time>2022-09-04T13:47:56.051Z</time>
      </trkpt>
      <trkpt lat="48.855566" lon="2.042731">
        <ele>136.207360</ele>
        <time>2022-09-04T13:47:58.460Z</time>
      </trkpt>
      <trkpt lat="48.855319" lon="2.041953">
        <ele>135.231518</ele>
        <time>2022-09-04T13:48:14.202Z</time>
      </trkpt>
      <trkpt lat="48.855224" lon="2.041727">
        <ele>134.928558</ele>
        <time>2022-09-04T13:48:19.617Z</time>
      </trkpt>
      <trkpt lat="48.856519" lon="2.035420">
        <ele>132.776136</ele>
        <time>2022-09-04T13:50:33.531Z</time>
      </trkpt>
      <trkpt lat="48.856617" lon="2.034559">
        <ele>132.711336</ele>
        <time>2022-09-04T13:50:51.361Z</time>
      </trkpt>
      <trkpt lat="48.856307" lon="2.033787">
        <ele>132.644264</ele>
        <time>2022-09-04T13:51:10.258Z</time>
      </trkpt>
      <trkpt lat="48.856391" lon="2.032499">
        <ele>132.438279</ele>
        <time>2022-09-04T13:51:37.228Z</time>
      </trkpt>
      <trkpt lat="48.856026" lon="2.031573">
        <ele>132.187977</ele>
        <time>2022-09-04T13:52:00.129Z</time>
      </trkpt>
      <trkpt lat="48.854574" lon="2.027992">
        <ele>129.828018</ele>
        <time>2022-09-04T13:53:21.072Z</time>
      </trkpt>
      <trkpt lat="48.854362" lon="2.027740">
        <ele>129.541125</ele>
        <time>2022-09-04T13:53:28.771Z</time>
      </trkpt>
      <trkpt lat="48.853906" lon="2.027365">
        <ele>128.988452</ele>
        <time>2022-09-04T13:53:43.584Z</time>
      </trkpt>
      <trkpt lat="48.854039" lon="2.026598">
        <ele>128.432127</ele>
        <time>2022-09-04T13:54:19.840Z</time>
      </trkpt>
      <trkpt lat="48.854132" lon="2.026064">
        <ele>128.206085</ele>
        <time>2022-09-04T13:54:45.069Z</time>
      </trkpt>
      <trkpt lat="48.854035" lon="2.026148">
        <ele>128.171354</ele>
        <time>2022-09-04T13:54:46.960Z</time>
      </trkpt>
      <trkpt lat="48.853910" lon="2.026137">
        <ele>128.132401</ele>
        <time>2022-09-04T13:54:49.123Z</time>
      </trkpt>
      <trkpt lat="48.853740" lon="2.026147">
        <ele>128.079475</ele>
        <time>2022-09-04T13:54:52.042Z</time>
      </trkpt>
      <trkpt lat="48.853683" lon="2.026181">
        <ele>128.060426</ele>
        <time>2022-09-04T13:54:53.108Z</time>
      </trkpt>
      <trkpt lat="48.853666" lon="2.026192">
        <ele>128.054678</ele>
        <time>2022-09-04T13:54:53.443Z</time>
      </trkpt>
      <trkpt lat="48.853531" lon="2.026114">
        <ele>128.009747</ele>
        <time>2022-09-04T13:54:56.062Z</time>
      </trkpt>
      <trkpt lat="48.853504" lon="2.025966">
        <ele>127.978309</ele>
        <time>2022-09-04T13:54:57.870Z</time>
      </trkpt>
      <trkpt lat="48.853453" lon="2.025850">
        <ele>127.949751</ele>
        <time>2022-09-04T13:54:59.533Z</time>
      </trkpt>
      <trkpt lat="48.853382" lon="2.025741">
        <ele>127.918355</ele>
        <time>2022-09-04T13:55:01.468Z</time>
      </trkpt>
      <trkpt lat="48.853384" lon="2.025538">
        <ele>127.876797</ele>
        <time>2022-09-04T13:55:03.952Z</time>
      </trkpt>
      <trkpt lat="48.853535" lon="2.024847">
        <ele>127.727754</ele>
        <time>2022-09-04T13:55:13.345Z</time>
      </trkpt>
      <trkpt lat="48.853555" lon="2.024586">
        <ele>127.784953</ele>
        <time>2022-09-04T13:55:17.168Z</time>
      </trkpt>
      <trkpt lat="48.853483" lon="2.023361">
        <ele>128.248201</ele>
        <time>2022-09-04T13:55:34.796Z</time>
      </trkpt>
      <trkpt lat="48.852825" lon="2.019189">
        <ele>129.972444</ele>
        <time>2022-09-04T13:56:39.437Z</time>
      </trkpt>
      <trkpt lat="48.852429" lon="2.018437">
        <ele>129.991053</ele>
        <time>2022-09-04T13:56:51.814Z</time>
      </trkpt>
      <trkpt lat="48.852305" lon="2.018175">
        <ele>129.997289</ele>
        <time>2022-09-04T13:56:55.794Z</time>
      </trkpt>
      <trkpt lat="48.852265" lon="2.017820">
        <ele>130.004248</ele>
        <time>2022-09-04T13:57:00.270Z</time>
      </trkpt>
      <trkpt lat="48.852278" lon="2.017563">
        <ele>130.009228</ele>
        <time>2022-09-04T13:57:03.424Z</time>
      </trkpt>
      <trkpt lat="48.852454" lon="2.017126">
        <ele>130.019127</ele>
        <time>2022-09-04T13:57:09.654Z</time>
      </trkpt>
      <trkpt lat="48.852475" lon="2.016917">
        <ele>129.974971</ele>
        <time>2022-09-04T13:57:12.218Z</time>
      </trkpt>
      <trkpt lat="48.852504" lon="2.016689">
        <ele>129.898274</ele>
        <time>2022-09-04T13:57:14.981Z</time>
      </trkpt>
      <trkpt lat="48.852708" lon="2.016548">
        <ele>129.785786</ele>
        <time>2022-09-04T13:57:19.044Z</time>
      </trkpt>
      <trkpt lat="48.852669" lon="2.016395">
        <ele>129.731594</ele>
        <time>2022-09-04T13:57:21.054Z</time>
      </trkpt>
      <trkpt lat="48.852365" lon="2.016611">
        <ele>129.563151</ele>
        <time>2022-09-04T13:57:31.186Z</time>
      </trkpt>
      <trkpt lat="48.852217" lon="2.016645">
        <ele>129.488019</ele>
        <time>2022-09-04T13:57:35.671Z</time>
      </trkpt>
      <trkpt lat="48.851454" lon="2.016442">
        <ele>129.097316</ele>
        <time>2022-09-04T13:57:59.132Z</time>
      </trkpt>
      <trkpt lat="48.851825" lon="2.013620">
        <ele>128.007632</ele>
        <time>2022-09-04T13:58:56.704Z</time>
      </trkpt>
      <trkpt lat="48.852441" lon="2.011388">
        <ele>126.620822</ele>
        <time>2022-09-04T13:59:43.738Z</time>
      </trkpt>
      <trkpt lat="48.852773" lon="2.010072">
        <ele>124.903026</ele>
        <time>2022-09-04T14:00:09.945Z</time>
      </trkpt>
      <trkpt lat="48.853568" lon="2.006248">
        <ele>118.667244</ele>
        <time>2022-09-04T14:01:20.526Z</time>
      </trkpt>
      <trkpt lat="48.853577" lon="2.006030">
        <ele>118.225086</ele>
        <time>2022-09-04T14:01:24.284Z</time>
      </trkpt>
      <trkpt lat="48.853538" lon="2.005558">
        <ele>116.854032</ele>
        <time>2022-09-04T14:01:32.269Z</time>
      </trkpt>
      <trkpt lat="48.853418" lon="2.004904">
        <ele>114.897194</ele>
        <time>2022-09-04T14:01:43.608Z</time>
      </trkpt>
      <trkpt lat="48.853209" lon="2.004389">
        <ele>113.153273</ele>
        <time>2022-09-04T14:01:53.511Z</time>
      </trkpt>
      <trkpt lat="48.852729" lon="2.003568">
        <ele>109.699981</ele>
        <time>2022-09-04T14:02:10.583Z</time>
      </trkpt>
      <trkpt lat="48.852186" lon="2.002297">
        <ele>102.946411</ele>
        <time>2022-09-04T14:02:33.272Z</time>
      </trkpt>
      <trkpt lat="48.852131" lon="2.001442">
        <ele>99.117812</ele>
        <time>2022-09-04T14:02:45.962Z</time>
      </trkpt>
      <trkpt lat="48.851954" lon="1.998904">
        <ele>89.728208</ele>
        <time>2022-09-04T14:03:25.087Z</time>
      </trkpt>
      <trkpt lat="48.851586" lon="1.995966">
        <ele>84.483395</ele>
        <time>2022-09-04T14:04:18.193Z</time>
      </trkpt>
      <trkpt lat="48.851523" lon="1.995104">
        <ele>84.482812</ele>
        <time>2022-09-04T14:04:35.483Z</time>
      </trkpt>
      <trkpt lat="48.851538" lon="1.994698">
        <ele>84.562120</ele>
        <time>2022-09-04T14:04:43.912Z</time>
      </trkpt>
      <trkpt lat="48.851824" lon="1.992307">
        <ele>85.448785</ele>
        <time>2022-09-04T14:05:43.660Z</time>
      </trkpt>
      <trkpt lat="48.851757" lon="1.990994">
        <ele>86.329953</ele>
        <time>2022-09-04T14:06:18.000Z</time>
      </trkpt>
      <trkpt lat="48.851778" lon="1.990611">
        <ele>86.587107</ele>
        <time>2022-09-04T14:06:26.735Z</time>
      </trkpt>
      <trkpt lat="48.851830" lon="1.989814">
        <ele>86.601893</ele>
        <time>2022-09-04T14:06:43.006Z</time>
      </trkpt>
      <trkpt lat="48.851683" lon="1.989523">
        <ele>86.548308</ele>
        <time>2022-09-04T14:06:47.284Z</time>
      </trkpt>
      <trkpt lat="48.851337" lon="1.989023">
        <ele>86.442326</ele>
        <time>2022-09-04T14:06:56.067Z</time>
      </trkpt>
      <trkpt lat="48.851168" lon="1.988686">
        <ele>86.380437</ele>
        <time>2022-09-04T14:07:01.340Z</time>
      </trkpt>
      <trkpt lat="48.851063" lon="1.988186">
        <ele>86.303776</ele>
        <time>2022-09-04T14:07:07.503Z</time>
      </trkpt>
      <trkpt lat="48.851362" lon="1.987898">
        <ele>86.746178</ele>
        <time>2022-09-04T14:07:13.676Z</time>
      </trkpt>
      <trkpt lat="48.851397" lon="1.987853">
        <ele>86.810871</ele>
        <time>2022-09-04T14:07:14.533Z</time>
      </trkpt>
      <trkpt lat="48.851515" lon="1.987700">
        <ele>87.029752</ele>
        <time>2022-09-04T14:07:17.408Z</time>
      </trkpt>
      <trkpt lat="48.851552" lon="1.987572">
        <ele>87.159567</ele>
        <time>2022-09-04T14:07:19.095Z</time>
      </trkpt>
      <trkpt lat="48.852065" lon="1.987427">
        <ele>87.895885</ele>
        <time>2022-09-04T14:07:32.357Z</time>
      </trkpt>
      <trkpt lat="48.852848" lon="1.987088">
        <ele>88.926811</ele>
        <time>2022-09-04T14:08:03.724Z</time>
      </trkpt>
      <trkpt lat="48.853260" lon="1.986755">
        <ele>89.216603</ele>
        <time>2022-09-04T14:08:20.010Z</time>
      </trkpt>
      <trkpt lat="48.853515" lon="1.986626">
        <ele>89.383505</ele>
        <time>2022-09-04T14:08:26.640Z</time>
      </trkpt>
      <trkpt lat="48.853814" lon="1.986641">
        <ele>89.569291</ele>
        <time>2022-09-04T14:08:32.403Z</time>
      </trkpt>
      <trkpt lat="48.853868" lon="1.986712">
        <ele>89.613634</ele>
        <time>2022-09-04T14:08:34.034Z</time>
      </trkpt>
      <trkpt lat="48.853966" lon="1.987098">
        <ele>89.782694</ele>
        <time>2022-09-04T14:08:38.828Z</time>
      </trkpt>
      <trkpt lat="48.854036" lon="1.987067">
        <ele>89.827974</ele>
        <time>2022-09-04T14:08:40.113Z</time>
      </trkpt>
      <trkpt lat="48.854107" lon="1.987036">
        <ele>89.873849</ele>
        <time>2022-09-04T14:08:41.268Z</time>
      </trkpt>
      <trkpt lat="48.854084" lon="1.986870">
        <ele>89.943167</ele>
        <time>2022-09-04T14:08:43.047Z</time>
      </trkpt>
      <trkpt lat="48.854049" lon="1.986629">
        <ele>89.486438</ele>
        <time>2022-09-04T14:08:45.825Z</time>
      </trkpt>
      <trkpt lat="48.854033" lon="1.986514">
        <ele>89.246245</ele>
        <time>2022-09-04T14:08:47.022Z</time>
      </trkpt>
      <trkpt lat="48.853899" lon="1.985968">
        <ele>88.055433</ele>
        <time>2022-09-04T14:08:53.052Z</time>
      </trkpt>
      <trkpt lat="48.853405" lon="1.986070">
        <ele>86.507149</ele>
        <time>2022-09-04T14:09:00.565Z</time>
      </trkpt>
      <trkpt lat="48.853463" lon="1.985564">
        <ele>85.457577</ele>
        <time>2022-09-04T14:09:05.058Z</time>
      </trkpt>
      <trkpt lat="48.853763" lon="1.984002">
        <ele>83.479425</ele>
        <time>2022-09-04T14:09:20.751Z</time>
      </trkpt>
      <trkpt lat="48.853824" lon="1.983936">
        <ele>83.387170</ele>
        <time>2022-09-04T14:09:22.048Z</time>
      </trkpt>
      <trkpt lat="48.853812" lon="1.983789">
        <ele>83.267090</ele>
        <time>2022-09-04T14:09:23.689Z</time>
      </trkpt>
      <trkpt lat="48.853902" lon="1.983643">
        <ele>83.104906</ele>
        <time>2022-09-04T14:09:25.965Z</time>
      </trkpt>
      <trkpt lat="48.854533" lon="1.981901">
        <ele>82.335394</ele>
        <time>2022-09-04T14:09:53.113Z</time>
      </trkpt>
      <trkpt lat="48.854854" lon="1.981142">
        <ele>82.542981</ele>
        <time>2022-09-04T14:10:05.834Z</time>
      </trkpt>
      <trkpt lat="48.855445" lon="1.979759">
        <ele>82.867206</ele>
        <time>2022-09-04T14:10:28.100Z</time>
      </trkpt>
      <trkpt lat="48.855893" lon="1.978462">
        <ele>83.075363</ele>
        <time>2022-09-04T14:10:47.629Z</time>
      </trkpt>
      <trkpt lat="48.855967" lon="1.978105">
        <ele>83.128551</ele>
        <time>2022-09-04T14:10:52.598Z</time>
      </trkpt>
      <trkpt lat="48.856114" lon="1.977984">
        <ele>83.164655</ele>
        <time>2022-09-04T14:10:56.356Z</time>
      </trkpt>
      <trkpt lat="48.856584" lon="1.976757">
        <ele>83.633633</ele>
        <time>2022-09-04T14:11:15.942Z</time>
      </trkpt>
      <trkpt lat="48.856845" lon="1.975769">
        <ele>83.987178</ele>
        <time>2022-09-04T14:11:31.979Z</time>
      </trkpt>
      <trkpt lat="48.857032" lon="1.974694">
        <ele>85.926634</ele>
        <time>2022-09-04T14:11:51.345Z</time>
      </trkpt>
      <trkpt lat="48.857229" lon="1.973661">
        <ele>88.271744</ele>
        <time>2022-09-04T14:12:25.344Z</time>
      </trkpt>
      <trkpt lat="48.857449" lon="1.973177">
        <ele>89.554435</ele>
        <time>2022-09-04T14:12:46.764Z</time>
      </trkpt>
      <trkpt lat="48.858579" lon="1.971282">
        <ele>99.733148</ele>
        <time>2022-09-04T14:14:36.091Z</time>
      </trkpt>
      <trkpt lat="48.859087" lon="1.970479">
        <ele>103.569657</ele>
        <time>2022-09-04T14:15:13.774Z</time>
      </trkpt>
      <trkpt lat="48.860544" lon="1.969144">
        <ele>110.805733</ele>
        <time>2022-09-04T14:16:22.591Z</time>
      </trkpt>
      <trkpt lat="48.860654" lon="1.968938">
        <ele>111.308329</ele>
        <time>2022-09-04T14:16:28.789Z</time>
      </trkpt>
      <trkpt lat="48.860811" lon="1.968980">
        <ele>111.767343</ele>
        <time>2022-09-04T14:16:33.998Z</time>
      </trkpt>
      <trkpt lat="48.863278" lon="1.969680">
        <ele>118.104161</ele>
        <time>2022-09-04T14:17:52.031Z</time>
      </trkpt>
      <trkpt lat="48.863579" lon="1.969772">
        <ele>118.795836</ele>
        <time>2022-09-04T14:18:00.992Z</time>
      </trkpt>
      <trkpt lat="48.864074" lon="1.969772">
        <ele>119.632935</ele>
        <time>2022-09-04T14:18:14.757Z</time>
      </trkpt>
      <trkpt lat="48.864689" lon="1.969587">
        <ele>120.633011</ele>
        <time>2022-09-04T14:18:31.812Z</time>
      </trkpt>
      <trkpt lat="48.864946" lon="1.969631">
        <ele>121.045571</ele>
        <time>2022-09-04T14:18:38.446Z</time>
      </trkpt>
      <trkpt lat="48.865165" lon="1.969825">
        <ele>121.449910</ele>
        <time>2022-09-04T14:18:44.690Z</time>
      </trkpt>
      <trkpt lat="48.865305" lon="1.970238">
        <ele>121.972414</ele>
        <time>2022-09-04T14:18:52.690Z</time>
      </trkpt>
      <trkpt lat="48.865487" lon="1.970335">
        <ele>122.378011</ele>
        <time>2022-09-04T14:18:58.019Z</time>
      </trkpt>
      <trkpt lat="48.865580" lon="1.970369">
        <ele>122.579171</ele>
        <time>2022-09-04T14:19:00.775Z</time>
      </trkpt>
      <trkpt lat="48.866388" lon="1.970665">
        <ele>124.327077</ele>
        <time>2022-09-04T14:19:25.302Z</time>
      </trkpt>
      <trkpt lat="48.866548" lon="1.970712">
        <ele>124.669788</ele>
        <time>2022-09-04T14:19:30.504Z</time>
      </trkpt>
      <trkpt lat="48.866643" lon="1.970755">
        <ele>124.878246</ele>
        <time>2022-09-04T14:19:33.679Z</time>
      </trkpt>
      <trkpt lat="48.866736" lon="1.970740">
        <ele>125.074927</ele>
        <time>2022-09-04T14:19:36.537Z</time>
      </trkpt>
      <trkpt lat="48.866833" lon="1.970774">
        <ele>125.284274</ele>
        <time>2022-09-04T14:19:39.779Z</time>
      </trkpt>
      <trkpt lat="48.866993" lon="1.970822">
        <ele>125.629308</ele>
        <time>2022-09-04T14:19:45.088Z</time>
      </trkpt>
      <trkpt lat="48.867278" lon="1.970922">
        <ele>126.319043</ele>
        <time>2022-09-04T14:19:54.434Z</time>
      </trkpt>
      <trkpt lat="48.867357" lon="1.970952">
        <ele>126.511059</ele>
        <time>2022-09-04T14:19:56.953Z</time>
      </trkpt>
      <trkpt lat="48.867970" lon="1.971167">
        <ele>127.994563</ele>
        <time>2022-09-04T14:20:17.005Z</time>
      </trkpt>
      <trkpt lat="48.868496" lon="1.971355">
        <ele>129.268757</ele>
        <time>2022-09-04T14:20:33.569Z</time>
      </trkpt>
      <trkpt lat="48.869229" lon="1.971586">
        <ele>130.880941</ele>
        <time>2022-09-04T14:20:55.389Z</time>
      </trkpt>
      <trkpt lat="48.869313" lon="1.971609">
        <ele>131.056153</ele>
        <time>2022-09-04T14:20:57.778Z</time>
      </trkpt>
      <trkpt lat="48.869731" lon="1.971688">
        <ele>131.920838</ele>
        <time>2022-09-04T14:21:09.815Z</time>
      </trkpt>
      <trkpt lat="48.870052" lon="1.971753">
        <ele>132.585613</ele>
        <time>2022-09-04T14:21:19.227Z</time>
      </trkpt>
      <trkpt lat="48.870549" lon="1.971848">
        <ele>133.640921</ele>
        <time>2022-09-04T14:21:34.140Z</time>
      </trkpt>
      <trkpt lat="48.871054" lon="1.971991">
        <ele>135.103202</ele>
        <time>2022-09-04T14:21:50.129Z</time>
      </trkpt>
      <trkpt lat="48.871819" lon="1.972303">
        <ele>137.357884</ele>
        <time>2022-09-04T14:22:16.512Z</time>
      </trkpt>
      <trkpt lat="48.872375" lon="1.972491">
        <ele>139.239270</ele>
        <time>2022-09-04T14:22:36.951Z</time>
      </trkpt>
      <trkpt lat="48.872525" lon="1.972535">
        <ele>140.032861</ele>
        <time>2022-09-04T14:22:42.747Z</time>
      </trkpt>
      <trkpt lat="48.872697" lon="1.972581">
        <ele>140.940085</ele>
        <time>2022-09-04T14:22:49.346Z</time>
      </trkpt>
      <trkpt lat="48.873043" lon="1.972758">
        <ele>142.836502</ele>
        <time>2022-09-04T14:23:04.142Z</time>
      </trkpt>
      <trkpt lat="48.873119" lon="1.972828">
        <ele>143.298103</ele>
        <time>2022-09-04T14:23:07.933Z</time>
      </trkpt>
      <trkpt lat="48.873368" lon="1.973062">
        <ele>144.818758</ele>
        <time>2022-09-04T14:23:21.128Z</time>
      </trkpt>
      <trkpt lat="48.874022" lon="1.973666">
        <ele>149.181474</ele>
        <time>2022-09-04T14:24:02.510Z</time>
      </trkpt>
      <trkpt lat="48.874109" lon="1.973745">
        <ele>149.967472</ele>
        <time>2022-09-04T14:24:08.882Z</time>
      </trkpt>
      <trkpt lat="48.874262" lon="1.973898">
        <ele>151.387882</ele>
        <time>2022-09-04T14:24:18.306Z</time>
      </trkpt>
      <trkpt lat="48.874494" lon="1.974167">
        <ele>153.650929</ele>
        <time>2022-09-04T14:24:34.775Z</time>
      </trkpt>
      <trkpt lat="48.874522" lon="1.974202">
        <ele>153.932084</ele>
        <time>2022-09-04T14:24:36.600Z</time>
      </trkpt>
      <trkpt lat="48.874646" lon="1.974418">
        <ele>155.394711</ele>
        <time>2022-09-04T14:24:48.173Z</time>
      </trkpt>
      <trkpt lat="48.874666" lon="1.974661">
        <ele>156.644036</ele>
        <time>2022-09-04T14:24:55.985Z</time>
      </trkpt>
      <trkpt lat="48.874719" lon="1.974995">
        <ele>158.396814</ele>
        <time>2022-09-04T14:25:11.489Z</time>
      </trkpt>
      <trkpt lat="48.874745" lon="1.976083">
        <ele>163.466070</ele>
        <time>2022-09-04T14:25:57.967Z</time>
      </trkpt>
      <trkpt lat="48.874808" lon="1.976345">
        <ele>164.542853</ele>
        <time>2022-09-04T14:26:07.644Z</time>
      </trkpt>
      <trkpt lat="48.875056" lon="1.976694">
        <ele>166.526071</ele>
        <time>2022-09-04T14:26:26.060Z</time>
      </trkpt>
      <trkpt lat="48.875529" lon="1.976905">
        <ele>169.419043</ele>
        <time>2022-09-04T14:26:49.632Z</time>
      </trkpt>
      <trkpt lat="48.876000" lon="1.977333">
        <ele>172.545546</ele>
        <time>2022-09-04T14:27:10.479Z</time>
      </trkpt>
      <trkpt lat="48.876059" lon="1.977400">
        <ele>172.652501</ele>
        <time>2022-09-04T14:27:13.038Z</time>
      </trkpt>
      <trkpt lat="48.876133" lon="1.977488">
        <ele>172.788948</ele>
        <time>2022-09-04T14:27:17.630Z</time>
      </trkpt>
      <trkpt lat="48.876195" lon="1.977558">
        <ele>172.901109</ele>
        <time>2022-09-04T14:27:20.968Z</time>
      </trkpt>
      <trkpt lat="48.876244" lon="1.977616">
        <ele>172.991301</ele>
        <time>2022-09-04T14:27:23.572Z</time>
      </trkpt>
      <trkpt lat="48.876307" lon="1.977852">
        <ele>173.234599</ele>
        <time>2022-09-04T14:27:29.354Z</time>
      </trkpt>
      <trkpt lat="48.876423" lon="1.977892">
        <ele>173.407357</ele>
        <time>2022-09-04T14:27:34.132Z</time>
      </trkpt>
      <trkpt lat="48.877128" lon="1.978911">
        <ele>174.820135</ele>
        <time>2022-09-04T14:27:55.546Z</time>
      </trkpt>
      <trkpt lat="48.877288" lon="1.979159">
        <ele>175.116246</ele>
        <time>2022-09-04T14:27:59.734Z</time>
      </trkpt>
      <trkpt lat="48.877359" lon="1.979252">
        <ele>175.056984</ele>
        <time>2022-09-04T14:28:01.264Z</time>
      </trkpt>
      <trkpt lat="48.877463" lon="1.979389">
        <ele>174.969966</ele>
        <time>2022-09-04T14:28:03.836Z</time>
      </trkpt>
      <trkpt lat="48.877429" lon="1.979547">
        <ele>174.900825</ele>
        <time>2022-09-04T14:28:05.738Z</time>
      </trkpt>
      <trkpt lat="48.877635" lon="1.980741">
        <ele>174.387434</ele>
        <time>2022-09-04T14:28:19.567Z</time>
      </trkpt>
      <trkpt lat="48.877664" lon="1.980908">
        <ele>174.315598</ele>
        <time>2022-09-04T14:28:21.532Z</time>
      </trkpt>
      <trkpt lat="48.877714" lon="1.981200">
        <ele>174.190106</ele>
        <time>2022-09-04T14:28:24.865Z</time>
      </trkpt>
      <trkpt lat="48.877886" lon="1.982333">
        <ele>174.181527</ele>
        <time>2022-09-04T14:28:38.436Z</time>
      </trkpt>
      <trkpt lat="48.877966" lon="1.983672">
        <ele>174.560472</ele>
        <time>2022-09-04T14:28:57.431Z</time>
      </trkpt>
      <trkpt lat="48.878135" lon="1.984473">
        <ele>174.869937</ele>
        <time>2022-09-04T14:29:11.437Z</time>
      </trkpt>
      <trkpt lat="48.878265" lon="1.984844">
        <ele>175.219539</ele>
        <time>2022-09-04T14:29:19.117Z</time>
      </trkpt>
      <trkpt lat="48.878556" lon="1.985136">
        <ele>175.660428</ele>
        <time>2022-09-04T14:29:28.914Z</time>
      </trkpt>
      <trkpt lat="48.878524" lon="1.985285">
        <ele>175.790782</ele>
        <time>2022-09-04T14:29:31.904Z</time>
      </trkpt>
      <trkpt lat="48.878640" lon="1.985367">
        <ele>175.952547</ele>
        <time>2022-09-04T14:29:35.406Z</time>
      </trkpt>
      <trkpt lat="48.878735" lon="1.985211">
        <ele>176.129360</ele>
        <time>2022-09-04T14:29:39.514Z</time>
      </trkpt>
      <trkpt lat="48.878940" lon="1.985221">
        <ele>176.388726</ele>
        <time>2022-09-04T14:29:45.286Z</time>
      </trkpt>
      <trkpt lat="48.879379" lon="1.985344">
        <ele>176.953209</ele>
        <time>2022-09-04T14:29:56.303Z</time>
      </trkpt>
      <trkpt lat="48.879917" lon="1.985568">
        <ele>177.278047</ele>
        <time>2022-09-04T14:30:07.938Z</time>
      </trkpt>
      <trkpt lat="48.880256" lon="1.985777">
        <ele>177.458372</ele>
        <time>2022-09-04T14:30:15.577Z</time>
      </trkpt>
      <trkpt lat="48.880186" lon="1.986417">
        <ele>177.668700</ele>
        <time>2022-09-04T14:30:25.101Z</time>
      </trkpt>
      <trkpt lat="48.880030" lon="1.987114">
        <ele>177.907384</ele>
        <time>2022-09-04T14:30:36.612Z</time>
      </trkpt>
      <trkpt lat="48.879969" lon="1.987473">
        <ele>178.084153</ele>
        <time>2022-09-04T14:30:42.979Z</time>
      </trkpt>
      <trkpt lat="48.879922" lon="1.987790">
        <ele>178.245712</ele>
        <time>2022-09-04T14:30:48.106Z</time>
      </trkpt>
      <trkpt lat="48.879917" lon="1.987917">
        <ele>178.308966</ele>
        <time>2022-09-04T14:30:50.169Z</time>
      </trkpt>
      <trkpt lat="48.879884" lon="1.988729">
        <ele>178.713441</ele>
        <time>2022-09-04T14:31:02.849Z</time>
      </trkpt>
      <trkpt lat="48.879764" lon="1.989218">
        <ele>178.972933</ele>
        <time>2022-09-04T14:31:11.184Z</time>
      </trkpt>
      <trkpt lat="48.879659" lon="1.989579">
        <ele>179.169183</ele>
        <time>2022-09-04T14:31:20.693Z</time>
      </trkpt>
      <trkpt lat="48.879686" lon="1.989803">
        <ele>179.281729</ele>
        <time>2022-09-04T14:31:25.906Z</time>
      </trkpt>
      <trkpt lat="48.879961" lon="1.990203">
        <ele>179.385124</ele>
        <time>2022-09-04T14:31:39.080Z</time>
      </trkpt>
      <trkpt lat="48.882372" lon="1.993702">
        <ele>180.405360</ele>
        <time>2022-09-04T14:33:27.018Z</time>
      </trkpt>
      <trkpt lat="48.883518" lon="1.995217">
        <ele>182.330042</ele>
        <time>2022-09-04T14:34:28.279Z</time>
      </trkpt>
      <trkpt lat="48.885094" lon="1.997317">
        <ele>183.385629</ele>
        <time>2022-09-04T14:35:41.557Z</time>
      </trkpt>
      <trkpt lat="48.885455" lon="1.999425">
        <ele>182.043711</ele>
        <time>2022-09-04T14:37:21.101Z</time>
      </trkpt>
      <trkpt lat="48.885529" lon="2.000101">
        <ele>181.905399</ele>
        <time>2022-09-04T14:37:52.435Z</time>
      </trkpt>
      <trkpt lat="48.885549" lon="2.000287">
        <ele>181.950310</ele>
        <time>2022-09-04T14:38:01.028Z</time>
      </trkpt>
      <trkpt lat="48.885898" lon="2.002231">
        <ele>182.430505</ele>
        <time>2022-09-04T14:39:33.161Z</time>
      </trkpt>
      <trkpt lat="48.885260" lon="2.003404">
        <ele>183.489616</ele>
        <time>2022-09-04T14:40:04.455Z</time>
      </trkpt>
      <trkpt lat="48.886228" lon="2.006271">
        <ele>183.926811</ele>
        <time>2022-09-04T14:40:56.429Z</time>
      </trkpt>
      <trkpt lat="48.886244" lon="2.006319">
        <ele>183.907700</ele>
        <time>2022-09-04T14:40:57.023Z</time>
      </trkpt>
      <trkpt lat="48.886999" lon="2.008554">
        <ele>180.848154</ele>
        <time>2022-09-04T14:41:24.819Z</time>
      </trkpt>
      <trkpt lat="48.886627" lon="2.009409">
        <ele>179.130542</ele>
        <time>2022-09-04T14:41:34.909Z</time>
      </trkpt>
      <trkpt lat="48.886473" lon="2.009764">
        <ele>178.421826</ele>
        <time>2022-09-04T14:41:39.109Z</time>
      </trkpt>
      <trkpt lat="48.886400" lon="2.009979">
        <ele>178.019018</ele>
        <time>2022-09-04T14:41:41.608Z</time>
      </trkpt>
      <trkpt lat="48.886335" lon="2.010172">
        <ele>177.658042</ele>
        <time>2022-09-04T14:41:43.643Z</time>
      </trkpt>
      <trkpt lat="48.886222" lon="2.010960">
        <ele>176.315427</ele>
        <time>2022-09-04T14:41:51.615Z</time>
      </trkpt>
      <trkpt lat="48.886202" lon="2.012205">
        <ele>174.355517</ele>
        <time>2022-09-04T14:42:03.747Z</time>
      </trkpt>
      <trkpt lat="48.886189" lon="2.012538">
        <ele>174.086328</ele>
        <time>2022-09-04T14:42:06.968Z</time>
      </trkpt>
      <trkpt lat="48.886184" lon="2.012665">
        <ele>173.983661</ele>
        <time>2022-09-04T14:42:08.215Z</time>
      </trkpt>
      <trkpt lat="48.886483" lon="2.012581">
        <ele>173.610519</ele>
        <time>2022-09-04T14:42:16.454Z</time>
      </trkpt>
      <trkpt lat="48.886492" lon="2.012905">
        <ele>173.348834</ele>
        <time>2022-09-04T14:42:22.192Z</time>
      </trkpt>
      <trkpt lat="48.886142" lon="2.014347">
        <ele>172.451719</ele>
        <time>2022-09-04T14:42:53.046Z</time>
      </trkpt>
      <trkpt lat="48.885508" lon="2.015410">
        <ele>174.010646</ele>
        <time>2022-09-04T14:43:32.800Z</time>
      </trkpt>
      <trkpt lat="48.885286" lon="2.015465">
        <ele>174.382215</ele>
        <time>2022-09-04T14:43:42.864Z</time>
      </trkpt>
      <trkpt lat="48.884992" lon="2.015530">
        <ele>174.872997</ele>
        <time>2022-09-04T14:43:55.580Z</time>
      </trkpt>
      <trkpt lat="48.883717" lon="2.016936">
        <ele>177.461053</ele>
        <time>2022-09-04T14:44:59.382Z</time>
      </trkpt>
      <trkpt lat="48.883662" lon="2.016990">
        <ele>177.568544</ele>
        <time>2022-09-04T14:45:01.717Z</time>
      </trkpt>
      <trkpt lat="48.882555" lon="2.020459">
        <ele>181.047769</ele>
        <time>2022-09-04T14:46:38.775Z</time>
      </trkpt>
      <trkpt lat="48.882295" lon="2.021245">
        <ele>181.822796</ele>
        <time>2022-09-04T14:47:02.080Z</time>
      </trkpt>
      <trkpt lat="48.882093" lon="2.021857">
        <ele>182.425987</ele>
        <time>2022-09-04T14:47:19.822Z</time>
      </trkpt>
      <trkpt lat="48.881420" lon="2.024137">
        <ele>183.537376</ele>
        <time>2022-09-04T14:47:57.531Z</time>
      </trkpt>
      <trkpt lat="48.880622" lon="2.026881">
        <ele>183.411034</ele>
        <time>2022-09-04T14:48:33.869Z</time>
      </trkpt>
      <trkpt lat="48.880146" lon="2.028522">
        <ele>183.341393</ele>
        <time>2022-09-04T14:48:55.621Z</time>
      </trkpt>
      <trkpt lat="48.880010" lon="2.028988">
        <ele>183.356169</ele>
        <time>2022-09-04T14:49:02.174Z</time>
      </trkpt>
      <trkpt lat="48.879578" lon="2.030390">
        <ele>183.550672</ele>
        <time>2022-09-04T14:49:23.488Z</time>
      </trkpt>
      <trkpt lat="48.879221" lon="2.031549">
        <ele>183.948748</ele>
        <time>2022-09-04T14:49:42.379Z</time>
      </trkpt>
      <trkpt lat="48.878639" lon="2.033674">
        <ele>184.040342</ele>
        <time>2022-09-04T14:50:14.212Z</time>
      </trkpt>
      <trkpt lat="48.878305" lon="2.034898">
        <ele>183.851746</ele>
        <time>2022-09-04T14:50:29.378Z</time>
      </trkpt>
      <trkpt lat="48.877853" lon="2.036288">
        <ele>182.796851</ele>
        <time>2022-09-04T14:50:46.223Z</time>
      </trkpt>
      <trkpt lat="48.877552" lon="2.037213">
        <ele>182.082873</ele>
        <time>2022-09-04T14:50:57.440Z</time>
      </trkpt>
      <trkpt lat="48.876881" lon="2.039448">
        <ele>181.511948</ele>
        <time>2022-09-04T14:51:26.303Z</time>
      </trkpt>
      <trkpt lat="48.876446" lon="2.040896">
        <ele>182.091294</ele>
        <time>2022-09-04T14:51:49.938Z</time>
      </trkpt>
      <trkpt lat="48.875914" lon="2.042730">
        <ele>183.283598</ele>
        <time>2022-09-04T14:52:23.078Z</time>
      </trkpt>
      <trkpt lat="48.875359" lon="2.044638">
        <ele>184.540157</ele>
        <time>2022-09-04T14:52:55.675Z</time>
      </trkpt>
      <trkpt lat="48.875341" lon="2.044700">
        <ele>184.580976</ele>
        <time>2022-09-04T14:52:56.659Z</time>
      </trkpt>
      <trkpt lat="48.875239" lon="2.045021">
        <ele>184.722180</ele>
        <time>2022-09-04T14:53:02.456Z</time>
      </trkpt>
      <trkpt lat="48.874782" lon="2.046461">
        <ele>185.012180</ele>
        <time>2022-09-04T14:53:28.387Z</time>
      </trkpt>
      <trkpt lat="48.874655" lon="2.046856">
        <ele>185.091927</ele>
        <time>2022-09-04T14:53:34.346Z</time>
      </trkpt>
      <trkpt lat="48.874623" lon="2.046934">
        <ele>185.108601</ele>
        <time>2022-09-04T14:53:35.437Z</time>
      </trkpt>
      <trkpt lat="48.874597" lon="2.047010">
        <ele>185.124139</ele>
        <time>2022-09-04T14:53:36.550Z</time>
      </trkpt>
      <trkpt lat="48.874093" lon="2.048727">
        <ele>182.619717</ele>
        <time>2022-09-04T14:53:58.920Z</time>
      </trkpt>
      <trkpt lat="48.873501" lon="2.050743">
        <ele>174.932873</ele>
        <time>2022-09-04T14:54:34.229Z</time>
      </trkpt>
      <trkpt lat="48.873501" lon="2.050743">
        <ele>174.932873</ele>
        <time>2022-09-04T14:54:34.774Z</time>
      </trkpt>
      <trkpt lat="48.873501" lon="2.050743">
        <ele>174.932873</ele>
        <time>2022-09-04T14:54:34.846Z</time>
      </trkpt>
      <trkpt lat="48.873249" lon="2.051490">
        <ele>170.205033</ele>
        <time>2022-09-04T14:54:46.756Z</time>
      </trkpt>
      <trkpt lat="48.872685" lon="2.051661">
        <ele>165.280883</ele>
        <time>2022-09-04T14:54:58.771Z</time>
      </trkpt>
      <trkpt lat="48.871214" lon="2.051851">
        <ele>148.299105</ele>
        <time>2022-09-04T14:55:29.629Z</time>
      </trkpt>
      <trkpt lat="48.870872" lon="2.050838">
        <ele>142.448162</ele>
        <time>2022-09-04T14:55:45.512Z</time>
      </trkpt>
      <trkpt lat="48.870891" lon="2.050583">
        <ele>141.621580</ele>
        <time>2022-09-04T14:55:49.338Z</time>
      </trkpt>
      <trkpt lat="48.870839" lon="2.050433">
        <ele>141.075450</ele>
        <time>2022-09-04T14:55:51.881Z</time>
      </trkpt>
      <trkpt lat="48.870624" lon="2.050191">
        <ele>139.765502</ele>
        <time>2022-09-04T14:55:58.366Z</time>
      </trkpt>
      <trkpt lat="48.870277" lon="2.050031">
        <ele>137.989886</ele>
        <time>2022-09-04T14:56:08.212Z</time>
      </trkpt>
      <trkpt lat="48.870031" lon="2.049897">
        <ele>136.710289</ele>
        <time>2022-09-04T14:56:16.149Z</time>
      </trkpt>
      <trkpt lat="48.869725" lon="2.050010">
        <ele>135.842911</ele>
        <time>2022-09-04T14:56:26.121Z</time>
      </trkpt>
      <trkpt lat="48.869170" lon="2.049731">
        <ele>136.659423</ele>
        <time>2022-09-04T14:56:46.634Z</time>
      </trkpt>
      <trkpt lat="48.868760" lon="2.049514">
        <ele>137.265828</ele>
        <time>2022-09-04T14:57:03.507Z</time>
      </trkpt>
      <trkpt lat="48.868440" lon="2.049616">
        <ele>137.722526</ele>
        <time>2022-09-04T14:57:18.062Z</time>
      </trkpt>
      <trkpt lat="48.867660" lon="2.050338">
        <ele>138.733641</ele>
        <time>2022-09-04T14:58:00.212Z</time>
      </trkpt>
      <trkpt lat="48.867051" lon="2.050368">
        <ele>139.300740</ele>
        <time>2022-09-04T14:58:21.244Z</time>
      </trkpt>
      <trkpt lat="48.866871" lon="2.050226">
        <ele>139.489482</ele>
        <time>2022-09-04T14:58:27.609Z</time>
      </trkpt>
      <trkpt lat="48.866871" lon="2.050226">
        <ele>139.489482</ele>
        <time>2022-09-04T14:58:27.697Z</time>
      </trkpt>
      <trkpt lat="48.866871" lon="2.050226">
        <ele>139.489482</ele>
        <time>2022-09-04T14:58:27.697Z</time>
      </trkpt>
      <trkpt lat="48.866800" lon="2.050206">
        <ele>139.556687</ele>
        <time>2022-09-04T14:58:30.787Z</time>
      </trkpt>
      <trkpt lat="48.866800" lon="2.050206">
        <ele>139.556687</ele>
        <time>2022-09-04T14:58:30.913Z</time>
      </trkpt>
      <trkpt lat="48.866800" lon="2.050206">
        <ele>139.556687</ele>
        <time>2022-09-04T14:58:30.913Z</time>
      </trkpt>
      <trkpt lat="48.866726" lon="2.050140">
        <ele>139.636538</ele>
        <time>2022-09-04T14:58:34.591Z</time>
      </trkpt>
      <trkpt lat="48.866700" lon="2.050338">
        <ele>139.760152</ele>
        <time>2022-09-04T14:58:37.014Z</time>
      </trkpt>
      <trkpt lat="48.866708" lon="2.050850">
        <ele>139.500451</ele>
        <time>2022-09-04T14:58:43.113Z</time>
      </trkpt>
      <trkpt lat="48.866752" lon="2.050934">
        <ele>139.372076</ele>
        <time>2022-09-04T14:58:44.365Z</time>
      </trkpt>
      <trkpt lat="48.866739" lon="2.051198">
        <ele>139.055569</ele>
        <time>2022-09-04T14:58:48.422Z</time>
      </trkpt>
      <trkpt lat="48.865861" lon="2.052589">
        <ele>136.750802</ele>
        <time>2022-09-04T14:59:22.841Z</time>
      </trkpt>
      <trkpt lat="48.865856" lon="2.052609">
        <ele>136.725222</ele>
        <time>2022-09-04T14:59:23.188Z</time>
      </trkpt>
      <trkpt lat="48.865754" lon="2.053027">
        <ele>136.141047</ele>
        <time>2022-09-04T14:59:30.878Z</time>
      </trkpt>
      <trkpt lat="48.865451" lon="2.053552">
        <ele>135.203960</ele>
        <time>2022-09-04T14:59:42.710Z</time>
      </trkpt>
      <trkpt lat="48.865396" lon="2.053625">
        <ele>135.055037</ele>
        <time>2022-09-04T14:59:44.551Z</time>
      </trkpt>
      <trkpt lat="48.865272" lon="2.053751">
        <ele>134.750821</ele>
        <time>2022-09-04T14:59:48.639Z</time>
      </trkpt>
      <trkpt lat="48.865118" lon="2.053975">
        <ele>134.316088</ele>
        <time>2022-09-04T14:59:54.226Z</time>
      </trkpt>
      <trkpt lat="48.864069" lon="2.054370">
        <ele>133.255516</ele>
        <time>2022-09-04T15:00:12.504Z</time>
      </trkpt>
      <trkpt lat="48.863784" lon="2.054377">
        <ele>133.475054</ele>
        <time>2022-09-04T15:00:18.606Z</time>
      </trkpt>
      <trkpt lat="48.863555" lon="2.054531">
        <ele>133.667921</ele>
        <time>2022-09-04T15:00:24.807Z</time>
      </trkpt>
      <trkpt lat="48.863439" lon="2.055075">
        <ele>133.957676</ele>
        <time>2022-09-04T15:00:39.828Z</time>
      </trkpt>
      <trkpt lat="48.863362" lon="2.055447">
        <ele>134.155273</ele>
        <time>2022-09-04T15:00:51.015Z</time>
      </trkpt>
      <trkpt lat="48.862417" lon="2.060030">
        <ele>138.940669</ele>
        <time>2022-09-04T15:02:57.972Z</time>
      </trkpt>
      <trkpt lat="48.861858" lon="2.062423">
        <ele>140.432828</ele>
        <time>2022-09-04T15:03:57.968Z</time>
      </trkpt>
      <trkpt lat="48.860766" lon="2.066986">
        <ele>142.694167</ele>
        <time>2022-09-04T15:05:43.146Z</time>
      </trkpt>
      <trkpt lat="48.860086" lon="2.068567">
        <ele>145.445332</ele>
        <time>2022-09-04T15:06:40.394Z</time>
      </trkpt>
      <trkpt lat="48.859471" lon="2.069998">
        <ele>150.464554</ele>
        <time>2022-09-04T15:07:41.898Z</time>
      </trkpt>
      <trkpt lat="48.859505" lon="2.070133">
        <ele>150.889035</ele>
        <time>2022-09-04T15:07:45.875Z</time>
      </trkpt>
      <trkpt lat="48.859349" lon="2.070157">
        <ele>151.588881</ele>
        <time>2022-09-04T15:07:54.035Z</time>
      </trkpt>
      <trkpt lat="48.859037" lon="2.070007">
        <ele>153.049459</ele>
        <time>2022-09-04T15:08:08.058Z</time>
      </trkpt>
      <trkpt lat="48.858828" lon="2.069854">
        <ele>154.263346</ele>
        <time>2022-09-04T15:08:16.879Z</time>
      </trkpt>
      <trkpt lat="48.858677" lon="2.069537">
        <ele>155.657522</ele>
        <time>2022-09-04T15:08:30.396Z</time>
      </trkpt>
      <trkpt lat="48.858674" lon="2.069111">
        <ele>157.175177</ele>
        <time>2022-09-04T15:08:44.159Z</time>
      </trkpt>
      <trkpt lat="48.858821" lon="2.068690">
        <ele>158.873056</ele>
        <time>2022-09-04T15:08:58.835Z</time>
      </trkpt>
      <trkpt lat="48.858976" lon="2.068464">
        <ele>160.036041</ele>
        <time>2022-09-04T15:09:07.765Z</time>
      </trkpt>
      <trkpt lat="48.859096" lon="2.068168">
        <ele>161.274608</ele>
        <time>2022-09-04T15:09:18.991Z</time>
      </trkpt>
      <trkpt lat="48.859162" lon="2.067741">
        <ele>162.837140</ele>
        <time>2022-09-04T15:09:32.066Z</time>
      </trkpt>
      <trkpt lat="48.859127" lon="2.067418">
        <ele>164.042523</ele>
        <time>2022-09-04T15:09:41.625Z</time>
      </trkpt>
      <trkpt lat="48.858700" lon="2.065720">
        <ele>170.768111</ele>
        <time>2022-09-04T15:10:39.848Z</time>
      </trkpt>
      <trkpt lat="48.858587" lon="2.065550">
        <ele>171.662215</ele>
        <time>2022-09-04T15:10:47.615Z</time>
      </trkpt>
      <trkpt lat="48.858401" lon="2.065270">
        <ele>173.129069</ele>
        <time>2022-09-04T15:10:59.945Z</time>
      </trkpt>
      <trkpt lat="48.857888" lon="2.064933">
        <ele>175.769608</ele>
        <time>2022-09-04T15:11:24.848Z</time>
      </trkpt>
      <trkpt lat="48.857695" lon="2.064535">
        <ele>177.306578</ele>
        <time>2022-09-04T15:11:38.219Z</time>
      </trkpt>
      <trkpt lat="48.857527" lon="2.064065">
        <ele>178.969330</ele>
        <time>2022-09-04T15:11:53.442Z</time>
      </trkpt>
      <trkpt lat="48.857362" lon="2.063809">
        <ele>180.083370</ele>
        <time>2022-09-04T15:12:03.497Z</time>
      </trkpt>
      <trkpt lat="48.857237" lon="2.063731">
        <ele>180.721811</ele>
        <time>2022-09-04T15:12:08.883Z</time>
      </trkpt>
      <trkpt lat="48.856543" lon="2.063299">
        <ele>183.162027</ele>
        <time>2022-09-04T15:12:38.609Z</time>
      </trkpt>
      <trkpt lat="48.856397" lon="2.063264">
        <ele>183.571388</ele>
        <time>2022-09-04T15:12:44.049Z</time>
      </trkpt>
      <trkpt lat="48.856307" lon="2.063277">
        <ele>183.821775</ele>
        <time>2022-09-04T15:12:46.678Z</time>
      </trkpt>
      <trkpt lat="48.856138" lon="2.063325">
        <ele>184.297940</ele>
        <time>2022-09-04T15:12:52.116Z</time>
      </trkpt>
      <trkpt lat="48.854908" lon="2.064222">
        <ele>187.032556</ele>
        <time>2022-09-04T15:13:30.743Z</time>
      </trkpt>
      <trkpt lat="48.854741" lon="2.064300">
        <ele>187.178687</ele>
        <time>2022-09-04T15:13:35.031Z</time>
      </trkpt>
      <trkpt lat="48.854707" lon="2.064316">
        <ele>187.208458</ele>
        <time>2022-09-04T15:13:35.785Z</time>
      </trkpt>
      <trkpt lat="48.854702" lon="2.064402">
        <ele>187.255972</ele>
        <time>2022-09-04T15:13:37.042Z</time>
      </trkpt>
      <trkpt lat="48.854826" lon="2.064475">
        <ele>187.367198</ele>
        <time>2022-09-04T15:13:41.498Z</time>
      </trkpt>
      <trkpt lat="48.854951" lon="2.065371">
        <ele>187.871269</ele>
        <time>2022-09-04T15:14:02.028Z</time>
      </trkpt>
      <trkpt lat="48.854939" lon="2.065634">
        <ele>188.016357</ele>
        <time>2022-09-04T15:14:07.680Z</time>
      </trkpt>
      <trkpt lat="48.855065" lon="2.066248">
        <ele>187.801454</ele>
        <time>2022-09-04T15:14:21.198Z</time>
      </trkpt>
      <trkpt lat="48.854972" lon="2.067614">
        <ele>187.048546</ele>
        <time>2022-09-04T15:14:48.186Z</time>
      </trkpt>
      <trkpt lat="48.854932" lon="2.067733">
        <ele>186.975284</ele>
        <time>2022-09-04T15:14:50.685Z</time>
      </trkpt>
      <trkpt lat="48.854925" lon="2.068345">
        <ele>186.639704</ele>
        <time>2022-09-04T15:15:01.911Z</time>
      </trkpt>
      <trkpt lat="48.854799" lon="2.069095">
        <ele>185.803793</ele>
        <time>2022-09-04T15:15:15.909Z</time>
      </trkpt>
      <trkpt lat="48.854833" lon="2.070201">
        <ele>184.523976</ele>
        <time>2022-09-04T15:15:35.955Z</time>
      </trkpt>
      <trkpt lat="48.854696" lon="2.070690">
        <ele>183.909634</ele>
        <time>2022-09-04T15:15:45.686Z</time>
      </trkpt>
      <trkpt lat="48.854748" lon="2.071064">
        <ele>183.467781</ele>
        <time>2022-09-04T15:15:52.774Z</time>
      </trkpt>
      <trkpt lat="48.854813" lon="2.071077">
        <ele>183.352726</ele>
        <time>2022-09-04T15:15:54.635Z</time>
      </trkpt>
      <trkpt lat="48.854819" lon="2.071274">
        <ele>183.125135</ele>
        <time>2022-09-04T15:15:58.308Z</time>
      </trkpt>
      <trkpt lat="48.854885" lon="2.071364">
        <ele>182.969609</ele>
        <time>2022-09-04T15:16:00.867Z</time>
      </trkpt>
      <trkpt lat="48.854934" lon="2.071579">
        <ele>182.707026</ele>
        <time>2022-09-04T15:16:05.156Z</time>
      </trkpt>
      <trkpt lat="48.854898" lon="2.072014">
        <ele>182.201060</ele>
        <time>2022-09-04T15:16:13.558Z</time>
      </trkpt>
      <trkpt lat="48.854939" lon="2.072291">
        <ele>181.873400</ele>
        <time>2022-09-04T15:16:18.945Z</time>
      </trkpt>
      <trkpt lat="48.854916" lon="2.072518">
        <ele>181.608344</ele>
        <time>2022-09-04T15:16:23.254Z</time>
      </trkpt>
      <trkpt lat="48.854859" lon="2.072594">
        <ele>181.475349</ele>
        <time>2022-09-04T15:16:25.431Z</time>
      </trkpt>
      <trkpt lat="48.854894" lon="2.073076">
        <ele>180.915721</ele>
        <time>2022-09-04T15:16:34.208Z</time>
      </trkpt>
      <trkpt lat="48.855118" lon="2.073551">
        <ele>180.229530</ele>
        <time>2022-09-04T15:16:44.471Z</time>
      </trkpt>
      <trkpt lat="48.855527" lon="2.073860">
        <ele>179.122426</ele>
        <time>2022-09-04T15:16:56.478Z</time>
      </trkpt>
      <trkpt lat="48.855946" lon="2.074080">
        <ele>178.047914</ele>
        <time>2022-09-04T15:17:08.196Z</time>
      </trkpt>
      <trkpt lat="48.856611" lon="2.074428">
        <ele>176.343151</ele>
        <time>2022-09-04T15:17:27.021Z</time>
      </trkpt>
      <trkpt lat="48.856083" lon="2.076672">
        <ele>172.317130</ele>
        <time>2022-09-04T15:18:10.008Z</time>
      </trkpt>
      <trkpt lat="48.856377" lon="2.077648">
        <ele>169.757046</ele>
        <time>2022-09-04T15:18:27.706Z</time>
      </trkpt>
      <trkpt lat="48.856647" lon="2.078358">
        <ele>167.032876</ele>
        <time>2022-09-04T15:18:40.775Z</time>
      </trkpt>
      <trkpt lat="48.856802" lon="2.078875">
        <ele>165.145560</ele>
        <time>2022-09-04T15:18:49.616Z</time>
      </trkpt>
      <trkpt lat="48.856997" lon="2.079322">
        <ele>163.363936</ele>
        <time>2022-09-04T15:18:57.903Z</time>
      </trkpt>
      <trkpt lat="48.857040" lon="2.079422">
        <ele>162.967096</ele>
        <time>2022-09-04T15:18:59.651Z</time>
      </trkpt>
      <trkpt lat="48.857219" lon="2.079750">
        <ele>161.809578</ele>
        <time>2022-09-04T15:19:06.315Z</time>
      </trkpt>
      <trkpt lat="48.857585" lon="2.080268">
        <ele>160.321502</ele>
        <time>2022-09-04T15:19:18.134Z</time>
      </trkpt>
      <trkpt lat="48.857781" lon="2.080144">
        <ele>159.689796</ele>
        <time>2022-09-04T15:19:23.315Z</time>
      </trkpt>
      <trkpt lat="48.858361" lon="2.079803">
        <ele>157.839387</ele>
        <time>2022-09-04T15:19:39.464Z</time>
      </trkpt>
      <trkpt lat="48.858622" lon="2.079867">
        <ele>157.052737</ele>
        <time>2022-09-04T15:19:48.214Z</time>
      </trkpt>
      <trkpt lat="48.859845" lon="2.080286">
        <ele>161.206829</ele>
        <time>2022-09-04T15:20:47.107Z</time>
      </trkpt>
      <trkpt lat="48.859907" lon="2.080580">
        <ele>161.961723</ele>
        <time>2022-09-04T15:20:58.368Z</time>
      </trkpt>
      <trkpt lat="48.859685" lon="2.080854">
        <ele>163.024549</ele>
        <time>2022-09-04T15:21:16.965Z</time>
      </trkpt>
      <trkpt lat="48.859563" lon="2.081776">
        <ele>166.296571</ele>
        <time>2022-09-04T15:21:57.715Z</time>
      </trkpt>
      <trkpt lat="48.859580" lon="2.082022">
        <ele>167.226100</ele>
        <time>2022-09-04T15:22:07.979Z</time>
      </trkpt>
      <trkpt lat="48.859586" lon="2.082109">
        <ele>167.554829</ele>
        <time>2022-09-04T15:22:11.878Z</time>
      </trkpt>
      <trkpt lat="48.859798" lon="2.082431">
        <ele>169.266710</ele>
        <time>2022-09-04T15:22:31.774Z</time>
      </trkpt>
      <trkpt lat="48.860101" lon="2.083127">
        <ele>172.402962</ele>
        <time>2022-09-04T15:23:04.937Z</time>
      </trkpt>
      <trkpt lat="48.860140" lon="2.083214">
        <ele>172.798575</ele>
        <time>2022-09-04T15:23:08.256Z</time>
      </trkpt>
      <trkpt lat="48.860262" lon="2.083258">
        <ele>173.514775</ele>
        <time>2022-09-04T15:23:14.160Z</time>
      </trkpt>
      <trkpt lat="48.860382" lon="2.083302">
        <ele>173.937280</ele>
        <time>2022-09-04T15:23:20.667Z</time>
      </trkpt>
      <trkpt lat="48.860748" lon="2.083433">
        <ele>174.684564</ele>
        <time>2022-09-04T15:23:38.573Z</time>
      </trkpt>
      <trkpt lat="48.860888" lon="2.083349">
        <ele>174.983693</ele>
        <time>2022-09-04T15:23:45.096Z</time>
      </trkpt>
      <trkpt lat="48.861086" lon="2.083440">
        <ele>175.394794</ele>
        <time>2022-09-04T15:23:54.701Z</time>
      </trkpt>
      <trkpt lat="48.861381" lon="2.083581">
        <ele>176.009380</ele>
        <time>2022-09-04T15:24:07.404Z</time>
      </trkpt>
      <trkpt lat="48.861551" lon="2.083795">
        <ele>176.448056</ele>
        <time>2022-09-04T15:24:15.248Z</time>
      </trkpt>
      <trkpt lat="48.861599" lon="2.083994">
        <ele>176.725180</ele>
        <time>2022-09-04T15:24:19.848Z</time>
      </trkpt>
      <trkpt lat="48.861933" lon="2.085226">
        <ele>177.278448</ele>
        <time>2022-09-04T15:24:49.131Z</time>
      </trkpt>
      <trkpt lat="48.862512" lon="2.087323">
        <ele>176.736637</ele>
        <time>2022-09-04T15:25:16.427Z</time>
      </trkpt>
      <trkpt lat="48.862527" lon="2.087386">
        <ele>176.674660</ele>
        <time>2022-09-04T15:25:17.195Z</time>
      </trkpt>
      <trkpt lat="48.862566" lon="2.087640">
        <ele>176.433384</ele>
        <time>2022-09-04T15:25:20.290Z</time>
      </trkpt>
      <trkpt lat="48.862493" lon="2.088068">
        <ele>176.024376</ele>
        <time>2022-09-04T15:25:25.074Z</time>
      </trkpt>
      <trkpt lat="48.862069" lon="2.089026">
        <ele>174.956297</ele>
        <time>2022-09-04T15:25:37.085Z</time>
      </trkpt>
      <trkpt lat="48.861660" lon="2.089947">
        <ele>173.999254</ele>
        <time>2022-09-04T15:25:48.214Z</time>
      </trkpt>
      <trkpt lat="48.861137" lon="2.091209">
        <ele>172.773135</ele>
        <time>2022-09-04T15:26:15.581Z</time>
      </trkpt>
      <trkpt lat="48.860946" lon="2.091652">
        <ele>172.337722</ele>
        <time>2022-09-04T15:26:26.674Z</time>
      </trkpt>
      <trkpt lat="48.860596" lon="2.092465">
        <ele>172.729881</ele>
        <time>2022-09-04T15:26:50.673Z</time>
      </trkpt>
      <trkpt lat="48.859318" lon="2.092873">
        <ele>173.524814</ele>
        <time>2022-09-04T15:27:37.085Z</time>
      </trkpt>
      <trkpt lat="48.859179" lon="2.092836">
        <ele>173.542498</ele>
        <time>2022-09-04T15:27:41.660Z</time>
      </trkpt>
      <trkpt lat="48.859013" lon="2.092915">
        <ele>173.564297</ele>
        <time>2022-09-04T15:27:47.946Z</time>
      </trkpt>
      <trkpt lat="48.858933" lon="2.093072">
        <ele>173.580669</ele>
        <time>2022-09-04T15:27:52.652Z</time>
      </trkpt>
      <trkpt lat="48.858823" lon="2.093145">
        <ele>173.595711</ele>
        <time>2022-09-04T15:27:56.787Z</time>
      </trkpt>
      <trkpt lat="48.858649" lon="2.093088">
        <ele>173.618017</ele>
        <time>2022-09-04T15:28:02.847Z</time>
      </trkpt>
      <trkpt lat="48.858523" lon="2.093128">
        <ele>173.634148</ele>
        <time>2022-09-04T15:28:06.904Z</time>
      </trkpt>
      <trkpt lat="48.858113" lon="2.094056">
        <ele>173.726312</ele>
        <time>2022-09-04T15:28:29.262Z</time>
      </trkpt>
      <trkpt lat="48.857913" lon="2.094469">
        <ele>173.316401</ele>
        <time>2022-09-04T15:28:39.413Z</time>
      </trkpt>
      <trkpt lat="48.857611" lon="2.095232">
        <ele>172.432754</ele>
        <time>2022-09-04T15:28:58.475Z</time>
      </trkpt>
      <trkpt lat="48.857449" lon="2.095643">
        <ele>171.957289</ele>
        <time>2022-09-04T15:29:06.667Z</time>
      </trkpt>
      <trkpt lat="48.856699" lon="2.095906">
        <ele>170.410098</ele>
        <time>2022-09-04T15:29:22.742Z</time>
      </trkpt>
      <trkpt lat="48.856473" lon="2.096051">
        <ele>169.403886</ele>
        <time>2022-09-04T15:29:27.372Z</time>
      </trkpt>
      <trkpt lat="48.856509" lon="2.096271">
        <ele>168.792074</ele>
        <time>2022-09-04T15:29:37.732Z</time>
      </trkpt>
      <trkpt lat="48.856518" lon="2.096325">
        <ele>168.641738</ele>
        <time>2022-09-04T15:29:40.272Z</time>
      </trkpt>
      <trkpt lat="48.856520" lon="2.096342">
        <ele>168.595132</ele>
        <time>2022-09-04T15:29:41.071Z</time>
      </trkpt>
      <trkpt lat="48.856518" lon="2.096325">
        <ele>168.548525</ele>
        <time>2022-09-04T15:29:41.870Z</time>
      </trkpt>
      <trkpt lat="48.856597" lon="2.096365">
        <ele>168.206977</ele>
        <time>2022-09-04T15:29:47.676Z</time>
      </trkpt>
      <trkpt lat="48.858618" lon="2.097416">
        <ele>158.600377</ele>
        <time>2022-09-04T15:32:16.251Z</time>
      </trkpt>
      <trkpt lat="48.858900" lon="2.097563">
        <ele>157.131359</ele>
        <time>2022-09-04T15:32:36.996Z</time>
      </trkpt>
      <trkpt lat="48.859061" lon="2.097798">
        <ele>156.031453</ele>
        <time>2022-09-04T15:32:52.541Z</time>
      </trkpt>
      <trkpt lat="48.859194" lon="2.097861">
        <ele>155.345001</ele>
        <time>2022-09-04T15:33:02.239Z</time>
      </trkpt>
      <trkpt lat="48.859418" lon="2.097966">
        <ele>154.460204</ele>
        <time>2022-09-04T15:33:18.534Z</time>
      </trkpt>
      <trkpt lat="48.859501" lon="2.098302">
        <ele>153.829255</ele>
        <time>2022-09-04T15:33:34.998Z</time>
      </trkpt>
      <trkpt lat="48.859685" lon="2.098549">
        <ele>153.173295</ele>
        <time>2022-09-04T15:33:52.072Z</time>
      </trkpt>
      <trkpt lat="48.859665" lon="2.098654">
        <ele>152.981126</ele>
        <time>2022-09-04T15:33:57.083Z</time>
      </trkpt>
      <trkpt lat="48.859769" lon="2.098975">
        <ele>152.352098</ele>
        <time>2022-09-04T15:34:13.464Z</time>
      </trkpt>
      <trkpt lat="48.859895" lon="2.099361">
        <ele>151.594585</ele>
        <time>2022-09-04T15:34:33.164Z</time>
      </trkpt>
      <trkpt lat="48.860447" lon="2.099674">
        <ele>150.020299</ele>
        <time>2022-09-04T15:35:14.119Z</time>
      </trkpt>
      <trkpt lat="48.859330" lon="2.104668">
        <ele>167.317320</ele>
        <time>2022-09-04T15:38:02.765Z</time>
      </trkpt>
      <trkpt lat="48.859220" lon="2.105147">
        <ele>168.132216</ele>
        <time>2022-09-04T15:38:14.635Z</time>
      </trkpt>
      <trkpt lat="48.859143" lon="2.105498">
        <ele>168.225841</ele>
        <time>2022-09-04T15:38:22.351Z</time>
      </trkpt>
      <trkpt lat="48.859117" lon="2.105617">
        <ele>168.257571</ele>
        <time>2022-09-04T15:38:24.559Z</time>
      </trkpt>
      <trkpt lat="48.859101" lon="2.105662">
        <ele>168.270514</ele>
        <time>2022-09-04T15:38:25.679Z</time>
      </trkpt>
      <trkpt lat="48.858998" lon="2.106129">
        <ele>168.395149</ele>
        <time>2022-09-04T15:38:35.349Z</time>
      </trkpt>
      <trkpt lat="48.858992" lon="2.106151">
        <ele>168.401175</ele>
        <time>2022-09-04T15:38:35.783Z</time>
      </trkpt>
      <trkpt lat="48.858969" lon="2.106307">
        <ele>168.441629</ele>
        <time>2022-09-04T15:38:38.359Z</time>
      </trkpt>
      <trkpt lat="48.858819" lon="2.106389">
        <ele>168.502940</ele>
        <time>2022-09-04T15:38:41.909Z</time>
      </trkpt>
      <trkpt lat="48.858801" lon="2.106495">
        <ele>168.530641</ele>
        <time>2022-09-04T15:38:43.132Z</time>
      </trkpt>
      <trkpt lat="48.858843" lon="2.106632">
        <ele>168.568887</ele>
        <time>2022-09-04T15:38:44.818Z</time>
      </trkpt>
      <trkpt lat="48.858898" lon="2.106676">
        <ele>168.592793</ele>
        <time>2022-09-04T15:38:45.769Z</time>
      </trkpt>
      <trkpt lat="48.858860" lon="2.106817">
        <ele>168.631349</ele>
        <time>2022-09-04T15:38:47.543Z</time>
      </trkpt>
      <trkpt lat="48.858813" lon="2.107160">
        <ele>168.720006</ele>
        <time>2022-09-04T15:38:51.338Z</time>
      </trkpt>
      <trkpt lat="48.858838" lon="2.107318">
        <ele>168.663676</ele>
        <time>2022-09-04T15:38:53.173Z</time>
      </trkpt>
      <trkpt lat="48.859074" lon="2.107692">
        <ele>167.519094</ele>
        <time>2022-09-04T15:38:58.784Z</time>
      </trkpt>
      <trkpt lat="48.859054" lon="2.107981">
        <ele>166.877261</ele>
        <time>2022-09-04T15:39:01.886Z</time>
      </trkpt>
      <trkpt lat="48.858828" lon="2.108520">
        <ele>165.465560</ele>
        <time>2022-09-04T15:39:08.832Z</time>
      </trkpt>
      <trkpt lat="48.858771" lon="2.109009">
        <ele>164.368684</ele>
        <time>2022-09-04T15:39:13.928Z</time>
      </trkpt>
      <trkpt lat="48.858683" lon="2.109351">
        <ele>163.557591</ele>
        <time>2022-09-04T15:39:17.766Z</time>
      </trkpt>
      <trkpt lat="48.858581" lon="2.109494">
        <ele>163.091744</ele>
        <time>2022-09-04T15:39:20.050Z</time>
      </trkpt>
      <trkpt lat="48.858266" lon="2.109940">
        <ele>161.319791</ele>
        <time>2022-09-04T15:39:26.884Z</time>
      </trkpt>
      <trkpt lat="48.858148" lon="2.110336">
        <ele>160.065412</ele>
        <time>2022-09-04T15:39:31.310Z</time>
      </trkpt>
      <trkpt lat="48.858139" lon="2.110616">
        <ele>159.256515</ele>
        <time>2022-09-04T15:39:34.091Z</time>
      </trkpt>
      <trkpt lat="48.858114" lon="2.110805">
        <ele>158.700246</ele>
        <time>2022-09-04T15:39:36.043Z</time>
      </trkpt>
      <trkpt lat="48.857817" lon="2.111080">
        <ele>157.175019</ele>
        <time>2022-09-04T15:39:41.245Z</time>
      </trkpt>
      <trkpt lat="48.857774" lon="2.111279">
        <ele>156.570630</ele>
        <time>2022-09-04T15:39:43.322Z</time>
      </trkpt>
      <trkpt lat="48.857791" lon="2.111782">
        <ele>155.117310</ele>
        <time>2022-09-04T15:39:48.093Z</time>
      </trkpt>
      <trkpt lat="48.857874" lon="2.112220">
        <ele>153.854094</ele>
        <time>2022-09-04T15:39:52.261Z</time>
      </trkpt>
      <trkpt lat="48.857897" lon="2.112748">
        <ele>152.404887</ele>
        <time>2022-09-04T15:39:57.061Z</time>
      </trkpt>
      <trkpt lat="48.857844" lon="2.113400">
        <ele>150.605668</ele>
        <time>2022-09-04T15:40:03.169Z</time>
      </trkpt>
      <trkpt lat="48.857875" lon="2.113559">
        <ele>150.151495</ele>
        <time>2022-09-04T15:40:05.728Z</time>
      </trkpt>
      <trkpt lat="48.857927" lon="2.114076">
        <ele>148.719130</ele>
        <time>2022-09-04T15:40:14.271Z</time>
      </trkpt>
      <trkpt lat="48.857805" lon="2.114701">
        <ele>147.513353</ele>
        <time>2022-09-04T15:40:25.924Z</time>
      </trkpt>
      <trkpt lat="48.857625" lon="2.115056">
        <ele>148.048208</ele>
        <time>2022-09-04T15:40:34.983Z</time>
      </trkpt>
      <trkpt lat="48.857530" lon="2.115643">
        <ele>148.769599</ele>
        <time>2022-09-04T15:40:48.969Z</time>
      </trkpt>
      <trkpt lat="48.857518" lon="2.115837">
        <ele>149.002134</ele>
        <time>2022-09-04T15:40:53.949Z</time>
      </trkpt>
      <trkpt lat="48.857272" lon="2.116779">
        <ele>150.211609</ele>
        <time>2022-09-04T15:41:26.556Z</time>
      </trkpt>
      <trkpt lat="48.857257" lon="2.117009">
        <ele>150.487432</ele>
        <time>2022-09-04T15:41:34.583Z</time>
      </trkpt>
      <trkpt lat="48.857147" lon="2.117223">
        <ele>151.088004</ele>
        <time>2022-09-04T15:41:45.133Z</time>
      </trkpt>
      <trkpt lat="48.856928" lon="2.117460">
        <ele>152.212587</ele>
        <time>2022-09-04T15:42:01.552Z</time>
      </trkpt>
      <trkpt lat="48.856808" lon="2.117916">
        <ele>153.564262</ele>
        <time>2022-09-04T15:42:22.187Z</time>
      </trkpt>
      <trkpt lat="48.856701" lon="2.118164">
        <ele>154.380481</ele>
        <time>2022-09-04T15:42:34.980Z</time>
      </trkpt>
      <trkpt lat="48.856857" lon="2.118914">
        <ele>156.545341</ele>
        <time>2022-09-04T15:43:02.261Z</time>
      </trkpt>
      <trkpt lat="48.856864" lon="2.119731">
        <ele>157.888955</ele>
        <time>2022-09-04T15:43:25.517Z</time>
      </trkpt>
      <trkpt lat="48.856666" lon="2.120970">
        <ele>156.660249</ele>
        <time>2022-09-04T15:43:50.303Z</time>
      </trkpt>
      <trkpt lat="48.856500" lon="2.121496">
        <ele>156.098060</ele>
        <time>2022-09-04T15:44:00.423Z</time>
      </trkpt>
      <trkpt lat="48.856371" lon="2.121695">
        <ele>155.828846</ele>
        <time>2022-09-04T15:44:05.081Z</time>
      </trkpt>
      <trkpt lat="48.856012" lon="2.122133">
        <ele>154.517093</ele>
        <time>2022-09-04T15:44:16.345Z</time>
      </trkpt>
      <trkpt lat="48.854339" lon="2.124011">
        <ele>146.785050</ele>
        <time>2022-09-04T15:45:07.492Z</time>
      </trkpt>
      <trkpt lat="48.853674" lon="2.124728">
        <ele>145.102069</ele>
        <time>2022-09-04T15:45:30.036Z</time>
      </trkpt>
      <trkpt lat="48.853467" lon="2.124970">
        <ele>144.563005</ele>
        <time>2022-09-04T15:45:39.050Z</time>
      </trkpt>
      <trkpt lat="48.853626" lon="2.125515">
        <ele>144.153637</ele>
        <time>2022-09-04T15:45:50.818Z</time>
      </trkpt>
      <trkpt lat="48.853643" lon="2.126117">
        <ele>144.217754</ele>
        <time>2022-09-04T15:46:04.555Z</time>
      </trkpt>
      <trkpt lat="48.853167" lon="2.126695">
        <ele>144.316286</ele>
        <time>2022-09-04T15:46:27.325Z</time>
      </trkpt>
      <trkpt lat="48.853150" lon="2.127158">
        <ele>144.365631</ele>
        <time>2022-09-04T15:46:36.888Z</time>
      </trkpt>
      <trkpt lat="48.853153" lon="2.127236">
        <ele>144.373945</ele>
        <time>2022-09-04T15:46:38.472Z</time>
      </trkpt>
      <trkpt lat="48.852509" lon="2.127050">
        <ele>143.258838</ele>
        <time>2022-09-04T15:46:58.548Z</time>
      </trkpt>
      <trkpt lat="48.852256" lon="2.127142">
        <ele>142.504798</ele>
        <time>2022-09-04T15:47:05.926Z</time>
      </trkpt>
      <trkpt lat="48.851987" lon="2.127125">
        <ele>141.724406</ele>
        <time>2022-09-04T15:47:13.078Z</time>
      </trkpt>
      <trkpt lat="48.851748" lon="2.126963">
        <ele>140.965865</ele>
        <time>2022-09-04T15:47:19.760Z</time>
      </trkpt>
      <trkpt lat="48.851648" lon="2.127079">
        <ele>140.601218</ele>
        <time>2022-09-04T15:47:22.903Z</time>
      </trkpt>
      <trkpt lat="48.851529" lon="2.127220">
        <ele>140.163840</ele>
        <time>2022-09-04T15:47:26.764Z</time>
      </trkpt>
      <trkpt lat="48.851208" lon="2.126959">
        <ele>138.956825</ele>
        <time>2022-09-04T15:47:31.633Z</time>
      </trkpt>
      <trkpt lat="48.850967" lon="2.128231">
        <ele>132.326282</ele>
        <time>2022-09-04T15:47:43.320Z</time>
      </trkpt>
      <trkpt lat="48.850800" lon="2.128772">
        <ele>129.332928</ele>
        <time>2022-09-04T15:47:48.449Z</time>
      </trkpt>
      <trkpt lat="48.850453" lon="2.129520">
        <ele>124.743123</ele>
        <time>2022-09-04T15:47:56.178Z</time>
      </trkpt>
      <trkpt lat="48.850282" lon="2.129650">
        <ele>123.277315</ele>
        <time>2022-09-04T15:47:58.623Z</time>
      </trkpt>
      <trkpt lat="48.850086" lon="2.129621">
        <ele>121.767629</ele>
        <time>2022-09-04T15:48:01.150Z</time>
      </trkpt>
      <trkpt lat="48.849910" lon="2.130565">
        <ele>116.818045</ele>
        <time>2022-09-04T15:48:09.625Z</time>
      </trkpt>
      <trkpt lat="48.849939" lon="2.130825">
        <ele>115.487731</ele>
        <time>2022-09-04T15:48:11.917Z</time>
      </trkpt>
      <trkpt lat="48.849971" lon="2.130919">
        <ele>114.953837</ele>
        <time>2022-09-04T15:48:12.875Z</time>
      </trkpt>
      <trkpt lat="48.849978" lon="2.131067">
        <ele>114.205305</ele>
        <time>2022-09-04T15:48:14.122Z</time>
      </trkpt>
      <trkpt lat="48.849966" lon="2.131202">
        <ele>113.518094</ele>
        <time>2022-09-04T15:48:15.247Z</time>
      </trkpt>
      <trkpt lat="48.849955" lon="2.131383">
        <ele>112.601130</ele>
        <time>2022-09-04T15:48:16.793Z</time>
      </trkpt>
      <trkpt lat="48.849307" lon="2.132295">
        <ele>109.851848</ele>
        <time>2022-09-04T15:48:28.695Z</time>
      </trkpt>
      <trkpt lat="48.848890" lon="2.132681">
        <ele>108.664172</ele>
        <time>2022-09-04T15:48:35.871Z</time>
      </trkpt>
      <trkpt lat="48.848843" lon="2.132669">
        <ele>108.548246</ele>
        <time>2022-09-04T15:48:36.758Z</time>
      </trkpt>
      <trkpt lat="48.848827" lon="2.132762">
        <ele>108.394383</ele>
        <time>2022-09-04T15:48:37.910Z</time>
      </trkpt>
      <trkpt lat="48.848761" lon="2.132826">
        <ele>108.203944</ele>
        <time>2022-09-04T15:48:39.472Z</time>
      </trkpt>
      <trkpt lat="48.848428" lon="2.133281">
        <ele>107.653293</ele>
        <time>2022-09-04T15:48:51.071Z</time>
      </trkpt>
      <trkpt lat="48.848354" lon="2.133260">
        <ele>107.896824</ele>
        <time>2022-09-04T15:48:53.481Z</time>
      </trkpt>
      <trkpt lat="48.848346" lon="2.133262">
        <ele>107.923053</ele>
        <time>2022-09-04T15:48:53.834Z</time>
      </trkpt>
      <trkpt lat="48.848320" lon="2.133282">
        <ele>108.017326</ele>
        <time>2022-09-04T15:48:55.174Z</time>
      </trkpt>
      <trkpt lat="48.848301" lon="2.133314">
        <ele>108.109080</ele>
        <time>2022-09-04T15:48:56.467Z</time>
      </trkpt>
      <trkpt lat="48.848289" lon="2.133354">
        <ele>108.202665</ele>
        <time>2022-09-04T15:48:57.580Z</time>
      </trkpt>
      <trkpt lat="48.848288" lon="2.133371">
        <ele>108.238999</ele>
        <time>2022-09-04T15:48:58.008Z</time>
      </trkpt>
      <trkpt lat="48.848307" lon="2.133477">
        <ele>108.472878</ele>
        <time>2022-09-04T15:49:00.422Z</time>
      </trkpt>
      <trkpt lat="48.848177" lon="2.133626">
        <ele>108.999643</ele>
        <time>2022-09-04T15:49:06.101Z</time>
      </trkpt>
      <trkpt lat="48.848131" lon="2.133679">
        <ele>109.186392</ele>
        <time>2022-09-04T15:49:08.373Z</time>
      </trkpt>
      <trkpt lat="48.847951" lon="2.133934">
        <ele>109.982493</ele>
        <time>2022-09-04T15:49:25.476Z</time>
      </trkpt>
      <trkpt lat="48.847866" lon="2.133962">
        <ele>110.263858</ele>
        <time>2022-09-04T15:49:31.503Z</time>
      </trkpt>
      <trkpt lat="48.847845" lon="2.133969">
        <ele>110.333409</ele>
        <time>2022-09-04T15:49:33.012Z</time>
      </trkpt>
      <trkpt lat="48.847647" lon="2.133669">
        <ele>111.237939</ele>
        <time>2022-09-04T15:49:52.455Z</time>
      </trkpt>
      <trkpt lat="48.847384" lon="2.133257">
        <ele>112.459898</ele>
        <time>2022-09-04T15:50:18.703Z</time>
      </trkpt>
      <trkpt lat="48.847324" lon="2.133336">
        <ele>112.716727</ele>
        <time>2022-09-04T15:50:24.239Z</time>
      </trkpt>
      <trkpt lat="48.847058" lon="2.133395">
        <ele>113.517087</ele>
        <time>2022-09-04T15:50:42.966Z</time>
      </trkpt>
      <trkpt lat="48.846915" lon="2.133583">
        <ele>114.028336</ele>
        <time>2022-09-04T15:50:56.112Z</time>
      </trkpt>
      <trkpt lat="48.846867" lon="2.133863">
        <ele>114.543153</ele>
        <time>2022-09-04T15:51:09.348Z</time>
      </trkpt>
      <trkpt lat="48.846768" lon="2.133744">
        <ele>114.884440</ele>
        <time>2022-09-04T15:51:18.107Z</time>
      </trkpt>
      <trkpt lat="48.846719" lon="2.133583">
        <ele>115.200053</ele>
        <time>2022-09-04T15:51:26.230Z</time>
      </trkpt>
      <trkpt lat="48.846683" lon="2.133580">
        <ele>115.297534</ele>
        <time>2022-09-04T15:51:28.687Z</time>
      </trkpt>
      <trkpt lat="48.846591" lon="2.133790">
        <ele>115.746403</ele>
        <time>2022-09-04T15:51:40.249Z</time>
      </trkpt>
      <trkpt lat="48.846565" lon="2.133848">
        <ele>115.871268</ele>
        <time>2022-09-04T15:51:43.463Z</time>
      </trkpt>
      <trkpt lat="48.846371" lon="2.133765">
        <ele>116.416185</ele>
        <time>2022-09-04T15:51:57.494Z</time>
      </trkpt>
      <trkpt lat="48.846281" lon="2.133891">
        <ele>116.747052</ele>
        <time>2022-09-04T15:52:05.995Z</time>
      </trkpt>
      <trkpt lat="48.846122" lon="2.133856">
        <ele>117.181432</ele>
        <time>2022-09-04T15:52:17.147Z</time>
      </trkpt>
      <trkpt lat="48.846010" lon="2.134318">
        <ele>118.066127</ele>
        <time>2022-09-04T15:52:39.669Z</time>
      </trkpt>
      <trkpt lat="48.846285" lon="2.134395">
        <ele>119.041394</ele>
        <time>2022-09-04T15:52:46.257Z</time>
      </trkpt>
      <trkpt lat="48.846276" lon="2.134501">
        <ele>119.286702</ele>
        <time>2022-09-04T15:52:48.499Z</time>
      </trkpt>
      <trkpt lat="48.846263" lon="2.134658">
        <ele>119.649889</ele>
        <time>2022-09-04T15:52:51.424Z</time>
      </trkpt>
      <trkpt lat="48.846259" lon="2.134708">
        <ele>119.765494</ele>
        <time>2022-09-04T15:52:52.346Z</time>
      </trkpt>
      <trkpt lat="48.846215" lon="2.134856">
        <ele>120.138239</ele>
        <time>2022-09-04T15:52:55.321Z</time>
      </trkpt>
      <trkpt lat="48.846256" lon="2.134942">
        <ele>120.381980</ele>
        <time>2022-09-04T15:52:57.744Z</time>
      </trkpt>
      <trkpt lat="48.846232" lon="2.135023">
        <ele>120.585866</ele>
        <time>2022-09-04T15:53:01.402Z</time>
      </trkpt>
      <trkpt lat="48.846429" lon="2.135205">
        <ele>121.389963</ele>
        <time>2022-09-04T15:53:08.857Z</time>
      </trkpt>
      <trkpt lat="48.846760" lon="2.135500">
        <ele>122.728302</ele>
        <time>2022-09-04T15:53:22.814Z</time>
      </trkpt>
      <trkpt lat="48.847123" lon="2.135824">
        <ele>124.196582</ele>
        <time>2022-09-04T15:53:40.589Z</time>
      </trkpt>
      <trkpt lat="48.847403" lon="2.136096">
        <ele>126.776180</ele>
        <time>2022-09-04T15:53:57.804Z</time>
      </trkpt>
      <trkpt lat="48.847430" lon="2.136256">
        <ele>127.665795</ele>
        <time>2022-09-04T15:54:07.134Z</time>
      </trkpt>
      <trkpt lat="48.848094" lon="2.136858">
        <ele>133.993893</ele>
        <time>2022-09-04T15:55:03.982Z</time>
      </trkpt>
      <trkpt lat="48.848548" lon="2.137381">
        <ele>138.656546</ele>
        <time>2022-09-04T15:55:49.664Z</time>
      </trkpt>
      <trkpt lat="48.848650" lon="2.137534">
        <ele>139.831889</ele>
        <time>2022-09-04T15:56:02.159Z</time>
      </trkpt>
      <trkpt lat="48.848478" lon="2.138174">
        <ele>143.565988</ele>
        <time>2022-09-04T15:56:35.937Z</time>
      </trkpt>
      <trkpt lat="48.848608" lon="2.138574">
        <ele>145.975701</ele>
        <time>2022-09-04T15:56:58.006Z</time>
      </trkpt>
      <trkpt lat="48.848615" lon="2.138729">
        <ele>146.814892</ele>
        <time>2022-09-04T15:57:06.209Z</time>
      </trkpt>
      <trkpt lat="48.848483" lon="2.139327">
        <ele>150.221829</ele>
        <time>2022-09-04T15:57:37.566Z</time>
      </trkpt>
      <trkpt lat="48.848546" lon="2.139696">
        <ele>152.280950</ele>
        <time>2022-09-04T15:57:54.365Z</time>
      </trkpt>
      <trkpt lat="48.848671" lon="2.140118">
        <ele>154.299605</ele>
        <time>2022-09-04T15:58:13.975Z</time>
      </trkpt>
      <trkpt lat="48.848719" lon="2.140541">
        <ele>155.497871</ele>
        <time>2022-09-04T15:58:30.042Z</time>
      </trkpt>
      <trkpt lat="48.848826" lon="2.140754">
        <ele>156.245931</ele>
        <time>2022-09-04T15:58:40.723Z</time>
      </trkpt>
      <trkpt lat="48.849062" lon="2.141351">
        <ele>158.190090</ele>
        <time>2022-09-04T15:59:05.168Z</time>
      </trkpt>
      <trkpt lat="48.849051" lon="2.141477">
        <ele>158.544908</ele>
        <time>2022-09-04T15:59:08.824Z</time>
      </trkpt>
      <trkpt lat="48.849136" lon="2.141768">
        <ele>159.433685</ele>
        <time>2022-09-04T15:59:19.915Z</time>
      </trkpt>
      <trkpt lat="48.849117" lon="2.142196">
        <ele>160.631185</ele>
        <time>2022-09-04T15:59:32.911Z</time>
      </trkpt>
      <trkpt lat="48.849340" lon="2.142253">
        <ele>161.453557</ele>
        <time>2022-09-04T15:59:39.164Z</time>
      </trkpt>
      <trkpt lat="48.849189" lon="2.142511">
        <ele>161.664117</ele>
        <time>2022-09-04T15:59:46.494Z</time>
      </trkpt>
      <trkpt lat="48.849095" lon="2.142856">
        <ele>161.891828</ele>
        <time>2022-09-04T15:59:52.648Z</time>
      </trkpt>
      <trkpt lat="48.849103" lon="2.143272">
        <ele>162.145623</ele>
        <time>2022-09-04T15:59:58.889Z</time>
      </trkpt>
      <trkpt lat="48.849187" lon="2.143724">
        <ele>162.432045</ele>
        <time>2022-09-04T16:00:05.699Z</time>
      </trkpt>
      <trkpt lat="48.849288" lon="2.144176">
        <ele>162.723143</ele>
        <time>2022-09-04T16:00:12.478Z</time>
      </trkpt>
      <trkpt lat="48.849439" lon="2.144849">
        <ele>163.088384</ele>
        <time>2022-09-04T16:00:21.918Z</time>
      </trkpt>
      <trkpt lat="48.849588" lon="2.145602">
        <ele>163.128598</ele>
        <time>2022-09-04T16:00:31.589Z</time>
      </trkpt>
      <trkpt lat="48.849522" lon="2.147280">
        <ele>163.214568</ele>
        <time>2022-09-04T16:00:52.609Z</time>
      </trkpt>
      <trkpt lat="48.849423" lon="2.149507">
        <ele>164.323654</ele>
        <time>2022-09-04T16:01:25.918Z</time>
      </trkpt>
      <trkpt lat="48.849451" lon="2.149635">
        <ele>164.394814</ele>
        <time>2022-09-04T16:01:28.151Z</time>
      </trkpt>
      <trkpt lat="48.848983" lon="2.149987">
        <ele>164.826355</ele>
        <time>2022-09-04T16:01:41.885Z</time>
      </trkpt>
      <trkpt lat="48.848650" lon="2.149964">
        <ele>165.116660</ele>
        <time>2022-09-04T16:01:50.241Z</time>
      </trkpt>
      <trkpt lat="48.848667" lon="2.150075">
        <ele>165.181973</ele>
        <time>2022-09-04T16:01:52.008Z</time>
      </trkpt>
      <trkpt lat="48.848658" lon="2.150286">
        <ele>165.303148</ele>
        <time>2022-09-04T16:01:55.364Z</time>
      </trkpt>
      <trkpt lat="48.848736" lon="2.150584">
        <ele>165.486941</ele>
        <time>2022-09-04T16:02:00.331Z</time>
      </trkpt>
      <trkpt lat="48.848391" lon="2.151440">
        <ele>166.062203</ele>
        <time>2022-09-04T16:02:15.313Z</time>
      </trkpt>
      <trkpt lat="48.848266" lon="2.151732">
        <ele>166.239200</ele>
        <time>2022-09-04T16:02:20.328Z</time>
      </trkpt>
      <trkpt lat="48.848193" lon="2.151903">
        <ele>166.272180</ele>
        <time>2022-09-04T16:02:23.354Z</time>
      </trkpt>
      <trkpt lat="48.848348" lon="2.152432">
        <ele>166.365872</ele>
        <time>2022-09-04T16:02:31.487Z</time>
      </trkpt>
      <trkpt lat="48.848723" lon="2.152918">
        <ele>166.487051</ele>
        <time>2022-09-04T16:02:41.359Z</time>
      </trkpt>
      <trkpt lat="48.848835" lon="2.153001">
        <ele>166.517689</ele>
        <time>2022-09-04T16:02:43.759Z</time>
      </trkpt>
      <trkpt lat="48.848957" lon="2.153190">
        <ele>166.560525</ele>
        <time>2022-09-04T16:02:46.992Z</time>
      </trkpt>
      <trkpt lat="48.850900" lon="2.156188">
        <ele>166.388332</ele>
        <time>2022-09-04T16:03:41.955Z</time>
      </trkpt>
      <trkpt lat="48.850932" lon="2.156238">
        <ele>166.340418</ele>
        <time>2022-09-04T16:03:42.937Z</time>
      </trkpt>
      <trkpt lat="48.851004" lon="2.156349">
        <ele>166.233347</ele>
        <time>2022-09-04T16:03:45.246Z</time>
      </trkpt>
      <trkpt lat="48.851036" lon="2.156396">
        <ele>166.186888</ele>
        <time>2022-09-04T16:03:46.100Z</time>
      </trkpt>
      <trkpt lat="48.851054" lon="2.156423">
        <ele>166.160485</ele>
        <time>2022-09-04T16:03:46.576Z</time>
      </trkpt>
      <trkpt lat="48.851097" lon="2.156485">
        <ele>166.098605</ele>
        <time>2022-09-04T16:03:47.692Z</time>
      </trkpt>
      <trkpt lat="48.851315" lon="2.156815">
        <ele>165.777382</ele>
        <time>2022-09-04T16:03:53.354Z</time>
      </trkpt>
      <trkpt lat="48.851463" lon="2.157080">
        <ele>165.538613</ele>
        <time>2022-09-04T16:03:59.990Z</time>
      </trkpt>
      <trkpt lat="48.851824" lon="2.157333">
        <ele>165.123598</ele>
        <time>2022-09-04T16:04:10.612Z</time>
      </trkpt>
      <trkpt lat="48.851960" lon="2.157625">
        <ele>164.008130</ele>
        <time>2022-09-04T16:04:16.590Z</time>
      </trkpt>
      <trkpt lat="48.852282" lon="2.158046">
        <ele>161.298183</ele>
        <time>2022-09-04T16:04:27.117Z</time>
      </trkpt>
      <trkpt lat="48.852379" lon="2.158109">
        <ele>160.625189</ele>
        <time>2022-09-04T16:04:29.650Z</time>
      </trkpt>
      <trkpt lat="48.852649" lon="2.158447">
        <ele>158.393471</ele>
        <time>2022-09-04T16:04:37.689Z</time>
      </trkpt>
      <trkpt lat="48.852698" lon="2.158708">
        <ele>157.254079</ele>
        <time>2022-09-04T16:04:41.679Z</time>
      </trkpt>
      <trkpt lat="48.852843" lon="2.158845">
        <ele>156.164794</ele>
        <time>2022-09-04T16:04:45.460Z</time>
      </trkpt>
      <trkpt lat="48.853308" lon="2.159315">
        <ele>152.378830</ele>
        <time>2022-09-04T16:04:57.613Z</time>
      </trkpt>
      <trkpt lat="48.853549" lon="2.159696">
        <ele>149.650384</ele>
        <time>2022-09-04T16:05:05.153Z</time>
      </trkpt>
      <trkpt lat="48.853656" lon="2.159967">
        <ele>148.018765</ele>
        <time>2022-09-04T16:05:09.681Z</time>
      </trkpt>
      <trkpt lat="48.854148" lon="2.160663">
        <ele>142.745029</ele>
        <time>2022-09-04T16:05:24.771Z</time>
      </trkpt>
      <trkpt lat="48.854442" lon="2.161089">
        <ele>139.557916</ele>
        <time>2022-09-04T16:05:34.146Z</time>
      </trkpt>
      <trkpt lat="48.854526" lon="2.161475">
        <ele>138.167395</ele>
        <time>2022-09-04T16:05:40.369Z</time>
      </trkpt>
      <trkpt lat="48.855083" lon="2.161855">
        <ele>135.072375</ele>
        <time>2022-09-04T16:05:54.771Z</time>
      </trkpt>
      <trkpt lat="48.855588" lon="2.162200">
        <ele>132.265652</ele>
        <time>2022-09-04T16:06:07.898Z</time>
      </trkpt>
      <trkpt lat="48.856038" lon="2.162507">
        <ele>130.383439</ele>
        <time>2022-09-04T16:06:20.363Z</time>
      </trkpt>
      <trkpt lat="48.855770" lon="2.163422">
        <ele>130.618783</ele>
        <time>2022-09-04T16:06:39.465Z</time>
      </trkpt>
      <trkpt lat="48.855754" lon="2.163485">
        <ele>130.634651</ele>
        <time>2022-09-04T16:06:40.994Z</time>
      </trkpt>
      <trkpt lat="48.855722" lon="2.163558">
        <ele>130.655262</ele>
        <time>2022-09-04T16:06:43.018Z</time>
      </trkpt>
      <trkpt lat="48.855660" lon="2.163754">
        <ele>130.706364</ele>
        <time>2022-09-04T16:06:47.215Z</time>
      </trkpt>
      <trkpt lat="48.855637" lon="2.163834">
        <ele>130.726878</ele>
        <time>2022-09-04T16:06:49.551Z</time>
      </trkpt>
      <trkpt lat="48.855618" lon="2.163891">
        <ele>130.741892</ele>
        <time>2022-09-04T16:06:51.181Z</time>
      </trkpt>
      <trkpt lat="48.855580" lon="2.164002">
        <ele>130.771294</ele>
        <time>2022-09-04T16:06:54.384Z</time>
      </trkpt>
      <trkpt lat="48.855368" lon="2.164771">
        <ele>130.967212</ele>
        <time>2022-09-04T16:07:12.511Z</time>
      </trkpt>
      <trkpt lat="48.855220" lon="2.165304">
        <ele>132.541697</ele>
        <time>2022-09-04T16:07:27.963Z</time>
      </trkpt>
      <trkpt lat="48.855084" lon="2.165797">
        <ele>134.198008</ele>
        <time>2022-09-04T16:07:48.276Z</time>
      </trkpt>
      <trkpt lat="48.855058" lon="2.165884">
        <ele>134.494067</ele>
        <time>2022-09-04T16:07:51.568Z</time>
      </trkpt>
      <trkpt lat="48.854853" lon="2.166577">
        <ele>136.848260</ele>
        <time>2022-09-04T16:08:17.616Z</time>
      </trkpt>
      <trkpt lat="48.854625" lon="2.167300">
        <ele>139.332391</ele>
        <time>2022-09-04T16:08:47.909Z</time>
      </trkpt>
      <trkpt lat="48.854420" lon="2.167952">
        <ele>140.925671</ele>
        <time>2022-09-04T16:09:11.195Z</time>
      </trkpt>
      <trkpt lat="48.852618" lon="2.170024">
        <ele>148.930254</ele>
        <time>2022-09-04T16:10:55.941Z</time>
      </trkpt>
      <trkpt lat="48.851965" lon="2.170774">
        <ele>152.157304</ele>
        <time>2022-09-04T16:11:41.261Z</time>
      </trkpt>
      <trkpt lat="48.852107" lon="2.171796">
        <ele>155.607864</ele>
        <time>2022-09-04T16:12:22.468Z</time>
      </trkpt>
      <trkpt lat="48.851671" lon="2.172056">
        <ele>158.016203</ele>
        <time>2022-09-04T16:12:50.205Z</time>
      </trkpt>
      <trkpt lat="48.851302" lon="2.172950">
        <ele>161.586911</ele>
        <time>2022-09-04T16:13:29.986Z</time>
      </trkpt>
      <trkpt lat="48.851553" lon="2.173008">
        <ele>162.360394</ele>
        <time>2022-09-04T16:13:44.252Z</time>
      </trkpt>
      <trkpt lat="48.851740" lon="2.172961">
        <ele>162.907070</ele>
        <time>2022-09-04T16:13:53.573Z</time>
      </trkpt>
      <trkpt lat="48.851872" lon="2.172928">
        <ele>163.292905</ele>
        <time>2022-09-04T16:14:00.284Z</time>
      </trkpt>
      <trkpt lat="48.852230" lon="2.172939">
        <ele>164.325670</ele>
        <time>2022-09-04T16:14:16.801Z</time>
      </trkpt>
      <trkpt lat="48.852809" lon="2.173094">
        <ele>166.021348</ele>
        <time>2022-09-04T16:14:42.157Z</time>
      </trkpt>
      <trkpt lat="48.852972" lon="2.173065">
        <ele>166.494687</ele>
        <time>2022-09-04T16:14:49.147Z</time>
      </trkpt>
      <trkpt lat="48.853005" lon="2.172951">
        <ele>166.731048</ele>
        <time>2022-09-04T16:14:52.359Z</time>
      </trkpt>
      <trkpt lat="48.853222" lon="2.172783">
        <ele>166.839755</ele>
        <time>2022-09-04T16:15:01.028Z</time>
      </trkpt>
      <trkpt lat="48.853480" lon="2.172689">
        <ele>166.800841</ele>
        <time>2022-09-04T16:15:10.531Z</time>
      </trkpt>
      <trkpt lat="48.853769" lon="2.172712">
        <ele>166.758394</ele>
        <time>2022-09-04T16:15:20.912Z</time>
      </trkpt>
      <trkpt lat="48.853912" lon="2.172771">
        <ele>166.736661</ele>
        <time>2022-09-04T16:15:26.110Z</time>
      </trkpt>
      <trkpt lat="48.854025" lon="2.172861">
        <ele>166.717949</ele>
        <time>2022-09-04T16:15:30.707Z</time>
      </trkpt>
      <trkpt lat="48.854667" lon="2.173378">
        <ele>166.611382</ele>
        <time>2022-09-04T16:15:51.328Z</time>
      </trkpt>
      <trkpt lat="48.855053" lon="2.173486">
        <ele>165.725289</ele>
        <time>2022-09-04T16:16:01.913Z</time>
      </trkpt>
      <trkpt lat="48.855499" lon="2.173811">
        <ele>164.470872</ele>
        <time>2022-09-04T16:16:15.373Z</time>
      </trkpt>
      <trkpt lat="48.855709" lon="2.173895">
        <ele>163.920144</ele>
        <time>2022-09-04T16:16:20.967Z</time>
      </trkpt>
      <trkpt lat="48.855874" lon="2.173787">
        <ele>163.464521</ele>
        <time>2022-09-04T16:16:25.785Z</time>
      </trkpt>
      <trkpt lat="48.856177" lon="2.173722">
        <ele>162.688450</ele>
        <time>2022-09-04T16:16:33.803Z</time>
      </trkpt>
      <trkpt lat="48.856186" lon="2.173922">
        <ele>162.353937</ele>
        <time>2022-09-04T16:16:35.670Z</time>
      </trkpt>
      <trkpt lat="48.855990" lon="2.174851">
        <ele>160.468601</ele>
        <time>2022-09-04T16:16:44.901Z</time>
      </trkpt>
      <trkpt lat="48.855041" lon="2.181411">
        <ele>146.088068</ele>
        <time>2022-09-04T16:17:49.086Z</time>
      </trkpt>
      <trkpt lat="48.855039" lon="2.182103">
        <ele>144.374283</ele>
        <time>2022-09-04T16:17:55.092Z</time>
      </trkpt>
      <trkpt lat="48.855281" lon="2.182545">
        <ele>141.884894</ele>
        <time>2022-09-04T16:18:00.050Z</time>
      </trkpt>
      <trkpt lat="48.856098" lon="2.183558">
        <ele>134.931566</ele>
        <time>2022-09-04T16:18:13.389Z</time>
      </trkpt>
      <trkpt lat="48.856145" lon="2.183759">
        <ele>134.005990</ele>
        <time>2022-09-04T16:18:15.152Z</time>
      </trkpt>
      <trkpt lat="48.856024" lon="2.184279">
        <ele>131.619172</ele>
        <time>2022-09-04T16:18:19.663Z</time>
      </trkpt>
      <trkpt lat="48.856034" lon="2.184701">
        <ele>129.800073</ele>
        <time>2022-09-04T16:18:23.139Z</time>
      </trkpt>
      <trkpt lat="48.856384" lon="2.184879">
        <ele>127.383604</ele>
        <time>2022-09-04T16:18:27.776Z</time>
      </trkpt>
      <trkpt lat="48.856584" lon="2.184957">
        <ele>126.031706</ele>
        <time>2022-09-04T16:18:30.379Z</time>
      </trkpt>
      <trkpt lat="48.857617" lon="2.185303">
        <ele>119.810947</ele>
        <time>2022-09-04T16:18:44.074Z</time>
      </trkpt>
      <trkpt lat="48.857933" lon="2.185345">
        <ele>118.636225</ele>
        <time>2022-09-04T16:18:48.445Z</time>
      </trkpt>
      <trkpt lat="48.857667" lon="2.187155">
        <ele>114.117406</ele>
        <time>2022-09-04T16:19:06.098Z</time>
      </trkpt>
      <trkpt lat="48.857566" lon="2.187909">
        <ele>112.830916</ele>
        <time>2022-09-04T16:19:13.776Z</time>
      </trkpt>
      <trkpt lat="48.858578" lon="2.188079">
        <ele>110.275668</ele>
        <time>2022-09-04T16:19:41.131Z</time>
      </trkpt>
      <trkpt lat="48.858592" lon="2.188593">
        <ele>109.450688</ele>
        <time>2022-09-04T16:19:46.166Z</time>
      </trkpt>
      <trkpt lat="48.858605" lon="2.189368">
        <ele>108.415674</ele>
        <time>2022-09-04T16:19:53.602Z</time>
      </trkpt>
      <trkpt lat="48.858651" lon="2.189602">
        <ele>108.089621</ele>
        <time>2022-09-04T16:19:55.913Z</time>
      </trkpt>
      <trkpt lat="48.858583" lon="2.189840">
        <ele>107.743207</ele>
        <time>2022-09-04T16:19:58.613Z</time>
      </trkpt>
      <trkpt lat="48.858676" lon="2.190067">
        <ele>107.386191</ele>
        <time>2022-09-04T16:20:01.258Z</time>
      </trkpt>
      <trkpt lat="48.858716" lon="2.190240">
        <ele>107.141377</ele>
        <time>2022-09-04T16:20:03.240Z</time>
      </trkpt>
      <trkpt lat="48.858710" lon="2.190322">
        <ele>107.031227</ele>
        <time>2022-09-04T16:20:04.210Z</time>
      </trkpt>
      <trkpt lat="48.858648" lon="2.190415">
        <ele>106.854465</ele>
        <time>2022-09-04T16:20:05.594Z</time>
      </trkpt>
      <trkpt lat="48.858383" lon="2.191678">
        <ele>105.314302</ele>
        <time>2022-09-04T16:20:20.013Z</time>
      </trkpt>
      <trkpt lat="48.858372" lon="2.191733">
        <ele>105.259068</ele>
        <time>2022-09-04T16:20:20.714Z</time>
      </trkpt>
      <trkpt lat="48.858326" lon="2.191954">
        <ele>105.036347</ele>
        <time>2022-09-04T16:20:23.384Z</time>
      </trkpt>
      <trkpt lat="48.858106" lon="2.193022">
        <ele>103.961038</ele>
        <time>2022-09-04T16:20:35.437Z</time>
      </trkpt>
      <trkpt lat="48.858062" lon="2.193236">
        <ele>103.745608</ele>
        <time>2022-09-04T16:20:37.736Z</time>
      </trkpt>
      <trkpt lat="48.858057" lon="2.193543">
        <ele>103.450536</ele>
        <time>2022-09-04T16:20:40.948Z</time>
      </trkpt>
      <trkpt lat="48.858093" lon="2.193639">
        <ele>103.344363</ele>
        <time>2022-09-04T16:20:42.044Z</time>
      </trkpt>
      <trkpt lat="48.858091" lon="2.193812">
        <ele>103.112545</ele>
        <time>2022-09-04T16:20:43.793Z</time>
      </trkpt>
      <trkpt lat="48.858049" lon="2.193824">
        <ele>103.008873</ele>
        <time>2022-09-04T16:20:44.484Z</time>
      </trkpt>
      <trkpt lat="48.858006" lon="2.193989">
        <ele>102.725617</ele>
        <time>2022-09-04T16:20:46.250Z</time>
      </trkpt>
      <trkpt lat="48.858111" lon="2.194067">
        <ele>102.442103</ele>
        <time>2022-09-04T16:20:47.975Z</time>
      </trkpt>
      <trkpt lat="48.858170" lon="2.193913">
        <ele>102.157675</ele>
        <time>2022-09-04T16:20:49.759Z</time>
      </trkpt>
      <trkpt lat="48.858266" lon="2.193945">
        <ele>101.919255</ele>
        <time>2022-09-04T16:20:51.212Z</time>
      </trkpt>
      <trkpt lat="48.858681" lon="2.194168">
        <ele>100.851448</ele>
        <time>2022-09-04T16:20:57.771Z</time>
      </trkpt>
      <trkpt lat="48.858958" lon="2.194341">
        <ele>100.124960</ele>
        <time>2022-09-04T16:21:02.210Z</time>
      </trkpt>
      <trkpt lat="48.859602" lon="2.194735">
        <ele>98.540315</ele>
        <time>2022-09-04T16:21:12.588Z</time>
      </trkpt>
      <trkpt lat="48.860135" lon="2.195068">
        <ele>97.436175</ele>
        <time>2022-09-04T16:21:21.340Z</time>
      </trkpt>
      <trkpt lat="48.860335" lon="2.195193">
        <ele>97.021842</ele>
        <time>2022-09-04T16:21:24.619Z</time>
      </trkpt>
      <trkpt lat="48.860829" lon="2.195481">
        <ele>96.008098</ele>
        <time>2022-09-04T16:21:32.897Z</time>
      </trkpt>
      <trkpt lat="48.861125" lon="2.195658">
        <ele>95.461355</ele>
        <time>2022-09-04T16:21:38.179Z</time>
      </trkpt>
      <trkpt lat="48.861217" lon="2.195712">
        <ele>95.443869</ele>
        <time>2022-09-04T16:21:39.876Z</time>
      </trkpt>
      <trkpt lat="48.861967" lon="2.196145">
        <ele>95.301624</ele>
        <time>2022-09-04T16:21:54.229Z</time>
      </trkpt>
      <trkpt lat="48.862064" lon="2.196234">
        <ele>95.281535</ele>
        <time>2022-09-04T16:21:56.379Z</time>
      </trkpt>
      <trkpt lat="48.862056" lon="2.196295">
        <ele>95.274280</ele>
        <time>2022-09-04T16:21:57.262Z</time>
      </trkpt>
      <trkpt lat="48.862042" lon="2.196410">
        <ele>95.260639</ele>
        <time>2022-09-04T16:21:58.848Z</time>
      </trkpt>
      <trkpt lat="48.862048" lon="2.196623">
        <ele>95.235771</ele>
        <time>2022-09-04T16:22:01.708Z</time>
      </trkpt>
      <trkpt lat="48.861890" lon="2.197455">
        <ele>95.192701</ele>
        <time>2022-09-04T16:22:14.320Z</time>
      </trkpt>
      <trkpt lat="48.861823" lon="2.197776">
        <ele>95.315016</ele>
        <time>2022-09-04T16:22:19.163Z</time>
      </trkpt>
      <trkpt lat="48.861726" lon="2.198236">
        <ele>95.490463</ele>
        <time>2022-09-04T16:22:26.405Z</time>
      </trkpt>
      <trkpt lat="48.861657" lon="2.198565">
        <ele>95.615883</ele>
        <time>2022-09-04T16:22:31.783Z</time>
      </trkpt>
      <trkpt lat="48.861606" lon="2.198821">
        <ele>95.713033</ele>
        <time>2022-09-04T16:22:35.699Z</time>
      </trkpt>
      <trkpt lat="48.861587" lon="2.198914">
        <ele>95.748402</ele>
        <time>2022-09-04T16:22:37.182Z</time>
      </trkpt>
      <trkpt lat="48.861537" lon="2.199161">
        <ele>95.842265</ele>
        <time>2022-09-04T16:22:40.946Z</time>
      </trkpt>
      <trkpt lat="48.861434" lon="2.199679">
        <ele>96.038812</ele>
        <time>2022-09-04T16:22:48.544Z</time>
      </trkpt>
      <trkpt lat="48.861414" lon="2.199776">
        <ele>96.075733</ele>
        <time>2022-09-04T16:22:49.838Z</time>
      </trkpt>
      <trkpt lat="48.861397" lon="2.199857">
        <ele>96.106613</ele>
        <time>2022-09-04T16:22:50.955Z</time>
      </trkpt>
      <trkpt lat="48.861267" lon="2.200456">
        <ele>96.137917</ele>
        <time>2022-09-04T16:22:59.611Z</time>
      </trkpt>
      <trkpt lat="48.861075" lon="2.201341">
        <ele>96.131051</ele>
        <time>2022-09-04T16:23:11.966Z</time>
      </trkpt>
      <trkpt lat="48.861052" lon="2.201449">
        <ele>96.130215</ele>
        <time>2022-09-04T16:23:13.425Z</time>
      </trkpt>
      <trkpt lat="48.860755" lon="2.202878">
        <ele>95.987548</ele>
        <time>2022-09-04T16:23:31.457Z</time>
      </trkpt>
      <trkpt lat="48.860629" lon="2.203488">
        <ele>95.738038</ele>
        <time>2022-09-04T16:23:38.790Z</time>
      </trkpt>
      <trkpt lat="48.860617" lon="2.203544">
        <ele>95.715054</ele>
        <time>2022-09-04T16:23:39.479Z</time>
      </trkpt>
      <trkpt lat="48.860342" lon="2.204992">
        <ele>95.126898</ele>
        <time>2022-09-04T16:23:57.277Z</time>
      </trkpt>
      <trkpt lat="48.860290" lon="2.205265">
        <ele>94.996620</ele>
        <time>2022-09-04T16:24:00.337Z</time>
      </trkpt>
      <trkpt lat="48.860235" lon="2.205737">
        <ele>94.716199</ele>
        <time>2022-09-04T16:24:05.634Z</time>
      </trkpt>
      <trkpt lat="48.860268" lon="2.205908">
        <ele>94.611947</ele>
        <time>2022-09-04T16:24:07.626Z</time>
      </trkpt>
      <trkpt lat="48.860196" lon="2.205992">
        <ele>94.531240</ele>
        <time>2022-09-04T16:24:09.123Z</time>
      </trkpt>
      <trkpt lat="48.860050" lon="2.206466">
        <ele>94.225059</ele>
        <time>2022-09-04T16:24:14.766Z</time>
      </trkpt>
      <trkpt lat="48.859934" lon="2.207042">
        <ele>93.872659</ele>
        <time>2022-09-04T16:24:21.339Z</time>
      </trkpt>
      <trkpt lat="48.859357" lon="2.209935">
        <ele>92.760176</ele>
        <time>2022-09-04T16:24:57.341Z</time>
      </trkpt>
      <trkpt lat="48.859136" lon="2.211020">
        <ele>91.779217</ele>
        <time>2022-09-04T16:25:10.990Z</time>
      </trkpt>
      <trkpt lat="48.859056" lon="2.211410">
        <ele>91.289431</ele>
        <time>2022-09-04T16:25:15.334Z</time>
      </trkpt>
      <trkpt lat="48.859043" lon="2.211454">
        <ele>91.231602</ele>
        <time>2022-09-04T16:25:15.826Z</time>
      </trkpt>
      <trkpt lat="48.859035" lon="2.211472">
        <ele>91.205558</ele>
        <time>2022-09-04T16:25:16.040Z</time>
      </trkpt>
      <trkpt lat="48.858943" lon="2.211562">
        <ele>91.006180</ele>
        <time>2022-09-04T16:25:17.695Z</time>
      </trkpt>
      <trkpt lat="48.858839" lon="2.211839">
        <ele>90.623800</ele>
        <time>2022-09-04T16:25:20.894Z</time>
      </trkpt>
      <trkpt lat="48.858887" lon="2.211956">
        <ele>90.458485</ele>
        <time>2022-09-04T16:25:22.277Z</time>
      </trkpt>
      <trkpt lat="48.859002" lon="2.212354">
        <ele>89.937314</ele>
        <time>2022-09-04T16:25:26.608Z</time>
      </trkpt>
      <trkpt lat="48.859050" lon="2.212519">
        <ele>89.721013</ele>
        <time>2022-09-04T16:25:28.389Z</time>
      </trkpt>
      <trkpt lat="48.859063" lon="2.212560">
        <ele>89.666446</ele>
        <time>2022-09-04T16:25:28.831Z</time>
      </trkpt>
      <trkpt lat="48.859170" lon="2.212937">
        <ele>88.891065</ele>
        <time>2022-09-04T16:25:32.842Z</time>
      </trkpt>
      <trkpt lat="48.859348" lon="2.213507">
        <ele>86.948793</ele>
        <time>2022-09-04T16:25:38.663Z</time>
      </trkpt>
      <trkpt lat="48.859375" lon="2.213607">
        <ele>86.616047</ele>
        <time>2022-09-04T16:25:39.617Z</time>
      </trkpt>
      <trkpt lat="48.859411" lon="2.213734">
        <ele>86.190357</ele>
        <time>2022-09-04T16:25:40.818Z</time>
      </trkpt>
      <trkpt lat="48.859450" lon="2.213888">
        <ele>85.682389</ele>
        <time>2022-09-04T16:25:42.285Z</time>
      </trkpt>
      <trkpt lat="48.859672" lon="2.214604">
        <ele>83.245822</ele>
        <time>2022-09-04T16:25:49.051Z</time>
      </trkpt>
      <trkpt lat="48.859766" lon="2.214769">
        <ele>82.573942</ele>
        <time>2022-09-04T16:25:50.914Z</time>
      </trkpt>
      <trkpt lat="48.859879" lon="2.214893">
        <ele>81.921833</ele>
        <time>2022-09-04T16:25:52.736Z</time>
      </trkpt>
      <trkpt lat="48.860562" lon="2.215354">
        <ele>78.258235</ele>
        <time>2022-09-04T16:26:02.733Z</time>
      </trkpt>
      <trkpt lat="48.861402" lon="2.215898">
        <ele>73.702298</ele>
        <time>2022-09-04T16:26:15.092Z</time>
      </trkpt>
      <trkpt lat="48.862256" lon="2.216483">
        <ele>68.365002</ele>
        <time>2022-09-04T16:26:27.379Z</time>
      </trkpt>
      <trkpt lat="48.862460" lon="2.216781">
        <ele>66.634284</ele>
        <time>2022-09-04T16:26:31.019Z</time>
      </trkpt>
      <trkpt lat="48.862505" lon="2.216959">
        <ele>65.866896</ele>
        <time>2022-09-04T16:26:32.622Z</time>
      </trkpt>
      <trkpt lat="48.862571" lon="2.217305">
        <ele>64.417155</ele>
        <time>2022-09-04T16:26:35.714Z</time>
      </trkpt>
      <trkpt lat="48.862624" lon="2.217595">
        <ele>63.205928</ele>
        <time>2022-09-04T16:26:38.290Z</time>
      </trkpt>
      <trkpt lat="48.862671" lon="2.217831">
        <ele>62.213644</ele>
        <time>2022-09-04T16:26:40.368Z</time>
      </trkpt>
      <trkpt lat="48.862644" lon="2.218013">
        <ele>61.462840</ele>
        <time>2022-09-04T16:26:41.901Z</time>
      </trkpt>
      <trkpt lat="48.862909" lon="2.218519">
        <ele>58.583917</ele>
        <time>2022-09-04T16:26:47.237Z</time>
      </trkpt>
      <trkpt lat="48.863121" lon="2.218715">
        <ele>56.866581</ele>
        <time>2022-09-04T16:26:50.280Z</time>
      </trkpt>
      <trkpt lat="48.863663" lon="2.218952">
        <ele>52.963258</ele>
        <time>2022-09-04T16:26:57.346Z</time>
      </trkpt>
      <trkpt lat="48.863809" lon="2.219167">
        <ele>51.556383</ele>
        <time>2022-09-04T16:26:59.878Z</time>
      </trkpt>
      <trkpt lat="48.863907" lon="2.219401">
        <ele>50.293400</ele>
        <time>2022-09-04T16:27:02.227Z</time>
      </trkpt>
      <trkpt lat="48.864089" lon="2.219826">
        <ele>48.179175</ele>
        <time>2022-09-04T16:27:06.547Z</time>
      </trkpt>
      <trkpt lat="48.864289" lon="2.220276">
        <ele>46.616755</ele>
        <time>2022-09-04T16:27:11.255Z</time>
      </trkpt>
      <trkpt lat="48.864584" lon="2.220836">
        <ele>44.552748</ele>
        <time>2022-09-04T16:27:17.570Z</time>
      </trkpt>
      <trkpt lat="48.864627" lon="2.220937">
        <ele>44.206631</ele>
        <time>2022-09-04T16:27:18.626Z</time>
      </trkpt>
      <trkpt lat="48.864680" lon="2.221053">
        <ele>43.800306</ele>
        <time>2022-09-04T16:27:19.878Z</time>
      </trkpt>
      <trkpt lat="48.864683" lon="2.221087">
        <ele>43.701613</ele>
        <time>2022-09-04T16:27:20.195Z</time>
      </trkpt>
      <trkpt lat="48.864690" lon="2.221169">
        <ele>43.463724</ele>
        <time>2022-09-04T16:27:20.937Z</time>
      </trkpt>
      <trkpt lat="48.864657" lon="2.221318">
        <ele>43.011414</ele>
        <time>2022-09-04T16:27:22.376Z</time>
      </trkpt>
      <trkpt lat="48.864698" lon="2.221357">
        <ele>42.799895</ele>
        <time>2022-09-04T16:27:23.069Z</time>
      </trkpt>
      <trkpt lat="48.864911" lon="2.221503">
        <ele>41.778051</ele>
        <time>2022-09-04T16:27:26.388Z</time>
      </trkpt>
      <trkpt lat="48.864966" lon="2.221628">
        <ele>41.345405</ele>
        <time>2022-09-04T16:27:27.826Z</time>
      </trkpt>
      <trkpt lat="48.865485" lon="2.222701">
        <ele>39.828854</ele>
        <time>2022-09-04T16:27:41.430Z</time>
      </trkpt>
      <trkpt lat="48.865546" lon="2.222834">
        <ele>39.707027</ele>
        <time>2022-09-04T16:27:43.204Z</time>
      </trkpt>
      <trkpt lat="48.866041" lon="2.223942">
        <ele>38.700647</ele>
        <time>2022-09-04T16:27:59.279Z</time>
      </trkpt>
      <trkpt lat="48.865964" lon="2.223980">
        <ele>38.608177</ele>
        <time>2022-09-04T16:28:00.699Z</time>
      </trkpt>
      <trkpt lat="48.865933" lon="2.224093">
        <ele>38.551323</ele>
        <time>2022-09-04T16:28:02.177Z</time>
      </trkpt>
      <trkpt lat="48.865978" lon="2.224212">
        <ele>38.495504</ele>
        <time>2022-09-04T16:28:03.889Z</time>
      </trkpt>
      <trkpt lat="48.866050" lon="2.224232">
        <ele>38.450257</ele>
        <time>2022-09-04T16:28:05.376Z</time>
      </trkpt>
      <trkpt lat="48.866329" lon="2.224516">
        <ele>38.242684</ele>
        <time>2022-09-04T16:28:11.636Z</time>
      </trkpt>
      <trkpt lat="48.866436" lon="2.224599">
        <ele>38.168424</ele>
        <time>2022-09-04T16:28:13.879Z</time>
      </trkpt>
      <trkpt lat="48.866567" lon="2.224714">
        <ele>38.074907</ele>
        <time>2022-09-04T16:28:16.580Z</time>
      </trkpt>
      <trkpt lat="48.866796" lon="2.224975">
        <ele>37.897972</ele>
        <time>2022-09-04T16:28:21.793Z</time>
      </trkpt>
      <trkpt lat="48.866880" lon="2.225079">
        <ele>37.831000</ele>
        <time>2022-09-04T16:28:23.754Z</time>
      </trkpt>
      <trkpt lat="48.867002" lon="2.225236">
        <ele>37.732186</ele>
        <time>2022-09-04T16:28:26.651Z</time>
      </trkpt>
      <trkpt lat="48.866990" lon="2.225282">
        <ele>37.712063</ele>
        <time>2022-09-04T16:28:27.169Z</time>
      </trkpt>
      <trkpt lat="48.866975" lon="2.225301">
        <ele>37.699993</ele>
        <time>2022-09-04T16:28:27.486Z</time>
      </trkpt>
      <trkpt lat="48.866978" lon="2.225329">
        <ele>37.688456</ele>
        <time>2022-09-04T16:28:27.803Z</time>
      </trkpt>
      <trkpt lat="48.866979" lon="2.225383">
        <ele>37.666488</ele>
        <time>2022-09-04T16:28:28.377Z</time>
      </trkpt>
      <trkpt lat="48.866979" lon="2.225481">
        <ele>37.626636</ele>
        <time>2022-09-04T16:28:29.427Z</time>
      </trkpt>
      <trkpt lat="48.867004" lon="2.225486">
        <ele>37.611048</ele>
        <time>2022-09-04T16:28:29.851Z</time>
      </trkpt>
      <trkpt lat="48.867034" lon="2.225507">
        <ele>37.590631</ele>
        <time>2022-09-04T16:28:30.447Z</time>
      </trkpt>
      <trkpt lat="48.867309" lon="2.225738">
        <ele>37.286463</ele>
        <time>2022-09-04T16:28:35.468Z</time>
      </trkpt>
      <trkpt lat="48.867346" lon="2.225771">
        <ele>37.225428</ele>
        <time>2022-09-04T16:28:36.181Z</time>
      </trkpt>
      <trkpt lat="48.867360" lon="2.225783">
        <ele>37.202561</ele>
        <time>2022-09-04T16:28:36.454Z</time>
      </trkpt>
      <trkpt lat="48.867513" lon="2.225919">
        <ele>36.950388</ele>
        <time>2022-09-04T16:28:39.230Z</time>
      </trkpt>
      <trkpt lat="48.867561" lon="2.226101">
        <ele>36.766868</ele>
        <time>2022-09-04T16:28:41.215Z</time>
      </trkpt>
      <trkpt lat="48.867510" lon="2.226306">
        <ele>36.561740</ele>
        <time>2022-09-04T16:28:43.634Z</time>
      </trkpt>
      <trkpt lat="48.867543" lon="2.226327">
        <ele>36.510839</ele>
        <time>2022-09-04T16:28:44.168Z</time>
      </trkpt>
      <trkpt lat="48.867582" lon="2.226350">
        <ele>36.451320</ele>
        <time>2022-09-04T16:28:45.337Z</time>
      </trkpt>
      <trkpt lat="48.867671" lon="2.226409">
        <ele>36.313174</ele>
        <time>2022-09-04T16:28:46.860Z</time>
      </trkpt>
      <trkpt lat="48.867733" lon="2.226456">
        <ele>36.214600</ele>
        <time>2022-09-04T16:28:47.976Z</time>
      </trkpt>
      <trkpt lat="48.867747" lon="2.226465">
        <ele>36.192973</ele>
        <time>2022-09-04T16:28:48.232Z</time>
      </trkpt>
      <trkpt lat="48.867755" lon="2.226470">
        <ele>36.180666</ele>
        <time>2022-09-04T16:28:48.368Z</time>
      </trkpt>
      <trkpt lat="48.867791" lon="2.226493">
        <ele>36.125106</ele>
        <time>2022-09-04T16:28:49.019Z</time>
      </trkpt>
      <trkpt lat="48.867836" lon="2.226529">
        <ele>36.052755</ele>
        <time>2022-09-04T16:28:49.912Z</time>
      </trkpt>
      <trkpt lat="48.867823" lon="2.226571">
        <ele>36.009312</ele>
        <time>2022-09-04T16:28:50.368Z</time>
      </trkpt>
      <trkpt lat="48.867606" lon="2.227306">
        <ele>35.255296</ele>
        <time>2022-09-04T16:28:58.858Z</time>
      </trkpt>
      <trkpt lat="48.867584" lon="2.227381">
        <ele>35.178438</ele>
        <time>2022-09-04T16:28:59.753Z</time>
      </trkpt>
      <trkpt lat="48.867580" lon="2.227496">
        <ele>35.070656</ele>
        <time>2022-09-04T16:29:01.065Z</time>
      </trkpt>
      <trkpt lat="48.867543" lon="2.227529">
        <ele>35.009621</ele>
        <time>2022-09-04T16:29:01.790Z</time>
      </trkpt>
      <trkpt lat="48.867467" lon="2.227721">
        <ele>34.865337</ele>
        <time>2022-09-04T16:29:04.180Z</time>
      </trkpt>
      <trkpt lat="48.867433" lon="2.227842">
        <ele>34.808333</ele>
        <time>2022-09-04T16:29:05.618Z</time>
      </trkpt>
      <trkpt lat="48.867418" lon="2.227900">
        <ele>34.781333</ele>
        <time>2022-09-04T16:29:06.314Z</time>
      </trkpt>
      <trkpt lat="48.867306" lon="2.228323">
        <ele>34.583786</ele>
        <time>2022-09-04T16:29:11.380Z</time>
      </trkpt>
      <trkpt lat="48.866596" lon="2.230979">
        <ele>33.125495</ele>
        <time>2022-09-04T16:29:45.375Z</time>
      </trkpt>
      <trkpt lat="48.866558" lon="2.231121">
        <ele>33.022761</ele>
        <time>2022-09-04T16:29:47.067Z</time>
      </trkpt>
      <trkpt lat="48.866467" lon="2.231441">
        <ele>32.789132</ele>
        <time>2022-09-04T16:29:50.899Z</time>
      </trkpt>
      <trkpt lat="48.866358" lon="2.231799">
        <ele>32.524766</ele>
        <time>2022-09-04T16:29:55.082Z</time>
      </trkpt>
      <trkpt lat="48.865990" lon="2.232857">
        <ele>31.757124</ele>
        <time>2022-09-04T16:30:07.857Z</time>
      </trkpt>
      <trkpt lat="48.865434" lon="2.234052">
        <ele>30.961554</ele>
        <time>2022-09-04T16:30:24.062Z</time>
      </trkpt>
      <trkpt lat="48.865238" lon="2.234466">
        <ele>30.684311</ele>
        <time>2022-09-04T16:30:30.069Z</time>
      </trkpt>
      <trkpt lat="48.865174" lon="2.234598">
        <ele>30.595182</ele>
        <time>2022-09-04T16:30:32.037Z</time>
      </trkpt>
      <trkpt lat="48.865131" lon="2.234685">
        <ele>30.536034</ele>
        <time>2022-09-04T16:30:33.382Z</time>
      </trkpt>
      <trkpt lat="48.865115" lon="2.234796">
        <ele>30.474269</ele>
        <time>2022-09-04T16:30:34.838Z</time>
      </trkpt>
      <trkpt lat="48.864933" lon="2.234996">
        <ele>30.399278</ele>
        <time>2022-09-04T16:30:39.115Z</time>
      </trkpt>
      <trkpt lat="48.864643" lon="2.235506">
        <ele>30.344730</ele>
        <time>2022-09-04T16:30:48.028Z</time>
      </trkpt>
      <trkpt lat="48.864277" lon="2.236396">
        <ele>30.259799</ele>
        <time>2022-09-04T16:31:02.547Z</time>
      </trkpt>
      <trkpt lat="48.864089" lon="2.236720">
        <ele>30.224840</ele>
        <time>2022-09-04T16:31:08.109Z</time>
      </trkpt>
      <trkpt lat="48.863927" lon="2.237197">
        <ele>30.192918</ele>
        <time>2022-09-04T16:31:14.829Z</time>
      </trkpt>
      <trkpt lat="48.863689" lon="2.238336">
        <ele>30.165935</ele>
        <time>2022-09-04T16:31:30.383Z</time>
      </trkpt>
      <trkpt lat="48.863637" lon="2.238894">
        <ele>30.153210</ele>
        <time>2022-09-04T16:31:37.855Z</time>
      </trkpt>
      <trkpt lat="48.863660" lon="2.239153">
        <ele>30.147309</ele>
        <time>2022-09-04T16:31:41.275Z</time>
      </trkpt>
      <trkpt lat="48.863708" lon="2.239275">
        <ele>30.144100</ele>
        <time>2022-09-04T16:31:43.102Z</time>
      </trkpt>
      <trkpt lat="48.863889" lon="2.239438">
        <ele>30.136879</ele>
        <time>2022-09-04T16:31:47.819Z</time>
      </trkpt>
      <trkpt lat="48.863859" lon="2.239599">
        <ele>30.194470</ele>
        <time>2022-09-04T16:31:49.966Z</time>
      </trkpt>
      <trkpt lat="48.863893" lon="2.239621">
        <ele>30.223827</ele>
        <time>2022-09-04T16:31:50.761Z</time>
      </trkpt>
      <trkpt lat="48.863993" lon="2.239699">
        <ele>30.313123</ele>
        <time>2022-09-04T16:31:53.418Z</time>
      </trkpt>
      <trkpt lat="48.864211" lon="2.239857">
        <ele>30.504995</ele>
        <time>2022-09-04T16:31:58.285Z</time>
      </trkpt>
      <trkpt lat="48.864901" lon="2.240358">
        <ele>31.112502</ele>
        <time>2022-09-04T16:32:15.727Z</time>
      </trkpt>
      <trkpt lat="48.866230" lon="2.241481">
        <ele>32.678096</ele>
        <time>2022-09-04T16:32:54.920Z</time>
      </trkpt>
      <trkpt lat="48.866317" lon="2.241572">
        <ele>32.801686</ele>
        <time>2022-09-04T16:32:57.531Z</time>
      </trkpt>
      <trkpt lat="48.866456" lon="2.241719">
        <ele>32.999851</ele>
        <time>2022-09-04T16:33:02.025Z</time>
      </trkpt>
      <trkpt lat="48.866687" lon="2.241935">
        <ele>33.317238</ele>
        <time>2022-09-04T16:33:08.401Z</time>
      </trkpt>
      <trkpt lat="48.866758" lon="2.242001">
        <ele>33.414634</ele>
        <time>2022-09-04T16:33:10.674Z</time>
      </trkpt>
      <trkpt lat="48.867419" lon="2.242602">
        <ele>34.038629</ele>
        <time>2022-09-04T16:33:28.993Z</time>
      </trkpt>
      <trkpt lat="48.867782" lon="2.242950">
        <ele>34.325364</ele>
        <time>2022-09-04T16:33:38.990Z</time>
      </trkpt>
      <trkpt lat="48.868019" lon="2.243177">
        <ele>34.512522</ele>
        <time>2022-09-04T16:33:45.226Z</time>
      </trkpt>
      <trkpt lat="48.869051" lon="2.244123">
        <ele>34.928670</ele>
        <time>2022-09-04T16:34:09.982Z</time>
      </trkpt>
      <trkpt lat="48.869950" lon="2.244855">
        <ele>35.016218</ele>
        <time>2022-09-04T16:34:29.798Z</time>
      </trkpt>
      <trkpt lat="48.870435" lon="2.245226">
        <ele>34.825931</ele>
        <time>2022-09-04T16:34:39.726Z</time>
      </trkpt>
      <trkpt lat="48.870767" lon="2.245474">
        <ele>34.654931</ele>
        <time>2022-09-04T16:34:46.346Z</time>
      </trkpt>
      <trkpt lat="48.871281" lon="2.245856">
        <ele>34.390452</ele>
        <time>2022-09-04T16:34:56.425Z</time>
      </trkpt>
      <trkpt lat="48.872487" lon="2.246832">
        <ele>34.065128</ele>
        <time>2022-09-04T16:35:20.795Z</time>
      </trkpt>
      <trkpt lat="48.874238" lon="2.248537">
        <ele>34.860557</ele>
        <time>2022-09-04T16:36:03.594Z</time>
      </trkpt>
      <trkpt lat="48.874261" lon="2.248559">
        <ele>34.880849</ele>
        <time>2022-09-04T16:36:04.296Z</time>
      </trkpt>
      <trkpt lat="48.874379" lon="2.248674">
        <ele>34.985516</ele>
        <time>2022-09-04T16:36:07.952Z</time>
      </trkpt>
      <trkpt lat="48.874518" lon="2.248804">
        <ele>35.107382</ele>
        <time>2022-09-04T16:36:12.326Z</time>
      </trkpt>
      <trkpt lat="48.875444" lon="2.249646">
        <ele>36.450403</ele>
        <time>2022-09-04T16:36:42.592Z</time>
      </trkpt>
      <trkpt lat="48.876100" lon="2.250211">
        <ele>37.499518</ele>
        <time>2022-09-04T16:37:02.341Z</time>
      </trkpt>
      <trkpt lat="48.876727" lon="2.250762">
        <ele>37.629838</ele>
        <time>2022-09-04T16:37:18.818Z</time>
      </trkpt>
      <trkpt lat="48.877046" lon="2.251046">
        <ele>37.511756</ele>
        <time>2022-09-04T16:37:25.521Z</time>
      </trkpt>
      <trkpt lat="48.877137" lon="2.251124">
        <ele>37.478387</ele>
        <time>2022-09-04T16:37:27.288Z</time>
      </trkpt>
      <trkpt lat="48.877823" lon="2.251711">
        <ele>37.226939</ele>
        <time>2022-09-04T16:37:40.276Z</time>
      </trkpt>
      <trkpt lat="48.878659" lon="2.252425">
        <ele>37.108258</ele>
        <time>2022-09-04T16:37:57.382Z</time>
      </trkpt>
      <trkpt lat="48.879461" lon="2.253111">
        <ele>37.050248</ele>
        <time>2022-09-04T16:38:16.340Z</time>
      </trkpt>
      <trkpt lat="48.879981" lon="2.253520">
        <ele>37.517009</ele>
        <time>2022-09-04T16:38:31.285Z</time>
      </trkpt>
      <trkpt lat="48.881348" lon="2.254596">
        <ele>38.053367</ele>
        <time>2022-09-04T16:39:07.541Z</time>
      </trkpt>
      <trkpt lat="48.881642" lon="2.254843">
        <ele>37.713593</ele>
        <time>2022-09-04T16:39:13.193Z</time>
      </trkpt>
      <trkpt lat="48.882166" lon="2.255311">
        <ele>37.098865</ele>
        <time>2022-09-04T16:39:22.838Z</time>
      </trkpt>
      <trkpt lat="48.882361" lon="2.255537">
        <ele>36.850849</ele>
        <time>2022-09-04T16:39:26.614Z</time>
      </trkpt>
      <trkpt lat="48.882728" lon="2.255279">
        <ele>36.509104</ele>
        <time>2022-09-04T16:39:32.879Z</time>
      </trkpt>
      <trkpt lat="48.882942" lon="2.254970">
        <ele>36.323106</ele>
        <time>2022-09-04T16:39:37.557Z</time>
      </trkpt>
      <trkpt lat="48.883398" lon="2.254010">
        <ele>35.832270</ele>
        <time>2022-09-04T16:39:50.662Z</time>
      </trkpt>
      <trkpt lat="48.883701" lon="2.254282">
        <ele>35.610503</ele>
        <time>2022-09-04T16:39:57.895Z</time>
      </trkpt>
      <trkpt lat="48.884244" lon="2.254743">
        <ele>36.090855</ele>
        <time>2022-09-04T16:40:13.898Z</time>
      </trkpt>
      <trkpt lat="48.884700" lon="2.255129">
        <ele>36.832229</ele>
        <time>2022-09-04T16:40:29.011Z</time>
      </trkpt>
      <trkpt lat="48.884771" lon="2.255170">
        <ele>36.940116</ele>
        <time>2022-09-04T16:40:31.315Z</time>
      </trkpt>
      <trkpt lat="48.884957" lon="2.255253">
        <ele>37.215482</ele>
        <time>2022-09-04T16:40:37.206Z</time>
      </trkpt>
      <trkpt lat="48.885256" lon="2.255372">
        <ele>37.654538</ele>
        <time>2022-09-04T16:40:45.631Z</time>
      </trkpt>
      <trkpt lat="48.885975" lon="2.255889">
        <ele>37.679360</ele>
        <time>2022-09-04T16:41:04.091Z</time>
      </trkpt>
      <trkpt lat="48.886375" lon="2.256180">
        <ele>37.372003</ele>
        <time>2022-09-04T16:41:11.985Z</time>
      </trkpt>
      <trkpt lat="48.887018" lon="2.256653">
        <ele>36.876896</ele>
        <time>2022-09-04T16:41:23.409Z</time>
      </trkpt>
      <trkpt lat="48.887376" lon="2.256998">
        <ele>36.201132</ele>
        <time>2022-09-04T16:41:29.793Z</time>
      </trkpt>
      <trkpt lat="48.888059" lon="2.257781">
        <ele>34.539259</ele>
        <time>2022-09-04T16:41:42.584Z</time>
      </trkpt>
      <trkpt lat="48.888434" lon="2.258152">
        <ele>33.670034</ele>
        <time>2022-09-04T16:41:49.658Z</time>
      </trkpt>
      <trkpt lat="48.889165" lon="2.259200">
        <ele>32.475964</ele>
        <time>2022-09-04T16:42:06.960Z</time>
      </trkpt>
      <trkpt lat="48.889435" lon="2.259565">
        <ele>32.110288</ele>
        <time>2022-09-04T16:42:13.380Z</time>
      </trkpt>
      <trkpt lat="48.889472" lon="2.259608">
        <ele>32.063151</ele>
        <time>2022-09-04T16:42:14.194Z</time>
      </trkpt>
      <trkpt lat="48.889964" lon="2.260296">
        <ele>31.367636</ele>
        <time>2022-09-04T16:42:25.172Z</time>
      </trkpt>
      <trkpt lat="48.889996" lon="2.260344">
        <ele>31.312855</ele>
        <time>2022-09-04T16:42:25.928Z</time>
      </trkpt>
      <trkpt lat="48.890184" lon="2.260765">
        <ele>30.905011</ele>
        <time>2022-09-04T16:42:31.423Z</time>
      </trkpt>
      <trkpt lat="48.890240" lon="2.260694">
        <ele>30.816150</ele>
        <time>2022-09-04T16:42:32.591Z</time>
      </trkpt>
      <trkpt lat="48.890272" lon="2.260655">
        <ele>30.766169</ele>
        <time>2022-09-04T16:42:33.212Z</time>
      </trkpt>
      <trkpt lat="48.890204" lon="2.260524">
        <ele>30.632413</ele>
        <time>2022-09-04T16:42:35.076Z</time>
      </trkpt>
      <trkpt lat="48.890368" lon="2.260761">
        <ele>30.356679</ele>
        <time>2022-09-04T16:42:38.869Z</time>
      </trkpt>
      <trkpt lat="48.890711" lon="2.260344">
        <ele>29.821466</ele>
        <time>2022-09-04T16:42:46.010Z</time>
      </trkpt>
      <trkpt lat="48.890760" lon="2.260389">
        <ele>29.751700</ele>
        <time>2022-09-04T16:42:47.372Z</time>
      </trkpt>
      <trkpt lat="48.890968" lon="2.260833">
        <ele>29.314806</ele>
        <time>2022-09-04T16:42:55.232Z</time>
      </trkpt>
      <trkpt lat="48.891621" lon="2.262385">
        <ele>29.287227</ele>
        <time>2022-09-04T16:43:23.209Z</time>
      </trkpt>
      <trkpt lat="48.891675" lon="2.262442">
        <ele>29.287227</ele>
        <time>2022-09-04T16:43:24.909Z</time>
      </trkpt>
    </trkseg>
  </trk>
</gpx>